<?xml version='1.0' encoding='UTF-8'?><gpx version="1.1" creator="JPX - https://github.com/jenetics/jpx" xmlns="http://www.topografix.com/GPX/1/1"><trk><trkseg><trkpt lat="45.4805681" lon="9.3223329"><ele>114.0</ele><time>2026-04-04T12:08:30.013Z</time></trkpt><trkpt lat="45.4806491" lon="9.3223178"><ele>114.0</ele><time>2026-04-04T12:08:33.013Z</time></trkpt><trkpt lat="45.4807391" lon="9.322309"><ele>114.0</ele><time>2026-04-04T12:08:36.013Z</time></trkpt><trkpt lat="45.4808129" lon="9.3223032"><ele>114.0</ele><time>2026-04-04T12:08:38.013Z</time></trkpt><trkpt lat="45.4808884" lon="9.322297"><ele>114.0</ele><time>2026-04-04T12:08:40.013Z</time></trkpt><trkpt lat="45.4809644" lon="9.3222959"><ele>114.0</ele><time>2026-04-04T12:08:42.013Z</time></trkpt><trkpt lat="45.4810396" lon="9.3222922"><ele>114.0</ele><time>2026-04-04T12:08:43.924Z</time></trkpt><trkpt lat="45.4811244" lon="9.3222854"><ele>114.0</ele><time>2026-04-04T12:08:46.013Z</time></trkpt><trkpt lat="45.4811917" lon="9.3222844"><ele>114.0</ele><time>2026-04-04T12:08:47.67Z</time></trkpt><trkpt lat="45.4812876" lon="9.3222725"><ele>114.0</ele><time>2026-04-04T12:08:50.013Z</time></trkpt><trkpt lat="45.4813638" lon="9.3222645"><ele>114.0</ele><time>2026-04-04T12:08:51.945Z</time></trkpt><trkpt lat="45.4814357" lon="9.3222586"><ele>114.0</ele><time>2026-04-04T12:08:54.013Z</time></trkpt><trkpt lat="45.4814906" lon="9.3222045"><ele>114.33333333333333</ele><time>2026-04-04T12:08:56.013Z</time></trkpt><trkpt lat="45.4815044" lon="9.3220983"><ele>114.66666666666666</ele><time>2026-04-04T12:08:58.013Z</time></trkpt><trkpt lat="45.481486" lon="9.3220053"><ele>115.0</ele><time>2026-04-04T12:09:00.013Z</time></trkpt><trkpt lat="45.4814814" lon="9.3218891"><ele>115.33333333333333</ele><time>2026-04-04T12:09:02.013Z</time></trkpt><trkpt lat="45.4814842" lon="9.3217743"><ele>115.66666666666666</ele><time>2026-04-04T12:09:04.013Z</time></trkpt><trkpt lat="45.4814854" lon="9.3216642"><ele>116.0</ele><time>2026-04-04T12:09:05.965Z</time></trkpt><trkpt lat="45.4814793" lon="9.3215513"><ele>115.99999999999999</ele><time>2026-04-04T12:09:08.013Z</time></trkpt><trkpt lat="45.481475" lon="9.3214538"><ele>116.0</ele><time>2026-04-04T12:09:10.013Z</time></trkpt><trkpt lat="45.4814631" lon="9.3213628"><ele>116.0</ele><time>2026-04-04T12:09:12.013Z</time></trkpt><trkpt lat="45.4813809" lon="9.321311"><ele>116.0</ele><time>2026-04-04T12:09:14.014Z</time></trkpt><trkpt lat="45.4813088" lon="9.3212439"><ele>115.99999999999999</ele><time>2026-04-04T12:09:16.013Z</time></trkpt><trkpt lat="45.4812356" lon="9.3211956"><ele>116.0</ele><time>2026-04-04T12:09:18.013Z</time></trkpt><trkpt lat="45.4811555" lon="9.3211515"><ele>115.83333333333333</ele><time>2026-04-04T12:09:20.013Z</time></trkpt><trkpt lat="45.4810772" lon="9.3211064"><ele>115.66666666666666</ele><time>2026-04-04T12:09:22.013Z</time></trkpt><trkpt lat="45.4809958" lon="9.3210677"><ele>115.5</ele><time>2026-04-04T12:09:24.013Z</time></trkpt><trkpt lat="45.4809138" lon="9.3210271"><ele>115.33333333333334</ele><time>2026-04-04T12:09:26.013Z</time></trkpt><trkpt lat="45.4808326" lon="9.3209735"><ele>115.16666666666667</ele><time>2026-04-04T12:09:28.013Z</time></trkpt><trkpt lat="45.4807519" lon="9.320914"><ele>115.0</ele><time>2026-04-04T12:09:30.013Z</time></trkpt><trkpt lat="45.4806738" lon="9.3208709"><ele>115.00000000000001</ele><time>2026-04-04T12:09:32.013Z</time></trkpt><trkpt lat="45.4805987" lon="9.3208478"><ele>115.0</ele><time>2026-04-04T12:09:34.013Z</time></trkpt><trkpt lat="45.480526" lon="9.3208367"><ele>115.0</ele><time>2026-04-04T12:09:36.013Z</time></trkpt><trkpt lat="45.4804284" lon="9.3208211"><ele>115.0</ele><time>2026-04-04T12:09:39.013Z</time></trkpt><trkpt lat="45.4803574" lon="9.32081"><ele>115.00000000000001</ele><time>2026-04-04T12:09:41.013Z</time></trkpt><trkpt lat="45.4802815" lon="9.3208157"><ele>115.0</ele><time>2026-04-04T12:09:43.013Z</time></trkpt><trkpt lat="45.4802089" lon="9.3208118"><ele>114.83333333333334</ele><time>2026-04-04T12:09:45.013Z</time></trkpt><trkpt lat="45.4801455" lon="9.3207955"><ele>114.66666666666667</ele><time>2026-04-04T12:09:47.013Z</time></trkpt><trkpt lat="45.4800606" lon="9.3207844"><ele>114.5</ele><time>2026-04-04T12:09:50.013Z</time></trkpt><trkpt lat="45.479985" lon="9.3207758"><ele>114.33333333333334</ele><time>2026-04-04T12:09:53.013Z</time></trkpt><trkpt lat="45.4799135" lon="9.3207363"><ele>114.16666666666667</ele><time>2026-04-04T12:09:56.013Z</time></trkpt><trkpt lat="45.4798942" lon="9.3206365"><ele>114.0</ele><time>2026-04-04T12:09:59.013Z</time></trkpt><trkpt lat="45.4799092" lon="9.3205136"><ele>114.0</ele><time>2026-04-04T12:10:02.013Z</time></trkpt><trkpt lat="45.4799106" lon="9.3203921"><ele>114.0</ele><time>2026-04-04T12:10:05.013Z</time></trkpt><trkpt lat="45.4799222" lon="9.3202888"><ele>114.0</ele><time>2026-04-04T12:10:08.013Z</time></trkpt><trkpt lat="45.47992" lon="9.3201848"><ele>114.0</ele><time>2026-04-04T12:10:11.013Z</time></trkpt><trkpt lat="45.4799356" lon="9.320091"><ele>114.0</ele><time>2026-04-04T12:10:14.013Z</time></trkpt><trkpt lat="45.4799389" lon="9.3199784"><ele>114.0</ele><time>2026-04-04T12:10:46.013Z</time></trkpt><trkpt lat="45.479942" lon="9.3198625"><ele>114.0</ele><time>2026-04-04T12:10:49.013Z</time></trkpt><trkpt lat="45.479956" lon="9.3197605"><ele>114.0</ele><time>2026-04-04T12:10:51.013Z</time></trkpt><trkpt lat="45.4799507" lon="9.3196541"><ele>114.0</ele><time>2026-04-04T12:10:53.013Z</time></trkpt><trkpt lat="45.4799526" lon="9.3195341"><ele>114.0</ele><time>2026-04-04T12:10:55.013Z</time></trkpt><trkpt lat="45.4799534" lon="9.3194229"><ele>114.0</ele><time>2026-04-04T12:10:57.013Z</time></trkpt><trkpt lat="45.4799507" lon="9.319309"><ele>114.0</ele><time>2026-04-04T12:11:00.013Z</time></trkpt><trkpt lat="45.4799513" lon="9.3192072"><ele>114.0</ele><time>2026-04-04T12:11:03.013Z</time></trkpt><trkpt lat="45.47991" lon="9.3191199"><ele>114.0</ele><time>2026-04-04T12:11:06.013Z</time></trkpt><trkpt lat="45.4798227" lon="9.3191136"><ele>114.0</ele><time>2026-04-04T12:11:09.013Z</time></trkpt><trkpt lat="45.4797426" lon="9.3191097"><ele>114.0</ele><time>2026-04-04T12:11:12.013Z</time></trkpt><trkpt lat="45.479666" lon="9.3191106"><ele>114.0</ele><time>2026-04-04T12:11:15.013Z</time></trkpt><trkpt lat="45.479591" lon="9.3191074"><ele>114.0</ele><time>2026-04-04T12:11:18.013Z</time></trkpt><trkpt lat="45.4795216" lon="9.3191029"><ele>114.28571428571428</ele><time>2026-04-04T12:11:21.013Z</time></trkpt><trkpt lat="45.4794557" lon="9.319098"><ele>114.57142857142856</ele><time>2026-04-04T12:11:24.013Z</time></trkpt><trkpt lat="45.4793852" lon="9.3190926"><ele>114.85714285714286</ele><time>2026-04-04T12:11:27.013Z</time></trkpt><trkpt lat="45.4793149" lon="9.3190929"><ele>115.14285714285714</ele><time>2026-04-04T12:11:30.013Z</time></trkpt><trkpt lat="45.4792491" lon="9.3190931"><ele>115.42857142857143</ele><time>2026-04-04T12:11:33.013Z</time></trkpt><trkpt lat="45.4791799" lon="9.3190961"><ele>115.71428571428572</ele><time>2026-04-04T12:11:36.013Z</time></trkpt><trkpt lat="45.4791116" lon="9.3190966"><ele>116.00000000000001</ele><time>2026-04-04T12:11:39.013Z</time></trkpt><trkpt lat="45.479043" lon="9.3191027"><ele>115.99999999999999</ele><time>2026-04-04T12:11:42.013Z</time></trkpt><trkpt lat="45.4789776" lon="9.319118"><ele>116.0</ele><time>2026-04-04T12:11:45.013Z</time></trkpt><trkpt lat="45.4789145" lon="9.3191189"><ele>116.0</ele><time>2026-04-04T12:11:48.013Z</time></trkpt><trkpt lat="45.4788339" lon="9.3191371"><ele>116.0</ele><time>2026-04-04T12:11:51.013Z</time></trkpt><trkpt lat="45.4787462" lon="9.3191538"><ele>115.99999999999999</ele><time>2026-04-04T12:11:54.013Z</time></trkpt><trkpt lat="45.4786811" lon="9.3191652"><ele>116.0</ele><time>2026-04-04T12:11:56.013Z</time></trkpt><trkpt lat="45.4785911" lon="9.3191876"><ele>115.6</ele><time>2026-04-04T12:11:58.013Z</time></trkpt><trkpt lat="45.4784899" lon="9.3192097"><ele>115.19999999999999</ele><time>2026-04-04T12:12:00.013Z</time></trkpt><trkpt lat="45.4784018" lon="9.3192244"><ele>114.80000000000001</ele><time>2026-04-04T12:12:02.013Z</time></trkpt><trkpt lat="45.4783343" lon="9.3191448"><ele>114.4</ele><time>2026-04-04T12:12:04.013Z</time></trkpt><trkpt lat="45.4782997" lon="9.3190284"><ele>114.0</ele><time>2026-04-04T12:12:06.013Z</time></trkpt><trkpt lat="45.478256" lon="9.3189077"><ele>114.0</ele><time>2026-04-04T12:12:08.013Z</time></trkpt><trkpt lat="45.4782294" lon="9.3187651"><ele>114.0</ele><time>2026-04-04T12:12:10.013Z</time></trkpt><trkpt lat="45.4782149" lon="9.3186112"><ele>114.0</ele><time>2026-04-04T12:12:12.014Z</time></trkpt><trkpt lat="45.4782154" lon="9.318446"><ele>114.0</ele><time>2026-04-04T12:12:14.013Z</time></trkpt><trkpt lat="45.4782184" lon="9.3182694"><ele>114.0</ele><time>2026-04-04T12:12:16.014Z</time></trkpt><trkpt lat="45.478213" lon="9.3181787"><ele>114.0</ele><time>2026-04-04T12:12:17.013Z</time></trkpt><trkpt lat="45.4782052" lon="9.3179978"><ele>114.0</ele><time>2026-04-04T12:12:19.013Z</time></trkpt><trkpt lat="45.4782072" lon="9.3179052"><ele>114.0</ele><time>2026-04-04T12:12:20.013Z</time></trkpt><trkpt lat="45.4782003" lon="9.317806"><ele>114.0</ele><time>2026-04-04T12:12:21.013Z</time></trkpt><trkpt lat="45.4781885" lon="9.3177067"><ele>114.0</ele><time>2026-04-04T12:12:22.013Z</time></trkpt><trkpt lat="45.4781645" lon="9.3176111"><ele>113.80000000000001</ele><time>2026-04-04T12:12:23.013Z</time></trkpt><trkpt lat="45.4781364" lon="9.3175242"><ele>113.60000000000001</ele><time>2026-04-04T12:12:24.013Z</time></trkpt><trkpt lat="45.478097" lon="9.3174489"><ele>113.4</ele><time>2026-04-04T12:12:25.013Z</time></trkpt><trkpt lat="45.4780662" lon="9.3172888"><ele>113.2</ele><time>2026-04-04T12:12:27.013Z</time></trkpt><trkpt lat="45.4780587" lon="9.3171285"><ele>113.0</ele><time>2026-04-04T12:12:29.013Z</time></trkpt><trkpt lat="45.4780701" lon="9.3169828"><ele>113.0</ele><time>2026-04-04T12:12:31.013Z</time></trkpt><trkpt lat="45.4780909" lon="9.3168623"><ele>113.00000000000001</ele><time>2026-04-04T12:12:33.013Z</time></trkpt><trkpt lat="45.4780948" lon="9.316721"><ele>113.00000000000001</ele><time>2026-04-04T12:12:35.013Z</time></trkpt><trkpt lat="45.4781207" lon="9.3165932"><ele>113.0</ele><time>2026-04-04T12:12:37.013Z</time></trkpt><trkpt lat="45.4781422" lon="9.3164428"><ele>113.0</ele><time>2026-04-04T12:12:39.013Z</time></trkpt><trkpt lat="45.478169" lon="9.3162966"><ele>113.2</ele><time>2026-04-04T12:12:41.013Z</time></trkpt><trkpt lat="45.4781981" lon="9.3161537"><ele>113.4</ele><time>2026-04-04T12:12:43.013Z</time></trkpt><trkpt lat="45.4782108" lon="9.3160179"><ele>113.60000000000001</ele><time>2026-04-04T12:12:45.013Z</time></trkpt><trkpt lat="45.4782219" lon="9.3158899"><ele>113.80000000000001</ele><time>2026-04-04T12:12:47.013Z</time></trkpt><trkpt lat="45.4782163" lon="9.3157411"><ele>114.0</ele><time>2026-04-04T12:12:49.013Z</time></trkpt><trkpt lat="45.4782126" lon="9.315595"><ele>113.80000000000001</ele><time>2026-04-04T12:12:51.013Z</time></trkpt><trkpt lat="45.4781994" lon="9.3154722"><ele>113.60000000000001</ele><time>2026-04-04T12:12:53.013Z</time></trkpt><trkpt lat="45.478189" lon="9.3153178"><ele>113.4</ele><time>2026-04-04T12:12:55.013Z</time></trkpt><trkpt lat="45.4781828" lon="9.3151875"><ele>113.2</ele><time>2026-04-04T12:12:57.013Z</time></trkpt><trkpt lat="45.4781632" lon="9.3150382"><ele>113.0</ele><time>2026-04-04T12:12:59.013Z</time></trkpt><trkpt lat="45.4781617" lon="9.3149015"><ele>113.0</ele><time>2026-04-04T12:13:01.013Z</time></trkpt><trkpt lat="45.4781465" lon="9.3147551"><ele>113.00000000000001</ele><time>2026-04-04T12:13:03.013Z</time></trkpt><trkpt lat="45.478108" lon="9.3146233"><ele>113.00000000000001</ele><time>2026-04-04T12:13:05.013Z</time></trkpt><trkpt lat="45.4780584" lon="9.3144925"><ele>113.0</ele><time>2026-04-04T12:13:07.013Z</time></trkpt><trkpt lat="45.4780046" lon="9.3143637"><ele>113.0</ele><time>2026-04-04T12:13:09.013Z</time></trkpt><trkpt lat="45.477956" lon="9.3142364"><ele>112.80000000000001</ele><time>2026-04-04T12:13:11.013Z</time></trkpt><trkpt lat="45.4779184" lon="9.3141042"><ele>112.60000000000001</ele><time>2026-04-04T12:13:13.013Z</time></trkpt><trkpt lat="45.4778925" lon="9.3139722"><ele>112.39999999999999</ele><time>2026-04-04T12:13:15.013Z</time></trkpt><trkpt lat="45.4778858" lon="9.3138368"><ele>112.19999999999999</ele><time>2026-04-04T12:13:17.013Z</time></trkpt><trkpt lat="45.4779055" lon="9.3136834"><ele>112.0</ele><time>2026-04-04T12:13:19.013Z</time></trkpt><trkpt lat="45.4779078" lon="9.3135162"><ele>112.0</ele><time>2026-04-04T12:13:21.013Z</time></trkpt><trkpt lat="45.4779127" lon="9.313367"><ele>111.99999999999999</ele><time>2026-04-04T12:13:23.013Z</time></trkpt><trkpt lat="45.4778732" lon="9.3132099"><ele>111.99999999999999</ele><time>2026-04-04T12:13:25.013Z</time></trkpt><trkpt lat="45.4778053" lon="9.3130855"><ele>112.0</ele><time>2026-04-04T12:13:27.013Z</time></trkpt><trkpt lat="45.4777078" lon="9.3129936"><ele>112.0</ele><time>2026-04-04T12:13:29.013Z</time></trkpt><trkpt lat="45.4776146" lon="9.3128922"><ele>112.0</ele><time>2026-04-04T12:13:31.013Z</time></trkpt><trkpt lat="45.4775456" lon="9.3127612"><ele>112.0</ele><time>2026-04-04T12:13:33.013Z</time></trkpt><trkpt lat="45.4775014" lon="9.3126061"><ele>112.0</ele><time>2026-04-04T12:13:35.013Z</time></trkpt><trkpt lat="45.4774419" lon="9.3124644"><ele>112.0</ele><time>2026-04-04T12:13:37.013Z</time></trkpt><trkpt lat="45.4774056" lon="9.3123172"><ele>112.39999999999999</ele><time>2026-04-04T12:13:39.013Z</time></trkpt><trkpt lat="45.4774342" lon="9.3121852"><ele>112.79999999999998</ele><time>2026-04-04T12:13:41.013Z</time></trkpt><trkpt lat="45.4775085" lon="9.3121346"><ele>113.2</ele><time>2026-04-04T12:13:43.013Z</time></trkpt><trkpt lat="45.4775889" lon="9.3120732"><ele>113.6</ele><time>2026-04-04T12:13:45.013Z</time></trkpt><trkpt lat="45.4776734" lon="9.3120149"><ele>114.0</ele><time>2026-04-04T12:13:47.013Z</time></trkpt><trkpt lat="45.4777447" lon="9.3119313"><ele>114.0</ele><time>2026-04-04T12:13:49.013Z</time></trkpt><trkpt lat="45.4777544" lon="9.3118047"><ele>114.0</ele><time>2026-04-04T12:13:51.013Z</time></trkpt><trkpt lat="45.4777105" lon="9.3116849"><ele>114.0</ele><time>2026-04-04T12:13:53.013Z</time></trkpt><trkpt lat="45.4777075" lon="9.3115615"><ele>114.0</ele><time>2026-04-04T12:13:55.013Z</time></trkpt><trkpt lat="45.4777" lon="9.3114279"><ele>114.0</ele><time>2026-04-04T12:13:57.013Z</time></trkpt><trkpt lat="45.4776873" lon="9.3112921"><ele>113.6</ele><time>2026-04-04T12:13:59.013Z</time></trkpt><trkpt lat="45.4777081" lon="9.3111698"><ele>113.2</ele><time>2026-04-04T12:14:01.013Z</time></trkpt><trkpt lat="45.47776" lon="9.3110486"><ele>112.79999999999998</ele><time>2026-04-04T12:14:03.013Z</time></trkpt><trkpt lat="45.4778075" lon="9.3109273"><ele>112.39999999999999</ele><time>2026-04-04T12:14:05.013Z</time></trkpt><trkpt lat="45.4778616" lon="9.3108185"><ele>112.0</ele><time>2026-04-04T12:14:07.013Z</time></trkpt><trkpt lat="45.4778975" lon="9.3106809"><ele>112.0</ele><time>2026-04-04T12:14:09.013Z</time></trkpt><trkpt lat="45.4779075" lon="9.310547"><ele>111.99999999999999</ele><time>2026-04-04T12:14:11.013Z</time></trkpt><trkpt lat="45.4779102" lon="9.310402"><ele>111.99999999999999</ele><time>2026-04-04T12:14:13.013Z</time></trkpt><trkpt lat="45.4779023" lon="9.3102553"><ele>112.0</ele><time>2026-04-04T12:14:15.013Z</time></trkpt><trkpt lat="45.4778998" lon="9.3101075"><ele>112.0</ele><time>2026-04-04T12:14:17.013Z</time></trkpt><trkpt lat="45.4778989" lon="9.3099574"><ele>112.0</ele><time>2026-04-04T12:14:19.013Z</time></trkpt><trkpt lat="45.477895" lon="9.3098131"><ele>111.99999999999999</ele><time>2026-04-04T12:14:21.013Z</time></trkpt><trkpt lat="45.4778872" lon="9.3096631"><ele>111.99999999999999</ele><time>2026-04-04T12:14:23.013Z</time></trkpt><trkpt lat="45.4778801" lon="9.3095141"><ele>112.0</ele><time>2026-04-04T12:14:25.013Z</time></trkpt><trkpt lat="45.4778717" lon="9.3093623"><ele>112.0</ele><time>2026-04-04T12:14:27.013Z</time></trkpt><trkpt lat="45.4778649" lon="9.3092134"><ele>113.19999999999999</ele><time>2026-04-04T12:14:29.013Z</time></trkpt><trkpt lat="45.4778528" lon="9.3090577"><ele>114.39999999999999</ele><time>2026-04-04T12:14:31.013Z</time></trkpt><trkpt lat="45.4778381" lon="9.3089032"><ele>115.60000000000001</ele><time>2026-04-04T12:14:33.013Z</time></trkpt><trkpt lat="45.4778313" lon="9.3087534"><ele>116.80000000000001</ele><time>2026-04-04T12:14:35.013Z</time></trkpt><trkpt lat="45.4778215" lon="9.3086048"><ele>118.0</ele><time>2026-04-04T12:14:37.013Z</time></trkpt><trkpt lat="45.4778035" lon="9.3084588"><ele>118.0</ele><time>2026-04-04T12:14:39.013Z</time></trkpt><trkpt lat="45.4777908" lon="9.3083069"><ele>118.00000000000001</ele><time>2026-04-04T12:14:41.013Z</time></trkpt><trkpt lat="45.4777698" lon="9.3081583"><ele>118.00000000000001</ele><time>2026-04-04T12:14:43.013Z</time></trkpt><trkpt lat="45.4777527" lon="9.3080151"><ele>118.0</ele><time>2026-04-04T12:14:45.013Z</time></trkpt><trkpt lat="45.4777351" lon="9.3078732"><ele>118.0</ele><time>2026-04-04T12:14:47.013Z</time></trkpt><trkpt lat="45.4777261" lon="9.3077268"><ele>117.60000000000001</ele><time>2026-04-04T12:14:49.013Z</time></trkpt><trkpt lat="45.4777148" lon="9.3075798"><ele>117.20000000000002</ele><time>2026-04-04T12:14:51.013Z</time></trkpt><trkpt lat="45.477704" lon="9.3074275"><ele>116.8</ele><time>2026-04-04T12:14:53.013Z</time></trkpt><trkpt lat="45.4776889" lon="9.3072772"><ele>116.4</ele><time>2026-04-04T12:14:55.013Z</time></trkpt><trkpt lat="45.4776775" lon="9.3071282"><ele>116.0</ele><time>2026-04-04T12:14:57.013Z</time></trkpt><trkpt lat="45.4776436" lon="9.3069962"><ele>116.0</ele><time>2026-04-04T12:14:59.013Z</time></trkpt><trkpt lat="45.4776128" lon="9.3068543"><ele>116.0</ele><time>2026-04-04T12:15:01.013Z</time></trkpt><trkpt lat="45.4775812" lon="9.3067094"><ele>116.0</ele><time>2026-04-04T12:15:03.013Z</time></trkpt><trkpt lat="45.4775587" lon="9.3065624"><ele>116.0</ele><time>2026-04-04T12:15:05.013Z</time></trkpt><trkpt lat="45.4775447" lon="9.306409"><ele>116.0</ele><time>2026-04-04T12:15:07.013Z</time></trkpt><trkpt lat="45.4775232" lon="9.3062687"><ele>115.8</ele><time>2026-04-04T12:15:09.013Z</time></trkpt><trkpt lat="45.4775007" lon="9.3061298"><ele>115.6</ele><time>2026-04-04T12:15:11.013Z</time></trkpt><trkpt lat="45.4774781" lon="9.3059967"><ele>115.4</ele><time>2026-04-04T12:15:13.013Z</time></trkpt><trkpt lat="45.4774633" lon="9.3058677"><ele>115.2</ele><time>2026-04-04T12:15:15.013Z</time></trkpt><trkpt lat="45.4774519" lon="9.3057335"><ele>115.0</ele><time>2026-04-04T12:15:17.013Z</time></trkpt><trkpt lat="45.4774391" lon="9.3055962"><ele>114.8</ele><time>2026-04-04T12:15:19.013Z</time></trkpt><trkpt lat="45.4774186" lon="9.305446"><ele>114.6</ele><time>2026-04-04T12:15:21.013Z</time></trkpt><trkpt lat="45.477416" lon="9.3052922"><ele>114.4</ele><time>2026-04-04T12:15:23.013Z</time></trkpt><trkpt lat="45.4774088" lon="9.305143"><ele>114.2</ele><time>2026-04-04T12:15:25.013Z</time></trkpt><trkpt lat="45.4773996" lon="9.3049907"><ele>114.0</ele><time>2026-04-04T12:15:27.013Z</time></trkpt><trkpt lat="45.477386" lon="9.3048292"><ele>114.4</ele><time>2026-04-04T12:15:29.013Z</time></trkpt><trkpt lat="45.4773751" lon="9.3046733"><ele>114.80000000000001</ele><time>2026-04-04T12:15:31.013Z</time></trkpt><trkpt lat="45.4773628" lon="9.3045175"><ele>115.19999999999999</ele><time>2026-04-04T12:15:33.013Z</time></trkpt><trkpt lat="45.4773085" lon="9.3043756"><ele>115.6</ele><time>2026-04-04T12:15:35.013Z</time></trkpt><trkpt lat="45.4772282" lon="9.3042639"><ele>116.0</ele><time>2026-04-04T12:15:37.013Z</time></trkpt><trkpt lat="45.4771404" lon="9.3041601"><ele>115.4</ele><time>2026-04-04T12:15:39.013Z</time></trkpt><trkpt lat="45.4770409" lon="9.3040899"><ele>114.8</ele><time>2026-04-04T12:15:41.013Z</time></trkpt><trkpt lat="45.4769283" lon="9.3040743"><ele>114.20000000000002</ele><time>2026-04-04T12:15:43.013Z</time></trkpt><trkpt lat="45.4768181" lon="9.3040819"><ele>113.60000000000001</ele><time>2026-04-04T12:15:45.013Z</time></trkpt><trkpt lat="45.4767081" lon="9.3040968"><ele>113.0</ele><time>2026-04-04T12:15:47.013Z</time></trkpt><trkpt lat="45.4765938" lon="9.304096"><ele>113.0</ele><time>2026-04-04T12:15:49.013Z</time></trkpt><trkpt lat="45.4764811" lon="9.3040911"><ele>113.00000000000001</ele><time>2026-04-04T12:15:51.013Z</time></trkpt><trkpt lat="45.4763689" lon="9.3040837"><ele>113.00000000000001</ele><time>2026-04-04T12:15:53.013Z</time></trkpt><trkpt lat="45.4762601" lon="9.3040853"><ele>113.0</ele><time>2026-04-04T12:15:55.013Z</time></trkpt><trkpt lat="45.4761546" lon="9.3040879"><ele>113.0</ele><time>2026-04-04T12:15:57.013Z</time></trkpt><trkpt lat="45.4760455" lon="9.3040942"><ele>112.80000000000001</ele><time>2026-04-04T12:15:59.013Z</time></trkpt><trkpt lat="45.4759368" lon="9.3040903"><ele>112.60000000000001</ele><time>2026-04-04T12:16:01.013Z</time></trkpt><trkpt lat="45.4758282" lon="9.3040961"><ele>112.39999999999999</ele><time>2026-04-04T12:16:03.013Z</time></trkpt><trkpt lat="45.4757224" lon="9.3040979"><ele>112.19999999999999</ele><time>2026-04-04T12:16:05.013Z</time></trkpt><trkpt lat="45.4756151" lon="9.3040993"><ele>112.0</ele><time>2026-04-04T12:16:07.013Z</time></trkpt><trkpt lat="45.4755099" lon="9.3041191"><ele>112.6</ele><time>2026-04-04T12:16:09.013Z</time></trkpt><trkpt lat="45.4753991" lon="9.3041253"><ele>113.19999999999999</ele><time>2026-04-04T12:16:11.013Z</time></trkpt><trkpt lat="45.4752923" lon="9.3041007"><ele>113.8</ele><time>2026-04-04T12:16:13.013Z</time></trkpt><trkpt lat="45.4751849" lon="9.3040953"><ele>114.4</ele><time>2026-04-04T12:16:15.013Z</time></trkpt><trkpt lat="45.4750784" lon="9.3040948"><ele>115.0</ele><time>2026-04-04T12:16:17.013Z</time></trkpt><trkpt lat="45.4749784" lon="9.3041051"><ele>115.00000000000001</ele><time>2026-04-04T12:16:19.013Z</time></trkpt><trkpt lat="45.4748863" lon="9.3041196"><ele>115.0</ele><time>2026-04-04T12:16:21.013Z</time></trkpt><trkpt lat="45.4748191" lon="9.304064"><ele>115.0</ele><time>2026-04-04T12:16:23.013Z</time></trkpt><trkpt lat="45.4748166" lon="9.3039667"><ele>115.0</ele><time>2026-04-04T12:16:25.013Z</time></trkpt><trkpt lat="45.4748127" lon="9.3038528"><ele>115.00000000000001</ele><time>2026-04-04T12:16:27.013Z</time></trkpt><trkpt lat="45.4748345" lon="9.3037346"><ele>115.0</ele><time>2026-04-04T12:16:29.013Z</time></trkpt><trkpt lat="45.4749106" lon="9.3037122"><ele>114.6</ele><time>2026-04-04T12:16:31.013Z</time></trkpt><trkpt lat="45.4749971" lon="9.3037316"><ele>114.2</ele><time>2026-04-04T12:16:33.013Z</time></trkpt><trkpt lat="45.475093" lon="9.3037544"><ele>113.80000000000001</ele><time>2026-04-04T12:16:35.013Z</time></trkpt><trkpt lat="45.4751906" lon="9.3037543"><ele>113.4</ele><time>2026-04-04T12:16:37.013Z</time></trkpt><trkpt lat="45.4752897" lon="9.3037519"><ele>113.0</ele><time>2026-04-04T12:16:39.013Z</time></trkpt><trkpt lat="45.4753868" lon="9.3037832"><ele>112.60000000000001</ele><time>2026-04-04T12:16:41.013Z</time></trkpt><trkpt lat="45.4754894" lon="9.3037867"><ele>112.20000000000002</ele><time>2026-04-04T12:16:43.013Z</time></trkpt><trkpt lat="45.4755923" lon="9.3037871"><ele>111.8</ele><time>2026-04-04T12:16:45.013Z</time></trkpt><trkpt lat="45.4756982" lon="9.3037924"><ele>111.4</ele><time>2026-04-04T12:16:47.014Z</time></trkpt><trkpt lat="45.4757985" lon="9.3037829"><ele>111.0</ele><time>2026-04-04T12:16:49.013Z</time></trkpt><trkpt lat="45.4759012" lon="9.3037788"><ele>111.0</ele><time>2026-04-04T12:16:51.013Z</time></trkpt><trkpt lat="45.4760038" lon="9.3037802"><ele>111.0</ele><time>2026-04-04T12:16:53.013Z</time></trkpt><trkpt lat="45.4761081" lon="9.3037771"><ele>111.0</ele><time>2026-04-04T12:16:55.013Z</time></trkpt><trkpt lat="45.4762135" lon="9.3037769"><ele>111.0</ele><time>2026-04-04T12:16:57.013Z</time></trkpt><trkpt lat="45.4763158" lon="9.3037723"><ele>111.0</ele><time>2026-04-04T12:16:59.013Z</time></trkpt><trkpt lat="45.4764196" lon="9.3037655"><ele>111.19999999999999</ele><time>2026-04-04T12:17:01.013Z</time></trkpt><trkpt lat="45.4765247" lon="9.3037614"><ele>111.39999999999999</ele><time>2026-04-04T12:17:03.013Z</time></trkpt><trkpt lat="45.476629" lon="9.3037646"><ele>111.6</ele><time>2026-04-04T12:17:05.013Z</time></trkpt><trkpt lat="45.4767344" lon="9.303763"><ele>111.8</ele><time>2026-04-04T12:17:07.013Z</time></trkpt><trkpt lat="45.4768399" lon="9.3037639"><ele>112.0</ele><time>2026-04-04T12:17:09.013Z</time></trkpt><trkpt lat="45.4769365" lon="9.3037118"><ele>112.0</ele><time>2026-04-04T12:17:11.013Z</time></trkpt><trkpt lat="45.4770062" lon="9.3036008"><ele>111.99999999999999</ele><time>2026-04-04T12:17:13.013Z</time></trkpt><trkpt lat="45.4770931" lon="9.3035137"><ele>111.99999999999999</ele><time>2026-04-04T12:17:15.013Z</time></trkpt><trkpt lat="45.4771858" lon="9.3034586"><ele>112.0</ele><time>2026-04-04T12:17:17.013Z</time></trkpt><trkpt lat="45.4772127" lon="9.3033317"><ele>112.0</ele><time>2026-04-04T12:17:19.013Z</time></trkpt><trkpt lat="45.4772099" lon="9.3031982"><ele>112.0</ele><time>2026-04-04T12:17:21.013Z</time></trkpt><trkpt lat="45.4772006" lon="9.3030499"><ele>111.99999999999999</ele><time>2026-04-04T12:17:23.013Z</time></trkpt><trkpt lat="45.4771954" lon="9.3029119"><ele>111.99999999999999</ele><time>2026-04-04T12:17:25.013Z</time></trkpt><trkpt lat="45.4771829" lon="9.3027704"><ele>112.0</ele><time>2026-04-04T12:17:27.013Z</time></trkpt><trkpt lat="45.4771774" lon="9.3026221"><ele>112.0</ele><time>2026-04-04T12:17:29.013Z</time></trkpt><trkpt lat="45.4771781" lon="9.3024818"><ele>112.0</ele><time>2026-04-04T12:17:31.013Z</time></trkpt><trkpt lat="45.4771756" lon="9.3023474"><ele>111.99999999999999</ele><time>2026-04-04T12:17:33.013Z</time></trkpt><trkpt lat="45.4771741" lon="9.3022094"><ele>111.99999999999999</ele><time>2026-04-04T12:17:35.013Z</time></trkpt><trkpt lat="45.4771721" lon="9.3020659"><ele>112.0</ele><time>2026-04-04T12:17:37.013Z</time></trkpt><trkpt lat="45.4771753" lon="9.3019263"><ele>112.0</ele><time>2026-04-04T12:17:39.013Z</time></trkpt><trkpt lat="45.4771789" lon="9.3017911"><ele>112.19999999999999</ele><time>2026-04-04T12:17:41.013Z</time></trkpt><trkpt lat="45.4771765" lon="9.3016536"><ele>112.39999999999999</ele><time>2026-04-04T12:17:43.013Z</time></trkpt><trkpt lat="45.4771825" lon="9.3015117"><ele>112.60000000000001</ele><time>2026-04-04T12:17:45.013Z</time></trkpt><trkpt lat="45.4771775" lon="9.3013473"><ele>112.80000000000001</ele><time>2026-04-04T12:17:47.013Z</time></trkpt><trkpt lat="45.4771696" lon="9.3011816"><ele>113.0</ele><time>2026-04-04T12:17:49.013Z</time></trkpt><trkpt lat="45.4771592" lon="9.3010082"><ele>113.25</ele><time>2026-04-04T12:17:51.013Z</time></trkpt><trkpt lat="45.4771504" lon="9.3008319"><ele>113.5</ele><time>2026-04-04T12:17:53.013Z</time></trkpt><trkpt lat="45.4771464" lon="9.3006575"><ele>113.75</ele><time>2026-04-04T12:17:55.013Z</time></trkpt><trkpt lat="45.4771334" lon="9.3004926"><ele>114.0</ele><time>2026-04-04T12:17:57.013Z</time></trkpt><trkpt lat="45.4771146" lon="9.3003235"><ele>113.80000000000001</ele><time>2026-04-04T12:17:59.013Z</time></trkpt><trkpt lat="45.4770963" lon="9.3001581"><ele>113.60000000000001</ele><time>2026-04-04T12:18:01.013Z</time></trkpt><trkpt lat="45.4770882" lon="9.2999886"><ele>113.4</ele><time>2026-04-04T12:18:03.013Z</time></trkpt><trkpt lat="45.4770726" lon="9.2998461"><ele>113.2</ele><time>2026-04-04T12:18:05.013Z</time></trkpt><trkpt lat="45.4770596" lon="9.2996917"><ele>113.0</ele><time>2026-04-04T12:18:07.013Z</time></trkpt><trkpt lat="45.477044" lon="9.2995356"><ele>113.0</ele><time>2026-04-04T12:18:09.013Z</time></trkpt><trkpt lat="45.4770107" lon="9.2993784"><ele>113.00000000000001</ele><time>2026-04-04T12:18:11.013Z</time></trkpt><trkpt lat="45.4769857" lon="9.2992266"><ele>113.00000000000001</ele><time>2026-04-04T12:18:13.013Z</time></trkpt><trkpt lat="45.4769673" lon="9.2990778"><ele>113.0</ele><time>2026-04-04T12:18:15.013Z</time></trkpt><trkpt lat="45.4769053" lon="9.2989404"><ele>113.0</ele><time>2026-04-04T12:18:17.014Z</time></trkpt><trkpt lat="45.4768545" lon="9.2988277"><ele>113.0</ele><time>2026-04-04T12:18:19.013Z</time></trkpt><trkpt lat="45.4768477" lon="9.298685"><ele>113.00000000000001</ele><time>2026-04-04T12:18:21.013Z</time></trkpt><trkpt lat="45.4768645" lon="9.2985355"><ele>113.00000000000001</ele><time>2026-04-04T12:18:23.013Z</time></trkpt><trkpt lat="45.4768809" lon="9.2983804"><ele>113.0</ele><time>2026-04-04T12:18:25.013Z</time></trkpt><trkpt lat="45.4768562" lon="9.2982206"><ele>113.0</ele><time>2026-04-04T12:18:27.013Z</time></trkpt><trkpt lat="45.4768328" lon="9.2980682"><ele>113.2</ele><time>2026-04-04T12:18:29.013Z</time></trkpt><trkpt lat="45.4768095" lon="9.2979189"><ele>113.4</ele><time>2026-04-04T12:18:31.013Z</time></trkpt><trkpt lat="45.4767868" lon="9.2977691"><ele>113.60000000000001</ele><time>2026-04-04T12:18:33.013Z</time></trkpt><trkpt lat="45.4767678" lon="9.297622"><ele>113.80000000000001</ele><time>2026-04-04T12:18:35.013Z</time></trkpt><trkpt lat="45.4767478" lon="9.2974781"><ele>114.0</ele><time>2026-04-04T12:18:37.013Z</time></trkpt><trkpt lat="45.4767302" lon="9.2973332"><ele>114.6</ele><time>2026-04-04T12:18:39.013Z</time></trkpt><trkpt lat="45.476716" lon="9.2971859"><ele>115.2</ele><time>2026-04-04T12:18:41.013Z</time></trkpt><trkpt lat="45.4766944" lon="9.2970339"><ele>115.79999999999998</ele><time>2026-04-04T12:18:43.013Z</time></trkpt><trkpt lat="45.4766769" lon="9.2968925"><ele>116.39999999999999</ele><time>2026-04-04T12:18:45.013Z</time></trkpt><trkpt lat="45.4766521" lon="9.296739"><ele>117.0</ele><time>2026-04-04T12:18:47.013Z</time></trkpt><trkpt lat="45.4766344" lon="9.2965795"><ele>117.0</ele><time>2026-04-04T12:18:49.013Z</time></trkpt><trkpt lat="45.4766273" lon="9.2964286"><ele>116.99999999999999</ele><time>2026-04-04T12:18:51.013Z</time></trkpt><trkpt lat="45.4766184" lon="9.2962899"><ele>116.99999999999999</ele><time>2026-04-04T12:18:53.013Z</time></trkpt><trkpt lat="45.4766059" lon="9.2961421"><ele>117.0</ele><time>2026-04-04T12:18:55.013Z</time></trkpt><trkpt lat="45.4765806" lon="9.2960026"><ele>117.0</ele><time>2026-04-04T12:18:57.013Z</time></trkpt><trkpt lat="45.4765335" lon="9.2958658"><ele>117.0</ele><time>2026-04-04T12:18:59.013Z</time></trkpt><trkpt lat="45.4764753" lon="9.2957617"><ele>117.0</ele><time>2026-04-04T12:19:01.013Z</time></trkpt><trkpt lat="45.4763991" lon="9.295691"><ele>117.0</ele><time>2026-04-04T12:19:03.013Z</time></trkpt><trkpt lat="45.4763066" lon="9.2956671"><ele>117.0</ele><time>2026-04-04T12:19:05.013Z</time></trkpt><trkpt lat="45.4762318" lon="9.2956701"><ele>117.0</ele><time>2026-04-04T12:19:07.013Z</time></trkpt><trkpt lat="45.4761514" lon="9.2956858"><ele>117.0</ele><time>2026-04-04T12:19:09.013Z</time></trkpt><trkpt lat="45.476065" lon="9.2957225"><ele>116.83333333333333</ele><time>2026-04-04T12:19:12.013Z</time></trkpt><trkpt lat="45.4759778" lon="9.2957623"><ele>116.66666666666666</ele><time>2026-04-04T12:19:15.013Z</time></trkpt><trkpt lat="45.4758938" lon="9.2957942"><ele>116.5</ele><time>2026-04-04T12:19:18.013Z</time></trkpt><trkpt lat="45.4758142" lon="9.2958398"><ele>116.33333333333333</ele><time>2026-04-04T12:19:21.013Z</time></trkpt><trkpt lat="45.4757509" lon="9.2958242"><ele>116.16666666666666</ele><time>2026-04-04T12:19:24.013Z</time></trkpt><trkpt lat="45.4757346" lon="9.2957086"><ele>116.0</ele><time>2026-04-04T12:19:27.013Z</time></trkpt><trkpt lat="45.4757177" lon="9.2955901"><ele>116.6</ele><time>2026-04-04T12:19:30.013Z</time></trkpt><trkpt lat="45.4757968" lon="9.2955216"><ele>117.19999999999999</ele><time>2026-04-04T12:19:33.013Z</time></trkpt><trkpt lat="45.4758961" lon="9.2954909"><ele>117.80000000000001</ele><time>2026-04-04T12:19:35.013Z</time></trkpt><trkpt lat="45.4760083" lon="9.2954413"><ele>118.4</ele><time>2026-04-04T12:19:37.013Z</time></trkpt><trkpt lat="45.4761257" lon="9.2953727"><ele>119.0</ele><time>2026-04-04T12:19:39.013Z</time></trkpt><trkpt lat="45.4762313" lon="9.2952917"><ele>118.99999999999999</ele><time>2026-04-04T12:19:41.013Z</time></trkpt><trkpt lat="45.4762843" lon="9.295194"><ele>119.0</ele><time>2026-04-04T12:19:43.013Z</time></trkpt><trkpt lat="45.476222" lon="9.2951555"><ele>119.0</ele><time>2026-04-04T12:19:46.013Z</time></trkpt><trkpt lat="45.4761547" lon="9.2952011"><ele>119.0</ele><time>2026-04-04T12:19:48.013Z</time></trkpt><trkpt lat="45.4760831" lon="9.2952455"><ele>118.99999999999999</ele><time>2026-04-04T12:19:50.013Z</time></trkpt><trkpt lat="45.4760099" lon="9.2952721"><ele>119.0</ele><time>2026-04-04T12:19:52.013Z</time></trkpt><trkpt lat="45.4759325" lon="9.2952878"><ele>118.99999999999999</ele><time>2026-04-04T12:19:54.013Z</time></trkpt><trkpt lat="45.4758526" lon="9.2952746"><ele>119.0</ele><time>2026-04-04T12:19:56.013Z</time></trkpt><trkpt lat="45.4757702" lon="9.2952586"><ele>119.0</ele><time>2026-04-04T12:19:58.013Z</time></trkpt><trkpt lat="45.4756792" lon="9.2952589"><ele>119.0</ele><time>2026-04-04T12:20:00.013Z</time></trkpt><trkpt lat="45.4755856" lon="9.2952376"><ele>118.99999999999999</ele><time>2026-04-04T12:20:02.013Z</time></trkpt><trkpt lat="45.4754964" lon="9.295219"><ele>119.0</ele><time>2026-04-04T12:20:04.013Z</time></trkpt><trkpt lat="45.4754096" lon="9.2952054"><ele>118.80000000000001</ele><time>2026-04-04T12:20:06.013Z</time></trkpt><trkpt lat="45.4753219" lon="9.2951922"><ele>118.60000000000001</ele><time>2026-04-04T12:20:08.013Z</time></trkpt><trkpt lat="45.4752321" lon="9.2951734"><ele>118.4</ele><time>2026-04-04T12:20:10.013Z</time></trkpt><trkpt lat="45.4751411" lon="9.2951546"><ele>118.2</ele><time>2026-04-04T12:20:12.013Z</time></trkpt><trkpt lat="45.4750454" lon="9.2951387"><ele>118.0</ele><time>2026-04-04T12:20:14.013Z</time></trkpt><trkpt lat="45.4749522" lon="9.2951253"><ele>118.0</ele><time>2026-04-04T12:20:16.013Z</time></trkpt><trkpt lat="45.4748602" lon="9.2951049"><ele>118.00000000000001</ele><time>2026-04-04T12:20:18.013Z</time></trkpt><trkpt lat="45.4747631" lon="9.2950875"><ele>118.00000000000001</ele><time>2026-04-04T12:20:20.013Z</time></trkpt><trkpt lat="45.4746655" lon="9.2950684"><ele>118.0</ele><time>2026-04-04T12:20:22.013Z</time></trkpt><trkpt lat="45.4745694" lon="9.2950516"><ele>118.0</ele><time>2026-04-04T12:20:24.013Z</time></trkpt><trkpt lat="45.4744746" lon="9.2950622"><ele>117.33333333333334</ele><time>2026-04-04T12:20:26.013Z</time></trkpt><trkpt lat="45.4743882" lon="9.2950996"><ele>116.66666666666667</ele><time>2026-04-04T12:20:28.014Z</time></trkpt><trkpt lat="45.4743045" lon="9.2951365"><ele>116.0</ele><time>2026-04-04T12:20:30.013Z</time></trkpt><trkpt lat="45.4742305" lon="9.2951303"><ele>115.33333333333334</ele><time>2026-04-04T12:20:32.013Z</time></trkpt><trkpt lat="45.4741893" lon="9.2950588"><ele>114.66666666666667</ele><time>2026-04-04T12:20:34.013Z</time></trkpt><trkpt lat="45.4742268" lon="9.294915"><ele>114.0</ele><time>2026-04-04T12:20:36.013Z</time></trkpt><trkpt lat="45.4742445" lon="9.2947875"><ele>113.5</ele><time>2026-04-04T12:20:38.013Z</time></trkpt><trkpt lat="45.474264" lon="9.2946795"><ele>113.0</ele><time>2026-04-04T12:20:40.013Z</time></trkpt><trkpt lat="45.4742685" lon="9.2945763"><ele>112.5</ele><time>2026-04-04T12:20:42.013Z</time></trkpt><trkpt lat="45.4742814" lon="9.2944753"><ele>112.0</ele><time>2026-04-04T12:20:44.013Z</time></trkpt><trkpt lat="45.474296" lon="9.2943653"><ele>111.5</ele><time>2026-04-04T12:20:46.013Z</time></trkpt><trkpt lat="45.4743315" lon="9.2942653"><ele>111.0</ele><time>2026-04-04T12:20:48.013Z</time></trkpt><trkpt lat="45.4744042" lon="9.2942105"><ele>111.0</ele><time>2026-04-04T12:20:50.013Z</time></trkpt><trkpt lat="45.474484" lon="9.2942186"><ele>111.0</ele><time>2026-04-04T12:20:52.013Z</time></trkpt><trkpt lat="45.4745781" lon="9.294239"><ele>111.0</ele><time>2026-04-04T12:20:54.013Z</time></trkpt><trkpt lat="45.474676" lon="9.29426"><ele>111.0</ele><time>2026-04-04T12:20:56.013Z</time></trkpt><trkpt lat="45.4747781" lon="9.2942688"><ele>111.0</ele><time>2026-04-04T12:20:58.013Z</time></trkpt><trkpt lat="45.4748723" lon="9.2942845"><ele>112.19999999999999</ele><time>2026-04-04T12:21:00.013Z</time></trkpt><trkpt lat="45.4749651" lon="9.2943003"><ele>113.39999999999999</ele><time>2026-04-04T12:21:02.013Z</time></trkpt><trkpt lat="45.4750628" lon="9.294329"><ele>114.6</ele><time>2026-04-04T12:21:04.013Z</time></trkpt><trkpt lat="45.4751605" lon="9.2943435"><ele>115.8</ele><time>2026-04-04T12:21:06.013Z</time></trkpt><trkpt lat="45.4752641" lon="9.2943633"><ele>117.0</ele><time>2026-04-04T12:21:08.013Z</time></trkpt><trkpt lat="45.47537" lon="9.2943689"><ele>117.39999999999999</ele><time>2026-04-04T12:21:10.013Z</time></trkpt><trkpt lat="45.475471" lon="9.2943869"><ele>117.79999999999998</ele><time>2026-04-04T12:21:12.013Z</time></trkpt><trkpt lat="45.4755828" lon="9.2944198"><ele>118.2</ele><time>2026-04-04T12:21:14.013Z</time></trkpt><trkpt lat="45.4756904" lon="9.2944399"><ele>118.6</ele><time>2026-04-04T12:21:16.013Z</time></trkpt><trkpt lat="45.4757946" lon="9.2944585"><ele>119.0</ele><time>2026-04-04T12:21:18.013Z</time></trkpt><trkpt lat="45.4758909" lon="9.2944713"><ele>119.0</ele><time>2026-04-04T12:21:20.013Z</time></trkpt><trkpt lat="45.4759813" lon="9.294466"><ele>119.0</ele><time>2026-04-04T12:21:22.013Z</time></trkpt><trkpt lat="45.4760448" lon="9.2943439"><ele>119.0</ele><time>2026-04-04T12:21:24.013Z</time></trkpt><trkpt lat="45.4760589" lon="9.2941943"><ele>119.0</ele><time>2026-04-04T12:21:26.013Z</time></trkpt><trkpt lat="45.4760661" lon="9.2940409"><ele>119.0</ele><time>2026-04-04T12:21:28.013Z</time></trkpt><trkpt lat="45.4760815" lon="9.2938905"><ele>118.0</ele><time>2026-04-04T12:21:30.013Z</time></trkpt><trkpt lat="45.4761055" lon="9.293744"><ele>117.0</ele><time>2026-04-04T12:21:32.013Z</time></trkpt><trkpt lat="45.4761244" lon="9.2935983"><ele>116.0</ele><time>2026-04-04T12:21:34.013Z</time></trkpt><trkpt lat="45.476141" lon="9.2934443"><ele>115.0</ele><time>2026-04-04T12:21:36.013Z</time></trkpt><trkpt lat="45.4761672" lon="9.293289"><ele>114.0</ele><time>2026-04-04T12:21:38.013Z</time></trkpt><trkpt lat="45.4761902" lon="9.2931209"><ele>113.42857142857142</ele><time>2026-04-04T12:21:40.013Z</time></trkpt><trkpt lat="45.4761933" lon="9.2929512"><ele>112.85714285714285</ele><time>2026-04-04T12:21:42.013Z</time></trkpt><trkpt lat="45.4761857" lon="9.2928614"><ele>112.28571428571428</ele><time>2026-04-04T12:21:43.013Z</time></trkpt><trkpt lat="45.4761701" lon="9.2927685"><ele>111.71428571428571</ele><time>2026-04-04T12:21:44.013Z</time></trkpt><trkpt lat="45.4761501" lon="9.2926824"><ele>111.14285714285714</ele><time>2026-04-04T12:21:45.013Z</time></trkpt><trkpt lat="45.4761246" lon="9.2925947"><ele>110.57142857142856</ele><time>2026-04-04T12:21:46.013Z</time></trkpt><trkpt lat="45.4761011" lon="9.2925016"><ele>110.0</ele><time>2026-04-04T12:21:47.013Z</time></trkpt><trkpt lat="45.4760714" lon="9.2924121"><ele>109.99999999999999</ele><time>2026-04-04T12:21:48.013Z</time></trkpt><trkpt lat="45.4760355" lon="9.2923222"><ele>110.0</ele><time>2026-04-04T12:21:49.013Z</time></trkpt><trkpt lat="45.4760062" lon="9.2922252"><ele>110.0</ele><time>2026-04-04T12:21:50.013Z</time></trkpt><trkpt lat="45.4759843" lon="9.2921362"><ele>110.0</ele><time>2026-04-04T12:21:51.013Z</time></trkpt><trkpt lat="45.4759589" lon="9.2920514"><ele>110.0</ele><time>2026-04-04T12:21:52.013Z</time></trkpt><trkpt lat="45.4759351" lon="9.2919648"><ele>109.99999999999999</ele><time>2026-04-04T12:21:53.013Z</time></trkpt><trkpt lat="45.4759166" lon="9.2918784"><ele>110.0</ele><time>2026-04-04T12:21:54.013Z</time></trkpt><trkpt lat="45.4758685" lon="9.2917234"><ele>110.75</ele><time>2026-04-04T12:21:56.013Z</time></trkpt><trkpt lat="45.4758228" lon="9.2915642"><ele>111.5</ele><time>2026-04-04T12:21:58.013Z</time></trkpt><trkpt lat="45.4757782" lon="9.291419"><ele>112.25</ele><time>2026-04-04T12:22:00.013Z</time></trkpt><trkpt lat="45.47574" lon="9.2912791"><ele>113.0</ele><time>2026-04-04T12:22:02.013Z</time></trkpt><trkpt lat="45.4756962" lon="9.2911265"><ele>113.0</ele><time>2026-04-04T12:22:04.013Z</time></trkpt><trkpt lat="45.4756475" lon="9.2909782"><ele>113.00000000000001</ele><time>2026-04-04T12:22:06.013Z</time></trkpt><trkpt lat="45.4756087" lon="9.2908326"><ele>113.00000000000001</ele><time>2026-04-04T12:22:08.013Z</time></trkpt><trkpt lat="45.4755653" lon="9.2906973"><ele>113.0</ele><time>2026-04-04T12:22:10.013Z</time></trkpt><trkpt lat="45.4755301" lon="9.2905536"><ele>113.0</ele><time>2026-04-04T12:22:12.013Z</time></trkpt><trkpt lat="45.475496" lon="9.2904117"><ele>113.0</ele><time>2026-04-04T12:22:14.013Z</time></trkpt><trkpt lat="45.4754591" lon="9.2902637"><ele>113.00000000000001</ele><time>2026-04-04T12:22:16.013Z</time></trkpt><trkpt lat="45.4754149" lon="9.290118"><ele>113.00000000000001</ele><time>2026-04-04T12:22:18.013Z</time></trkpt><trkpt lat="45.4753729" lon="9.2899754"><ele>113.0</ele><time>2026-04-04T12:22:20.013Z</time></trkpt><trkpt lat="45.4753332" lon="9.2898312"><ele>113.0</ele><time>2026-04-04T12:22:22.013Z</time></trkpt><trkpt lat="45.4752818" lon="9.2896881"><ele>112.4</ele><time>2026-04-04T12:22:24.013Z</time></trkpt><trkpt lat="45.4752294" lon="9.2895558"><ele>111.80000000000001</ele><time>2026-04-04T12:22:26.013Z</time></trkpt><trkpt lat="45.4751676" lon="9.2894403"><ele>111.2</ele><time>2026-04-04T12:22:28.013Z</time></trkpt><trkpt lat="45.4750922" lon="9.2893414"><ele>110.6</ele><time>2026-04-04T12:22:30.013Z</time></trkpt><trkpt lat="45.4750071" lon="9.2892556"><ele>110.0</ele><time>2026-04-04T12:22:32.013Z</time></trkpt><trkpt lat="45.4749182" lon="9.2891829"><ele>110.0</ele><time>2026-04-04T12:22:34.013Z</time></trkpt><trkpt lat="45.4748216" lon="9.2891241"><ele>110.0</ele><time>2026-04-04T12:22:36.013Z</time></trkpt><trkpt lat="45.4747219" lon="9.2890811"><ele>110.0</ele><time>2026-04-04T12:22:38.013Z</time></trkpt><trkpt lat="45.4746187" lon="9.2890484"><ele>110.0</ele><time>2026-04-04T12:22:40.013Z</time></trkpt><trkpt lat="45.4745169" lon="9.2890247"><ele>110.0</ele><time>2026-04-04T12:22:42.013Z</time></trkpt><trkpt lat="45.474411" lon="9.2890023"><ele>109.5</ele><time>2026-04-04T12:22:44.013Z</time></trkpt><trkpt lat="45.4743026" lon="9.288985"><ele>109.0</ele><time>2026-04-04T12:22:46.013Z</time></trkpt><trkpt lat="45.4741895" lon="9.2889711"><ele>108.5</ele><time>2026-04-04T12:22:48.013Z</time></trkpt><trkpt lat="45.4740742" lon="9.2889605"><ele>108.0</ele><time>2026-04-04T12:22:50.013Z</time></trkpt><trkpt lat="45.4739572" lon="9.288924"><ele>109.2</ele><time>2026-04-04T12:22:52.013Z</time></trkpt><trkpt lat="45.4738624" lon="9.2888309"><ele>110.4</ele><time>2026-04-04T12:22:54.013Z</time></trkpt><trkpt lat="45.4737954" lon="9.2887318"><ele>111.60000000000001</ele><time>2026-04-04T12:22:56.014Z</time></trkpt><trkpt lat="45.4737578" lon="9.2886422"><ele>112.80000000000001</ele><time>2026-04-04T12:22:58.013Z</time></trkpt><trkpt lat="45.47369" lon="9.2885733"><ele>114.0</ele><time>2026-04-04T12:23:00.013Z</time></trkpt><trkpt lat="45.4736016" lon="9.2885368"><ele>114.0</ele><time>2026-04-04T12:23:02.013Z</time></trkpt><trkpt lat="45.4735065" lon="9.2885161"><ele>114.0</ele><time>2026-04-04T12:23:04.013Z</time></trkpt><trkpt lat="45.4734104" lon="9.2884711"><ele>114.0</ele><time>2026-04-04T12:23:06.013Z</time></trkpt><trkpt lat="45.4733125" lon="9.2884289"><ele>114.0</ele><time>2026-04-04T12:23:08.013Z</time></trkpt><trkpt lat="45.473215" lon="9.2883899"><ele>114.0</ele><time>2026-04-04T12:23:10.013Z</time></trkpt><trkpt lat="45.4731125" lon="9.2883679"><ele>114.0</ele><time>2026-04-04T12:23:12.013Z</time></trkpt><trkpt lat="45.4730128" lon="9.288342"><ele>114.0</ele><time>2026-04-04T12:23:14.013Z</time></trkpt><trkpt lat="45.472914" lon="9.2883062"><ele>114.0</ele><time>2026-04-04T12:23:16.013Z</time></trkpt><trkpt lat="45.4728145" lon="9.2882941"><ele>114.0</ele><time>2026-04-04T12:23:18.013Z</time></trkpt><trkpt lat="45.4727131" lon="9.2883103"><ele>114.0</ele><time>2026-04-04T12:23:20.013Z</time></trkpt><trkpt lat="45.4726095" lon="9.2883391"><ele>114.0</ele><time>2026-04-04T12:23:22.013Z</time></trkpt><trkpt lat="45.4725056" lon="9.2883768"><ele>114.0</ele><time>2026-04-04T12:23:24.013Z</time></trkpt><trkpt lat="45.4724028" lon="9.2884091"><ele>114.0</ele><time>2026-04-04T12:23:26.013Z</time></trkpt><trkpt lat="45.4722946" lon="9.2884546"><ele>114.0</ele><time>2026-04-04T12:23:28.013Z</time></trkpt><trkpt lat="45.4721848" lon="9.2884885"><ele>114.0</ele><time>2026-04-04T12:23:30.013Z</time></trkpt><trkpt lat="45.4720762" lon="9.28851"><ele>113.6</ele><time>2026-04-04T12:23:32.014Z</time></trkpt><trkpt lat="45.4719754" lon="9.2885174"><ele>113.2</ele><time>2026-04-04T12:23:34.013Z</time></trkpt><trkpt lat="45.4718752" lon="9.2885169"><ele>112.79999999999998</ele><time>2026-04-04T12:23:36.013Z</time></trkpt><trkpt lat="45.4717758" lon="9.2885126"><ele>112.39999999999999</ele><time>2026-04-04T12:23:38.013Z</time></trkpt><trkpt lat="45.4716742" lon="9.2885147"><ele>112.0</ele><time>2026-04-04T12:23:40.013Z</time></trkpt><trkpt lat="45.4715669" lon="9.288508"><ele>112.0</ele><time>2026-04-04T12:23:42.013Z</time></trkpt><trkpt lat="45.4714651" lon="9.2885078"><ele>111.99999999999999</ele><time>2026-04-04T12:23:44.013Z</time></trkpt><trkpt lat="45.471359" lon="9.2884878"><ele>111.99999999999999</ele><time>2026-04-04T12:23:46.014Z</time></trkpt><trkpt lat="45.4712509" lon="9.2884636"><ele>112.0</ele><time>2026-04-04T12:23:48.013Z</time></trkpt><trkpt lat="45.4711457" lon="9.2884424"><ele>112.0</ele><time>2026-04-04T12:23:50.013Z</time></trkpt><trkpt lat="45.4710372" lon="9.2884336"><ele>111.8</ele><time>2026-04-04T12:23:52.013Z</time></trkpt><trkpt lat="45.4709317" lon="9.2884114"><ele>111.6</ele><time>2026-04-04T12:23:54.013Z</time></trkpt><trkpt lat="45.470827" lon="9.2883934"><ele>111.39999999999999</ele><time>2026-04-04T12:23:56.013Z</time></trkpt><trkpt lat="45.4707213" lon="9.2883752"><ele>111.19999999999999</ele><time>2026-04-04T12:23:58.013Z</time></trkpt><trkpt lat="45.4706148" lon="9.2883602"><ele>111.0</ele><time>2026-04-04T12:24:00.013Z</time></trkpt><trkpt lat="45.4705092" lon="9.2883425"><ele>111.6</ele><time>2026-04-04T12:24:02.013Z</time></trkpt><trkpt lat="45.4704018" lon="9.2883206"><ele>112.19999999999999</ele><time>2026-04-04T12:24:04.013Z</time></trkpt><trkpt lat="45.4702933" lon="9.2882992"><ele>112.80000000000001</ele><time>2026-04-04T12:24:06.013Z</time></trkpt><trkpt lat="45.4701865" lon="9.2882803"><ele>113.4</ele><time>2026-04-04T12:24:08.013Z</time></trkpt><trkpt lat="45.4700785" lon="9.2882633"><ele>114.0</ele><time>2026-04-04T12:24:10.013Z</time></trkpt><trkpt lat="45.4699726" lon="9.2882451"><ele>114.0</ele><time>2026-04-04T12:24:12.013Z</time></trkpt><trkpt lat="45.4698672" lon="9.288229"><ele>114.0</ele><time>2026-04-04T12:24:14.013Z</time></trkpt><trkpt lat="45.469762" lon="9.2882107"><ele>114.0</ele><time>2026-04-04T12:24:16.013Z</time></trkpt><trkpt lat="45.4696535" lon="9.28819"><ele>114.0</ele><time>2026-04-04T12:24:18.013Z</time></trkpt><trkpt lat="45.4695484" lon="9.2881665"><ele>114.0</ele><time>2026-04-04T12:24:20.013Z</time></trkpt><trkpt lat="45.4694479" lon="9.2881476"><ele>113.4</ele><time>2026-04-04T12:24:22.013Z</time></trkpt><trkpt lat="45.4693425" lon="9.2881402"><ele>112.80000000000001</ele><time>2026-04-04T12:24:24.013Z</time></trkpt><trkpt lat="45.4692403" lon="9.2881239"><ele>112.19999999999999</ele><time>2026-04-04T12:24:26.013Z</time></trkpt><trkpt lat="45.4691395" lon="9.2881123"><ele>111.6</ele><time>2026-04-04T12:24:28.013Z</time></trkpt><trkpt lat="45.469041" lon="9.288114"><ele>111.0</ele><time>2026-04-04T12:24:30.013Z</time></trkpt><trkpt lat="45.4689548" lon="9.2881005"><ele>112.0</ele><time>2026-04-04T12:24:32.013Z</time></trkpt><trkpt lat="45.4688729" lon="9.288084"><ele>113.0</ele><time>2026-04-04T12:24:34.013Z</time></trkpt><trkpt lat="45.4687854" lon="9.2880588"><ele>114.0</ele><time>2026-04-04T12:24:36.013Z</time></trkpt><trkpt lat="45.4686893" lon="9.2880447"><ele>115.0</ele><time>2026-04-04T12:24:38.013Z</time></trkpt><trkpt lat="45.468596" lon="9.288027"><ele>116.0</ele><time>2026-04-04T12:24:40.013Z</time></trkpt><trkpt lat="45.4685032" lon="9.2880063"><ele>116.0</ele><time>2026-04-04T12:24:42.013Z</time></trkpt><trkpt lat="45.468412" lon="9.2879878"><ele>116.0</ele><time>2026-04-04T12:24:44.013Z</time></trkpt><trkpt lat="45.468317" lon="9.287961"><ele>116.0</ele><time>2026-04-04T12:24:46.013Z</time></trkpt><trkpt lat="45.4682158" lon="9.2879395"><ele>116.0</ele><time>2026-04-04T12:24:48.013Z</time></trkpt><trkpt lat="45.4681151" lon="9.2879207"><ele>116.0</ele><time>2026-04-04T12:24:50.013Z</time></trkpt><trkpt lat="45.4680123" lon="9.2879056"><ele>116.6</ele><time>2026-04-04T12:24:52.013Z</time></trkpt><trkpt lat="45.4679119" lon="9.2878874"><ele>117.19999999999999</ele><time>2026-04-04T12:24:54.013Z</time></trkpt><trkpt lat="45.4678151" lon="9.2878776"><ele>117.80000000000001</ele><time>2026-04-04T12:24:56.013Z</time></trkpt><trkpt lat="45.467716" lon="9.2878624"><ele>118.4</ele><time>2026-04-04T12:24:58.013Z</time></trkpt><trkpt lat="45.4676197" lon="9.2878485"><ele>119.0</ele><time>2026-04-04T12:25:00.013Z</time></trkpt><trkpt lat="45.4675163" lon="9.2878366"><ele>119.0</ele><time>2026-04-04T12:25:02.013Z</time></trkpt><trkpt lat="45.4674123" lon="9.2878105"><ele>119.0</ele><time>2026-04-04T12:25:04.013Z</time></trkpt><trkpt lat="45.4673048" lon="9.2877913"><ele>119.0</ele><time>2026-04-04T12:25:06.013Z</time></trkpt><trkpt lat="45.4672006" lon="9.2877687"><ele>119.0</ele><time>2026-04-04T12:25:08.013Z</time></trkpt><trkpt lat="45.4670944" lon="9.2877477"><ele>119.0</ele><time>2026-04-04T12:25:10.013Z</time></trkpt><trkpt lat="45.4669931" lon="9.2877286"><ele>118.2</ele><time>2026-04-04T12:25:12.013Z</time></trkpt><trkpt lat="45.4668888" lon="9.287714"><ele>117.4</ele><time>2026-04-04T12:25:14.013Z</time></trkpt><trkpt lat="45.4667869" lon="9.2876988"><ele>116.6</ele><time>2026-04-04T12:25:16.013Z</time></trkpt><trkpt lat="45.466686" lon="9.2876898"><ele>115.8</ele><time>2026-04-04T12:25:18.013Z</time></trkpt><trkpt lat="45.4665846" lon="9.2876591"><ele>115.0</ele><time>2026-04-04T12:25:20.013Z</time></trkpt><trkpt lat="45.4664827" lon="9.2876399"><ele>115.0</ele><time>2026-04-04T12:25:22.013Z</time></trkpt><trkpt lat="45.4663806" lon="9.2876354"><ele>115.0</ele><time>2026-04-04T12:25:24.013Z</time></trkpt><trkpt lat="45.4662764" lon="9.2876107"><ele>115.0</ele><time>2026-04-04T12:25:26.013Z</time></trkpt><trkpt lat="45.4661719" lon="9.287587"><ele>115.0</ele><time>2026-04-04T12:25:28.013Z</time></trkpt><trkpt lat="45.4660694" lon="9.2875682"><ele>115.0</ele><time>2026-04-04T12:25:30.013Z</time></trkpt><trkpt lat="45.4659621" lon="9.2875522"><ele>114.8</ele><time>2026-04-04T12:25:32.013Z</time></trkpt><trkpt lat="45.4658597" lon="9.2875324"><ele>114.6</ele><time>2026-04-04T12:25:34.013Z</time></trkpt><trkpt lat="45.4657518" lon="9.2875204"><ele>114.4</ele><time>2026-04-04T12:25:36.013Z</time></trkpt><trkpt lat="45.4656438" lon="9.2874955"><ele>114.2</ele><time>2026-04-04T12:25:38.013Z</time></trkpt><trkpt lat="45.4655355" lon="9.2874748"><ele>114.0</ele><time>2026-04-04T12:25:40.013Z</time></trkpt><trkpt lat="45.4654244" lon="9.2874579"><ele>113.80000000000001</ele><time>2026-04-04T12:25:42.013Z</time></trkpt><trkpt lat="45.4653199" lon="9.287439"><ele>113.60000000000001</ele><time>2026-04-04T12:25:44.013Z</time></trkpt><trkpt lat="45.4652071" lon="9.2874201"><ele>113.4</ele><time>2026-04-04T12:25:46.013Z</time></trkpt><trkpt lat="45.4651006" lon="9.2874046"><ele>113.2</ele><time>2026-04-04T12:25:48.013Z</time></trkpt><trkpt lat="45.4649911" lon="9.2873892"><ele>113.0</ele><time>2026-04-04T12:25:50.013Z</time></trkpt><trkpt lat="45.4648817" lon="9.2873716"><ele>113.0</ele><time>2026-04-04T12:25:52.013Z</time></trkpt><trkpt lat="45.4647721" lon="9.2873486"><ele>113.00000000000001</ele><time>2026-04-04T12:25:54.013Z</time></trkpt><trkpt lat="45.4646677" lon="9.2873318"><ele>113.00000000000001</ele><time>2026-04-04T12:25:56.013Z</time></trkpt><trkpt lat="45.4645538" lon="9.287313"><ele>113.0</ele><time>2026-04-04T12:25:58.013Z</time></trkpt><trkpt lat="45.4644458" lon="9.2872926"><ele>113.0</ele><time>2026-04-04T12:26:00.013Z</time></trkpt><trkpt lat="45.4643352" lon="9.2872703"><ele>113.2</ele><time>2026-04-04T12:26:02.013Z</time></trkpt><trkpt lat="45.4642273" lon="9.2872495"><ele>113.4</ele><time>2026-04-04T12:26:04.013Z</time></trkpt><trkpt lat="45.4641172" lon="9.2872358"><ele>113.60000000000001</ele><time>2026-04-04T12:26:06.013Z</time></trkpt><trkpt lat="45.4640121" lon="9.287216"><ele>113.80000000000001</ele><time>2026-04-04T12:26:08.013Z</time></trkpt><trkpt lat="45.4639062" lon="9.2872002"><ele>114.0</ele><time>2026-04-04T12:26:10.013Z</time></trkpt><trkpt lat="45.4638016" lon="9.2871883"><ele>114.0</ele><time>2026-04-04T12:26:12.013Z</time></trkpt><trkpt lat="45.4636973" lon="9.2871623"><ele>114.0</ele><time>2026-04-04T12:26:14.013Z</time></trkpt><trkpt lat="45.4635937" lon="9.2871239"><ele>114.0</ele><time>2026-04-04T12:26:16.013Z</time></trkpt><trkpt lat="45.4634963" lon="9.2870688"><ele>114.0</ele><time>2026-04-04T12:26:18.013Z</time></trkpt><trkpt lat="45.463403" lon="9.287003"><ele>114.0</ele><time>2026-04-04T12:26:20.013Z</time></trkpt><trkpt lat="45.4633144" lon="9.2869262"><ele>114.0</ele><time>2026-04-04T12:26:22.013Z</time></trkpt><trkpt lat="45.4632337" lon="9.2868352"><ele>114.0</ele><time>2026-04-04T12:26:24.013Z</time></trkpt><trkpt lat="45.4631577" lon="9.2867365"><ele>114.0</ele><time>2026-04-04T12:26:26.013Z</time></trkpt><trkpt lat="45.4630849" lon="9.2866216"><ele>114.0</ele><time>2026-04-04T12:26:28.013Z</time></trkpt><trkpt lat="45.4630243" lon="9.2864947"><ele>114.0</ele><time>2026-04-04T12:26:30.013Z</time></trkpt><trkpt lat="45.462945" lon="9.2863938"><ele>114.6</ele><time>2026-04-04T12:26:32.013Z</time></trkpt><trkpt lat="45.4628378" lon="9.2863711"><ele>115.2</ele><time>2026-04-04T12:26:34.013Z</time></trkpt><trkpt lat="45.4627263" lon="9.2863681"><ele>115.79999999999998</ele><time>2026-04-04T12:26:36.013Z</time></trkpt><trkpt lat="45.4626139" lon="9.2863611"><ele>116.39999999999999</ele><time>2026-04-04T12:26:38.013Z</time></trkpt><trkpt lat="45.4625025" lon="9.2863536"><ele>117.0</ele><time>2026-04-04T12:26:40.013Z</time></trkpt><trkpt lat="45.4623994" lon="9.2863527"><ele>117.0</ele><time>2026-04-04T12:26:42.013Z</time></trkpt><trkpt lat="45.4623041" lon="9.2863496"><ele>116.99999999999999</ele><time>2026-04-04T12:26:44.013Z</time></trkpt><trkpt lat="45.4622064" lon="9.2863457"><ele>116.99999999999999</ele><time>2026-04-04T12:26:46.013Z</time></trkpt><trkpt lat="45.4620956" lon="9.2863428"><ele>117.0</ele><time>2026-04-04T12:26:48.013Z</time></trkpt><trkpt lat="45.4619853" lon="9.2863385"><ele>117.0</ele><time>2026-04-04T12:26:50.013Z</time></trkpt><trkpt lat="45.461879" lon="9.286305"><ele>115.6</ele><time>2026-04-04T12:26:52.013Z</time></trkpt><trkpt lat="45.4617708" lon="9.2862799"><ele>114.19999999999999</ele><time>2026-04-04T12:26:54.013Z</time></trkpt><trkpt lat="45.4616637" lon="9.2862635"><ele>112.8</ele><time>2026-04-04T12:26:56.013Z</time></trkpt><trkpt lat="45.4615604" lon="9.2862497"><ele>111.4</ele><time>2026-04-04T12:26:58.013Z</time></trkpt><trkpt lat="45.461457" lon="9.2862306"><ele>110.0</ele><time>2026-04-04T12:27:00.013Z</time></trkpt><trkpt lat="45.4613538" lon="9.2862075"><ele>109.4</ele><time>2026-04-04T12:27:02.013Z</time></trkpt><trkpt lat="45.4612493" lon="9.286189"><ele>108.8</ele><time>2026-04-04T12:27:04.013Z</time></trkpt><trkpt lat="45.4611418" lon="9.2861696"><ele>108.19999999999999</ele><time>2026-04-04T12:27:06.013Z</time></trkpt><trkpt lat="45.4610364" lon="9.2861481"><ele>107.6</ele><time>2026-04-04T12:27:08.013Z</time></trkpt><trkpt lat="45.4609289" lon="9.2861287"><ele>107.0</ele><time>2026-04-04T12:27:10.013Z</time></trkpt><trkpt lat="45.4608203" lon="9.2861409"><ele>107.0</ele><time>2026-04-04T12:27:12.013Z</time></trkpt><trkpt lat="45.4607191" lon="9.2861941"><ele>106.99999999999999</ele><time>2026-04-04T12:27:14.013Z</time></trkpt><trkpt lat="45.460618" lon="9.2862538"><ele>106.99999999999999</ele><time>2026-04-04T12:27:16.013Z</time></trkpt><trkpt lat="45.460508" lon="9.2862652"><ele>107.0</ele><time>2026-04-04T12:27:18.013Z</time></trkpt><trkpt lat="45.460394" lon="9.2862332"><ele>107.0</ele><time>2026-04-04T12:27:20.013Z</time></trkpt><trkpt lat="45.4602801" lon="9.286195"><ele>107.0</ele><time>2026-04-04T12:27:22.013Z</time></trkpt><trkpt lat="45.4601642" lon="9.2861387"><ele>106.99999999999999</ele><time>2026-04-04T12:27:24.013Z</time></trkpt><trkpt lat="45.460056" lon="9.2860791"><ele>106.99999999999999</ele><time>2026-04-04T12:27:26.013Z</time></trkpt><trkpt lat="45.4599632" lon="9.2860175"><ele>107.0</ele><time>2026-04-04T12:27:28.013Z</time></trkpt><trkpt lat="45.4598779" lon="9.2859566"><ele>107.0</ele><time>2026-04-04T12:27:30.013Z</time></trkpt><trkpt lat="45.4597935" lon="9.2858994"><ele>107.0</ele><time>2026-04-04T12:27:32.013Z</time></trkpt><trkpt lat="45.4596998" lon="9.2858275"><ele>106.99999999999999</ele><time>2026-04-04T12:27:34.013Z</time></trkpt><trkpt lat="45.4595914" lon="9.2857827"><ele>106.99999999999999</ele><time>2026-04-04T12:27:36.013Z</time></trkpt><trkpt lat="45.459481" lon="9.2858057"><ele>107.0</ele><time>2026-04-04T12:27:38.013Z</time></trkpt><trkpt lat="45.459401" lon="9.2859184"><ele>107.0</ele><time>2026-04-04T12:27:40.013Z</time></trkpt><trkpt lat="45.4593273" lon="9.2860415"><ele>107.6</ele><time>2026-04-04T12:27:42.013Z</time></trkpt><trkpt lat="45.4592355" lon="9.286123"><ele>108.19999999999999</ele><time>2026-04-04T12:27:44.013Z</time></trkpt><trkpt lat="45.4591372" lon="9.2861856"><ele>108.8</ele><time>2026-04-04T12:27:46.013Z</time></trkpt><trkpt lat="45.459031" lon="9.2862472"><ele>109.4</ele><time>2026-04-04T12:27:48.013Z</time></trkpt><trkpt lat="45.4589247" lon="9.2862893"><ele>110.0</ele><time>2026-04-04T12:27:50.013Z</time></trkpt><trkpt lat="45.4588231" lon="9.2863113"><ele>110.2</ele><time>2026-04-04T12:27:52.013Z</time></trkpt><trkpt lat="45.458717" lon="9.2863136"><ele>110.4</ele><time>2026-04-04T12:27:54.013Z</time></trkpt><trkpt lat="45.4586084" lon="9.2863292"><ele>110.6</ele><time>2026-04-04T12:27:56.013Z</time></trkpt><trkpt lat="45.4585042" lon="9.2863239"><ele>110.8</ele><time>2026-04-04T12:27:58.013Z</time></trkpt><trkpt lat="45.458391" lon="9.2863233"><ele>111.0</ele><time>2026-04-04T12:28:00.013Z</time></trkpt><trkpt lat="45.4582857" lon="9.2863082"><ele>111.0</ele><time>2026-04-04T12:28:02.013Z</time></trkpt><trkpt lat="45.4581805" lon="9.2862984"><ele>111.0</ele><time>2026-04-04T12:28:04.013Z</time></trkpt><trkpt lat="45.4580745" lon="9.2862826"><ele>111.0</ele><time>2026-04-04T12:28:06.013Z</time></trkpt><trkpt lat="45.4579822" lon="9.286246"><ele>111.0</ele><time>2026-04-04T12:28:08.013Z</time></trkpt><trkpt lat="45.4578747" lon="9.2862268"><ele>111.0</ele><time>2026-04-04T12:28:10.013Z</time></trkpt><trkpt lat="45.4577695" lon="9.2862055"><ele>110.8</ele><time>2026-04-04T12:28:12.013Z</time></trkpt><trkpt lat="45.4576667" lon="9.2861847"><ele>110.6</ele><time>2026-04-04T12:28:14.013Z</time></trkpt><trkpt lat="45.4575638" lon="9.2861606"><ele>110.4</ele><time>2026-04-04T12:28:16.013Z</time></trkpt><trkpt lat="45.4574549" lon="9.2861478"><ele>110.2</ele><time>2026-04-04T12:28:18.013Z</time></trkpt><trkpt lat="45.4573479" lon="9.2861257"><ele>110.0</ele><time>2026-04-04T12:28:20.013Z</time></trkpt><trkpt lat="45.4572407" lon="9.2861016"><ele>110.0</ele><time>2026-04-04T12:28:22.013Z</time></trkpt><trkpt lat="45.4571317" lon="9.2860797"><ele>110.0</ele><time>2026-04-04T12:28:24.013Z</time></trkpt><trkpt lat="45.4570233" lon="9.2860621"><ele>110.0</ele><time>2026-04-04T12:28:26.013Z</time></trkpt><trkpt lat="45.4569126" lon="9.2860352"><ele>110.0</ele><time>2026-04-04T12:28:28.013Z</time></trkpt><trkpt lat="45.4568001" lon="9.2860174"><ele>110.0</ele><time>2026-04-04T12:28:30.013Z</time></trkpt><trkpt lat="45.4566913" lon="9.2859992"><ele>109.5</ele><time>2026-04-04T12:28:32.013Z</time></trkpt><trkpt lat="45.4565822" lon="9.2859753"><ele>109.0</ele><time>2026-04-04T12:28:34.013Z</time></trkpt><trkpt lat="45.456471" lon="9.2859557"><ele>108.5</ele><time>2026-04-04T12:28:36.013Z</time></trkpt><trkpt lat="45.4563522" lon="9.2859327"><ele>108.0</ele><time>2026-04-04T12:28:38.013Z</time></trkpt><trkpt lat="45.4562438" lon="9.2859175"><ele>108.0</ele><time>2026-04-04T12:28:40.013Z</time></trkpt><trkpt lat="45.456135" lon="9.2859116"><ele>108.00000000000001</ele><time>2026-04-04T12:28:42.013Z</time></trkpt><trkpt lat="45.4560201" lon="9.2858855"><ele>108.00000000000001</ele><time>2026-04-04T12:28:44.013Z</time></trkpt><trkpt lat="45.4559107" lon="9.2858555"><ele>108.0</ele><time>2026-04-04T12:28:46.013Z</time></trkpt><trkpt lat="45.4558014" lon="9.2858303"><ele>108.0</ele><time>2026-04-04T12:28:48.013Z</time></trkpt><trkpt lat="45.4556941" lon="9.2858224"><ele>108.0</ele><time>2026-04-04T12:28:50.013Z</time></trkpt><trkpt lat="45.4555833" lon="9.2857987"><ele>108.00000000000001</ele><time>2026-04-04T12:28:52.013Z</time></trkpt><trkpt lat="45.4554711" lon="9.2857747"><ele>108.00000000000001</ele><time>2026-04-04T12:28:54.013Z</time></trkpt><trkpt lat="45.4553673" lon="9.2857728"><ele>108.0</ele><time>2026-04-04T12:28:56.013Z</time></trkpt><trkpt lat="45.4552552" lon="9.2857538"><ele>108.0</ele><time>2026-04-04T12:28:58.013Z</time></trkpt><trkpt lat="45.4551401" lon="9.2857162"><ele>108.25</ele><time>2026-04-04T12:29:00.013Z</time></trkpt><trkpt lat="45.4550256" lon="9.2856963"><ele>108.5</ele><time>2026-04-04T12:29:02.013Z</time></trkpt><trkpt lat="45.45491" lon="9.2856722"><ele>108.75</ele><time>2026-04-04T12:29:04.013Z</time></trkpt><trkpt lat="45.4547955" lon="9.2856564"><ele>109.0</ele><time>2026-04-04T12:29:06.013Z</time></trkpt><trkpt lat="45.4546836" lon="9.2856383"><ele>108.75</ele><time>2026-04-04T12:29:08.013Z</time></trkpt><trkpt lat="45.4545725" lon="9.2856208"><ele>108.5</ele><time>2026-04-04T12:29:10.013Z</time></trkpt><trkpt lat="45.4544525" lon="9.2856079"><ele>108.25</ele><time>2026-04-04T12:29:12.013Z</time></trkpt><trkpt lat="45.4543391" lon="9.2855904"><ele>108.0</ele><time>2026-04-04T12:29:14.013Z</time></trkpt><trkpt lat="45.4542215" lon="9.2855698"><ele>107.75</ele><time>2026-04-04T12:29:16.013Z</time></trkpt><trkpt lat="45.4541065" lon="9.2855497"><ele>107.5</ele><time>2026-04-04T12:29:18.013Z</time></trkpt><trkpt lat="45.4539923" lon="9.2855236"><ele>107.25</ele><time>2026-04-04T12:29:20.013Z</time></trkpt><trkpt lat="45.4538816" lon="9.2855136"><ele>107.0</ele><time>2026-04-04T12:29:22.013Z</time></trkpt><trkpt lat="45.4537741" lon="9.2855064"><ele>106.75</ele><time>2026-04-04T12:29:24.013Z</time></trkpt><trkpt lat="45.4536638" lon="9.2854963"><ele>106.5</ele><time>2026-04-04T12:29:26.013Z</time></trkpt><trkpt lat="45.4535501" lon="9.2855027"><ele>106.25</ele><time>2026-04-04T12:29:28.013Z</time></trkpt><trkpt lat="45.4534329" lon="9.2855395"><ele>106.0</ele><time>2026-04-04T12:29:30.013Z</time></trkpt><trkpt lat="45.4533229" lon="9.2855978"><ele>106.5</ele><time>2026-04-04T12:29:32.013Z</time></trkpt><trkpt lat="45.4532192" lon="9.2856674"><ele>107.0</ele><time>2026-04-04T12:29:34.013Z</time></trkpt><trkpt lat="45.4531293" lon="9.2857479"><ele>107.5</ele><time>2026-04-04T12:29:36.014Z</time></trkpt><trkpt lat="45.4530435" lon="9.2858644"><ele>108.0</ele><time>2026-04-04T12:29:38.013Z</time></trkpt><trkpt lat="45.452968" lon="9.2859846"><ele>108.0</ele><time>2026-04-04T12:29:40.013Z</time></trkpt><trkpt lat="45.4528943" lon="9.2861048"><ele>108.00000000000001</ele><time>2026-04-04T12:29:42.013Z</time></trkpt><trkpt lat="45.4528348" lon="9.2862383"><ele>108.00000000000001</ele><time>2026-04-04T12:29:44.013Z</time></trkpt><trkpt lat="45.4527856" lon="9.2863765"><ele>108.0</ele><time>2026-04-04T12:29:46.013Z</time></trkpt><trkpt lat="45.4527364" lon="9.2865226"><ele>108.0</ele><time>2026-04-04T12:29:48.013Z</time></trkpt><trkpt lat="45.452693" lon="9.2866684"><ele>108.2</ele><time>2026-04-04T12:29:50.013Z</time></trkpt><trkpt lat="45.4526665" lon="9.2868195"><ele>108.4</ele><time>2026-04-04T12:29:52.013Z</time></trkpt><trkpt lat="45.452635" lon="9.2869709"><ele>108.60000000000001</ele><time>2026-04-04T12:29:54.013Z</time></trkpt><trkpt lat="45.4526106" lon="9.2871311"><ele>108.80000000000001</ele><time>2026-04-04T12:29:56.013Z</time></trkpt><trkpt lat="45.4525935" lon="9.2872907"><ele>109.0</ele><time>2026-04-04T12:29:58.013Z</time></trkpt><trkpt lat="45.4525774" lon="9.2874487"><ele>109.0</ele><time>2026-04-04T12:30:00.013Z</time></trkpt><trkpt lat="45.4525627" lon="9.2876028"><ele>109.0</ele><time>2026-04-04T12:30:02.013Z</time></trkpt><trkpt lat="45.4525435" lon="9.28776"><ele>109.0</ele><time>2026-04-04T12:30:04.013Z</time></trkpt><trkpt lat="45.4525348" lon="9.2879292"><ele>109.0</ele><time>2026-04-04T12:30:06.013Z</time></trkpt><trkpt lat="45.4525164" lon="9.2880821"><ele>109.0</ele><time>2026-04-04T12:30:08.013Z</time></trkpt><trkpt lat="45.4525143" lon="9.2882359"><ele>109.0</ele><time>2026-04-04T12:30:10.013Z</time></trkpt><trkpt lat="45.4525117" lon="9.2883808"><ele>109.0</ele><time>2026-04-04T12:30:12.014Z</time></trkpt><trkpt lat="45.4525012" lon="9.2885268"><ele>109.0</ele><time>2026-04-04T12:30:14.013Z</time></trkpt><trkpt lat="45.4524872" lon="9.2886601"><ele>109.0</ele><time>2026-04-04T12:30:16.013Z</time></trkpt><trkpt lat="45.452481" lon="9.2887951"><ele>109.0</ele><time>2026-04-04T12:30:18.013Z</time></trkpt><trkpt lat="45.4524652" lon="9.2889364"><ele>109.2</ele><time>2026-04-04T12:30:20.013Z</time></trkpt><trkpt lat="45.4524482" lon="9.2890828"><ele>109.4</ele><time>2026-04-04T12:30:22.013Z</time></trkpt><trkpt lat="45.4524344" lon="9.2892199"><ele>109.6</ele><time>2026-04-04T12:30:24.013Z</time></trkpt><trkpt lat="45.452427" lon="9.289353"><ele>109.8</ele><time>2026-04-04T12:30:26.013Z</time></trkpt><trkpt lat="45.4524278" lon="9.2894863"><ele>110.0</ele><time>2026-04-04T12:30:28.013Z</time></trkpt><trkpt lat="45.452406" lon="9.2896472"><ele>110.25</ele><time>2026-04-04T12:30:30.013Z</time></trkpt><trkpt lat="45.4523873" lon="9.2898065"><ele>110.5</ele><time>2026-04-04T12:30:32.013Z</time></trkpt><trkpt lat="45.4523868" lon="9.289972"><ele>110.75</ele><time>2026-04-04T12:30:34.013Z</time></trkpt><trkpt lat="45.4524089" lon="9.2901362"><ele>111.0</ele><time>2026-04-04T12:30:36.013Z</time></trkpt><trkpt lat="45.4524184" lon="9.2902988"><ele>111.0</ele><time>2026-04-04T12:30:38.013Z</time></trkpt><trkpt lat="45.4524071" lon="9.2904559"><ele>111.0</ele><time>2026-04-04T12:30:40.013Z</time></trkpt><trkpt lat="45.4523899" lon="9.2906133"><ele>111.0</ele><time>2026-04-04T12:30:42.013Z</time></trkpt><trkpt lat="45.4524117" lon="9.2907672"><ele>111.0</ele><time>2026-04-04T12:30:44.013Z</time></trkpt><trkpt lat="45.4524846" lon="9.2908798"><ele>111.0</ele><time>2026-04-04T12:30:46.013Z</time></trkpt><trkpt lat="45.4525801" lon="9.290962"><ele>110.8</ele><time>2026-04-04T12:30:48.013Z</time></trkpt><trkpt lat="45.452679" lon="9.2910267"><ele>110.6</ele><time>2026-04-04T12:30:50.013Z</time></trkpt><trkpt lat="45.4527799" lon="9.2910861"><ele>110.4</ele><time>2026-04-04T12:30:52.013Z</time></trkpt><trkpt lat="45.452882" lon="9.2911543"><ele>110.2</ele><time>2026-04-04T12:30:54.013Z</time></trkpt><trkpt lat="45.4529811" lon="9.2911976"><ele>110.0</ele><time>2026-04-04T12:30:56.013Z</time></trkpt><trkpt lat="45.453087" lon="9.2912347"><ele>110.2</ele><time>2026-04-04T12:30:58.013Z</time></trkpt><trkpt lat="45.4531904" lon="9.2912555"><ele>110.4</ele><time>2026-04-04T12:31:00.013Z</time></trkpt><trkpt lat="45.4532973" lon="9.2912793"><ele>110.6</ele><time>2026-04-04T12:31:02.013Z</time></trkpt><trkpt lat="45.4534066" lon="9.2913069"><ele>110.8</ele><time>2026-04-04T12:31:04.013Z</time></trkpt><trkpt lat="45.4535041" lon="9.291385"><ele>111.0</ele><time>2026-04-04T12:31:06.013Z</time></trkpt><trkpt lat="45.453614" lon="9.2914398"><ele>111.0</ele><time>2026-04-04T12:31:08.013Z</time></trkpt><trkpt lat="45.4537299" lon="9.2914707"><ele>111.0</ele><time>2026-04-04T12:31:10.013Z</time></trkpt><trkpt lat="45.4538459" lon="9.2915035"><ele>111.0</ele><time>2026-04-04T12:31:12.013Z</time></trkpt><trkpt lat="45.4539579" lon="9.2915345"><ele>111.0</ele><time>2026-04-04T12:31:14.013Z</time></trkpt><trkpt lat="45.4540803" lon="9.2915502"><ele>110.4</ele><time>2026-04-04T12:31:16.013Z</time></trkpt><trkpt lat="45.4541948" lon="9.2915191"><ele>109.8</ele><time>2026-04-04T12:31:18.013Z</time></trkpt><trkpt lat="45.454304" lon="9.2914944"><ele>109.20000000000002</ele><time>2026-04-04T12:31:20.013Z</time></trkpt><trkpt lat="45.4544072" lon="9.2914626"><ele>108.60000000000001</ele><time>2026-04-04T12:31:22.013Z</time></trkpt><trkpt lat="45.4545061" lon="9.2914723"><ele>108.0</ele><time>2026-04-04T12:31:24.013Z</time></trkpt><trkpt lat="45.4546191" lon="9.2915006"><ele>108.2</ele><time>2026-04-04T12:31:26.013Z</time></trkpt><trkpt lat="45.4547247" lon="9.2915218"><ele>108.4</ele><time>2026-04-04T12:31:28.013Z</time></trkpt><trkpt lat="45.4548367" lon="9.2915393"><ele>108.60000000000001</ele><time>2026-04-04T12:31:30.013Z</time></trkpt><trkpt lat="45.4549412" lon="9.2915551"><ele>108.80000000000001</ele><time>2026-04-04T12:31:32.013Z</time></trkpt><trkpt lat="45.4550482" lon="9.2915696"><ele>109.0</ele><time>2026-04-04T12:31:34.013Z</time></trkpt><trkpt lat="45.4551557" lon="9.2915878"><ele>109.0</ele><time>2026-04-04T12:31:36.013Z</time></trkpt><trkpt lat="45.4552651" lon="9.2915964"><ele>109.0</ele><time>2026-04-04T12:31:38.013Z</time></trkpt><trkpt lat="45.455365" lon="9.291601"><ele>109.0</ele><time>2026-04-04T12:31:40.013Z</time></trkpt><trkpt lat="45.455481" lon="9.2916081"><ele>109.0</ele><time>2026-04-04T12:31:42.013Z</time></trkpt><trkpt lat="45.4555837" lon="9.2916015"><ele>109.0</ele><time>2026-04-04T12:31:44.013Z</time></trkpt><trkpt lat="45.4556815" lon="9.2915913"><ele>109.2</ele><time>2026-04-04T12:31:46.014Z</time></trkpt><trkpt lat="45.4557952" lon="9.2915593"><ele>109.4</ele><time>2026-04-04T12:31:48.013Z</time></trkpt><trkpt lat="45.4559007" lon="9.2915338"><ele>109.6</ele><time>2026-04-04T12:31:50.013Z</time></trkpt><trkpt lat="45.4560036" lon="9.2915099"><ele>109.8</ele><time>2026-04-04T12:31:52.013Z</time></trkpt><trkpt lat="45.4561085" lon="9.2914655"><ele>110.0</ele><time>2026-04-04T12:31:54.013Z</time></trkpt><trkpt lat="45.456209" lon="9.2914113"><ele>110.6</ele><time>2026-04-04T12:31:56.013Z</time></trkpt><trkpt lat="45.4563145" lon="9.2913604"><ele>111.2</ele><time>2026-04-04T12:31:58.013Z</time></trkpt><trkpt lat="45.4564135" lon="9.2913017"><ele>111.80000000000001</ele><time>2026-04-04T12:32:00.014Z</time></trkpt><trkpt lat="45.45651" lon="9.2912418"><ele>112.4</ele><time>2026-04-04T12:32:02.013Z</time></trkpt><trkpt lat="45.4566086" lon="9.2911836"><ele>113.0</ele><time>2026-04-04T12:32:04.013Z</time></trkpt><trkpt lat="45.4567101" lon="9.2911402"><ele>113.0</ele><time>2026-04-04T12:32:06.013Z</time></trkpt><trkpt lat="45.4568105" lon="9.2911077"><ele>113.00000000000001</ele><time>2026-04-04T12:32:08.013Z</time></trkpt><trkpt lat="45.4569126" lon="9.2910833"><ele>113.00000000000001</ele><time>2026-04-04T12:32:10.014Z</time></trkpt><trkpt lat="45.4570194" lon="9.2910584"><ele>113.0</ele><time>2026-04-04T12:32:12.013Z</time></trkpt><trkpt lat="45.4571294" lon="9.291021"><ele>113.0</ele><time>2026-04-04T12:32:14.013Z</time></trkpt><trkpt lat="45.4572386" lon="9.2909713"><ele>113.25</ele><time>2026-04-04T12:32:16.013Z</time></trkpt><trkpt lat="45.4573486" lon="9.2909141"><ele>113.5</ele><time>2026-04-04T12:32:18.013Z</time></trkpt><trkpt lat="45.4574598" lon="9.2908787"><ele>113.75</ele><time>2026-04-04T12:32:20.013Z</time></trkpt><trkpt lat="45.4575687" lon="9.2908782"><ele>114.0</ele><time>2026-04-04T12:32:22.013Z</time></trkpt><trkpt lat="45.4576787" lon="9.2908937"><ele>114.0</ele><time>2026-04-04T12:32:24.013Z</time></trkpt><trkpt lat="45.4577868" lon="9.2909422"><ele>114.0</ele><time>2026-04-04T12:32:26.013Z</time></trkpt><trkpt lat="45.4578908" lon="9.2910089"><ele>114.0</ele><time>2026-04-04T12:32:28.013Z</time></trkpt><trkpt lat="45.4579916" lon="9.2910718"><ele>114.0</ele><time>2026-04-04T12:32:30.013Z</time></trkpt><trkpt lat="45.4580874" lon="9.291141"><ele>114.0</ele><time>2026-04-04T12:32:32.013Z</time></trkpt><trkpt lat="45.4581846" lon="9.291211"><ele>114.4</ele><time>2026-04-04T12:32:34.013Z</time></trkpt><trkpt lat="45.4582816" lon="9.2912858"><ele>114.80000000000001</ele><time>2026-04-04T12:32:36.013Z</time></trkpt><trkpt lat="45.4583771" lon="9.2913685"><ele>115.19999999999999</ele><time>2026-04-04T12:32:38.013Z</time></trkpt><trkpt lat="45.4584699" lon="9.2914443"><ele>115.6</ele><time>2026-04-04T12:32:40.013Z</time></trkpt><trkpt lat="45.4585647" lon="9.2915196"><ele>116.0</ele><time>2026-04-04T12:32:42.013Z</time></trkpt><trkpt lat="45.4586598" lon="9.2916094"><ele>116.0</ele><time>2026-04-04T12:32:44.013Z</time></trkpt><trkpt lat="45.4587514" lon="9.2917114"><ele>116.0</ele><time>2026-04-04T12:32:46.013Z</time></trkpt><trkpt lat="45.4588454" lon="9.2918111"><ele>116.0</ele><time>2026-04-04T12:32:48.013Z</time></trkpt><trkpt lat="45.4589398" lon="9.2918919"><ele>116.0</ele><time>2026-04-04T12:32:50.013Z</time></trkpt><trkpt lat="45.4590442" lon="9.2919564"><ele>116.25</ele><time>2026-04-04T12:32:52.013Z</time></trkpt><trkpt lat="45.4591548" lon="9.2919971"><ele>116.5</ele><time>2026-04-04T12:32:54.013Z</time></trkpt><trkpt lat="45.4592659" lon="9.2920312"><ele>116.75</ele><time>2026-04-04T12:32:56.013Z</time></trkpt><trkpt lat="45.459379" lon="9.2920532"><ele>117.0</ele><time>2026-04-04T12:32:58.013Z</time></trkpt><trkpt lat="45.4594872" lon="9.2920717"><ele>117.0</ele><time>2026-04-04T12:33:00.013Z</time></trkpt><trkpt lat="45.4595941" lon="9.2920948"><ele>116.99999999999999</ele><time>2026-04-04T12:33:02.013Z</time></trkpt><trkpt lat="45.4597003" lon="9.2921263"><ele>116.99999999999999</ele><time>2026-04-04T12:33:04.013Z</time></trkpt><trkpt lat="45.4598061" lon="9.2921383"><ele>117.0</ele><time>2026-04-04T12:33:06.013Z</time></trkpt><trkpt lat="45.4599125" lon="9.2921622"><ele>117.0</ele><time>2026-04-04T12:33:08.013Z</time></trkpt><trkpt lat="45.4600223" lon="9.2921809"><ele>117.19999999999999</ele><time>2026-04-04T12:33:10.013Z</time></trkpt><trkpt lat="45.4601329" lon="9.2921928"><ele>117.39999999999999</ele><time>2026-04-04T12:33:12.013Z</time></trkpt><trkpt lat="45.4602425" lon="9.2921946"><ele>117.60000000000001</ele><time>2026-04-04T12:33:14.013Z</time></trkpt><trkpt lat="45.4603508" lon="9.2921864"><ele>117.80000000000001</ele><time>2026-04-04T12:33:16.013Z</time></trkpt><trkpt lat="45.4604445" lon="9.2921562"><ele>118.0</ele><time>2026-04-04T12:33:18.013Z</time></trkpt><trkpt lat="45.4605459" lon="9.2921037"><ele>118.0</ele><time>2026-04-04T12:33:20.013Z</time></trkpt><trkpt lat="45.4606479" lon="9.2920531"><ele>118.00000000000001</ele><time>2026-04-04T12:33:22.013Z</time></trkpt><trkpt lat="45.4607383" lon="9.2919898"><ele>118.00000000000001</ele><time>2026-04-04T12:33:24.013Z</time></trkpt><trkpt lat="45.460826" lon="9.2919237"><ele>118.0</ele><time>2026-04-04T12:33:26.013Z</time></trkpt><trkpt lat="45.4609169" lon="9.2918564"><ele>118.0</ele><time>2026-04-04T12:33:28.013Z</time></trkpt><trkpt lat="45.4610116" lon="9.2917886"><ele>118.0</ele><time>2026-04-04T12:33:30.013Z</time></trkpt><trkpt lat="45.461108" lon="9.2917116"><ele>118.00000000000001</ele><time>2026-04-04T12:33:32.013Z</time></trkpt><trkpt lat="45.461203" lon="9.2916387"><ele>118.00000000000001</ele><time>2026-04-04T12:33:34.013Z</time></trkpt><trkpt lat="45.4612986" lon="9.2915702"><ele>118.0</ele><time>2026-04-04T12:33:36.013Z</time></trkpt><trkpt lat="45.4613977" lon="9.2915137"><ele>118.0</ele><time>2026-04-04T12:33:38.013Z</time></trkpt><trkpt lat="45.461504" lon="9.2914848"><ele>117.60000000000001</ele><time>2026-04-04T12:33:40.013Z</time></trkpt><trkpt lat="45.4616157" lon="9.2914694"><ele>117.20000000000002</ele><time>2026-04-04T12:33:42.013Z</time></trkpt><trkpt lat="45.4617225" lon="9.2914564"><ele>116.8</ele><time>2026-04-04T12:33:44.013Z</time></trkpt><trkpt lat="45.4618281" lon="9.2914496"><ele>116.4</ele><time>2026-04-04T12:33:46.013Z</time></trkpt><trkpt lat="45.4619379" lon="9.291456"><ele>116.0</ele><time>2026-04-04T12:33:48.013Z</time></trkpt><trkpt lat="45.4620484" lon="9.2914906"><ele>116.19999999999999</ele><time>2026-04-04T12:33:50.013Z</time></trkpt><trkpt lat="45.462153" lon="9.2915429"><ele>116.39999999999999</ele><time>2026-04-04T12:33:52.013Z</time></trkpt><trkpt lat="45.462258" lon="9.2916149"><ele>116.6</ele><time>2026-04-04T12:33:54.013Z</time></trkpt><trkpt lat="45.4623536" lon="9.2916935"><ele>116.8</ele><time>2026-04-04T12:33:56.013Z</time></trkpt><trkpt lat="45.4624486" lon="9.2917638"><ele>117.0</ele><time>2026-04-04T12:33:58.013Z</time></trkpt><trkpt lat="45.4625407" lon="9.2918447"><ele>117.0</ele><time>2026-04-04T12:34:00.013Z</time></trkpt><trkpt lat="45.4626321" lon="9.2919178"><ele>117.0</ele><time>2026-04-04T12:34:02.013Z</time></trkpt><trkpt lat="45.4627311" lon="9.2920062"><ele>117.0</ele><time>2026-04-04T12:34:04.013Z</time></trkpt><trkpt lat="45.4628259" lon="9.2921036"><ele>117.0</ele><time>2026-04-04T12:34:06.013Z</time></trkpt><trkpt lat="45.4629212" lon="9.2921945"><ele>116.39999999999999</ele><time>2026-04-04T12:34:08.013Z</time></trkpt><trkpt lat="45.4630112" lon="9.2922797"><ele>115.79999999999998</ele><time>2026-04-04T12:34:10.013Z</time></trkpt><trkpt lat="45.4631079" lon="9.2923581"><ele>115.2</ele><time>2026-04-04T12:34:12.013Z</time></trkpt><trkpt lat="45.4632013" lon="9.292437"><ele>114.6</ele><time>2026-04-04T12:34:14.013Z</time></trkpt><trkpt lat="45.463297" lon="9.2925163"><ele>114.0</ele><time>2026-04-04T12:34:16.013Z</time></trkpt><trkpt lat="45.4633982" lon="9.292597"><ele>114.0</ele><time>2026-04-04T12:34:18.013Z</time></trkpt><trkpt lat="45.4634991" lon="9.2926607"><ele>114.0</ele><time>2026-04-04T12:34:20.013Z</time></trkpt><trkpt lat="45.4635877" lon="9.2927347"><ele>114.0</ele><time>2026-04-04T12:34:22.013Z</time></trkpt><trkpt lat="45.4636864" lon="9.2927929"><ele>114.0</ele><time>2026-04-04T12:34:24.013Z</time></trkpt><trkpt lat="45.4637913" lon="9.2928012"><ele>114.0</ele><time>2026-04-04T12:34:26.013Z</time></trkpt><trkpt lat="45.4638826" lon="9.2927289"><ele>114.6</ele><time>2026-04-04T12:34:28.013Z</time></trkpt><trkpt lat="45.4639665" lon="9.292631"><ele>115.2</ele><time>2026-04-04T12:34:30.013Z</time></trkpt><trkpt lat="45.4640569" lon="9.2925468"><ele>115.79999999999998</ele><time>2026-04-04T12:34:32.013Z</time></trkpt><trkpt lat="45.4641595" lon="9.2924781"><ele>116.39999999999999</ele><time>2026-04-04T12:34:34.013Z</time></trkpt><trkpt lat="45.4642568" lon="9.2924139"><ele>117.0</ele><time>2026-04-04T12:34:36.013Z</time></trkpt><trkpt lat="45.4643487" lon="9.2923468"><ele>117.0</ele><time>2026-04-04T12:34:38.013Z</time></trkpt><trkpt lat="45.4644487" lon="9.2922695"><ele>116.99999999999999</ele><time>2026-04-04T12:34:40.013Z</time></trkpt><trkpt lat="45.4645574" lon="9.2922295"><ele>116.99999999999999</ele><time>2026-04-04T12:34:42.013Z</time></trkpt><trkpt lat="45.4646682" lon="9.292217"><ele>117.0</ele><time>2026-04-04T12:34:44.013Z</time></trkpt><trkpt lat="45.4647739" lon="9.2922125"><ele>117.0</ele><time>2026-04-04T12:34:46.013Z</time></trkpt><trkpt lat="45.4648822" lon="9.2922258"><ele>117.0</ele><time>2026-04-04T12:34:48.013Z</time></trkpt><trkpt lat="45.464989" lon="9.2922348"><ele>116.99999999999999</ele><time>2026-04-04T12:34:50.013Z</time></trkpt><trkpt lat="45.4650929" lon="9.2922533"><ele>116.99999999999999</ele><time>2026-04-04T12:34:52.013Z</time></trkpt><trkpt lat="45.4652025" lon="9.2922654"><ele>117.0</ele><time>2026-04-04T12:34:54.013Z</time></trkpt><trkpt lat="45.4653146" lon="9.2922784"><ele>117.0</ele><time>2026-04-04T12:34:56.013Z</time></trkpt><trkpt lat="45.4654233" lon="9.2923091"><ele>117.5</ele><time>2026-04-04T12:34:58.013Z</time></trkpt><trkpt lat="45.4655317" lon="9.2923427"><ele>118.0</ele><time>2026-04-04T12:35:00.013Z</time></trkpt><trkpt lat="45.4656443" lon="9.2923778"><ele>118.5</ele><time>2026-04-04T12:35:02.013Z</time></trkpt><trkpt lat="45.4657524" lon="9.2924182"><ele>119.0</ele><time>2026-04-04T12:35:04.013Z</time></trkpt><trkpt lat="45.46586" lon="9.2924634"><ele>119.0</ele><time>2026-04-04T12:35:06.013Z</time></trkpt><trkpt lat="45.4659705" lon="9.2924986"><ele>119.0</ele><time>2026-04-04T12:35:08.013Z</time></trkpt><trkpt lat="45.4660712" lon="9.2925337"><ele>119.0</ele><time>2026-04-04T12:35:10.013Z</time></trkpt><trkpt lat="45.4661769" lon="9.2925714"><ele>119.0</ele><time>2026-04-04T12:35:12.013Z</time></trkpt><trkpt lat="45.466289" lon="9.2926161"><ele>119.0</ele><time>2026-04-04T12:35:14.013Z</time></trkpt><trkpt lat="45.4663987" lon="9.2926586"><ele>119.2</ele><time>2026-04-04T12:35:16.013Z</time></trkpt><trkpt lat="45.4665101" lon="9.2927079"><ele>119.4</ele><time>2026-04-04T12:35:18.013Z</time></trkpt><trkpt lat="45.4666122" lon="9.2927401"><ele>119.6</ele><time>2026-04-04T12:35:20.013Z</time></trkpt><trkpt lat="45.4667231" lon="9.2927669"><ele>119.8</ele><time>2026-04-04T12:35:22.013Z</time></trkpt><trkpt lat="45.4668334" lon="9.2928082"><ele>120.0</ele><time>2026-04-04T12:35:24.013Z</time></trkpt><trkpt lat="45.4669437" lon="9.2928521"><ele>120.0</ele><time>2026-04-04T12:35:26.013Z</time></trkpt><trkpt lat="45.4670557" lon="9.2929049"><ele>120.0</ele><time>2026-04-04T12:35:28.013Z</time></trkpt><trkpt lat="45.4671571" lon="9.2929823"><ele>120.0</ele><time>2026-04-04T12:35:30.013Z</time></trkpt><trkpt lat="45.4672408" lon="9.2930923"><ele>120.0</ele><time>2026-04-04T12:35:32.013Z</time></trkpt><trkpt lat="45.4673201" lon="9.2932008"><ele>118.75</ele><time>2026-04-04T12:35:34.013Z</time></trkpt><trkpt lat="45.4674041" lon="9.2933151"><ele>117.5</ele><time>2026-04-04T12:35:36.013Z</time></trkpt><trkpt lat="45.467494" lon="9.2934231"><ele>116.25</ele><time>2026-04-04T12:35:38.013Z</time></trkpt><trkpt lat="45.4675847" lon="9.2935239"><ele>115.0</ele><time>2026-04-04T12:35:40.013Z</time></trkpt><trkpt lat="45.4676826" lon="9.2936"><ele>115.0</ele><time>2026-04-04T12:35:42.013Z</time></trkpt><trkpt lat="45.467782" lon="9.293668"><ele>115.0</ele><time>2026-04-04T12:35:44.013Z</time></trkpt><trkpt lat="45.46789" lon="9.2937219"><ele>115.0</ele><time>2026-04-04T12:35:46.013Z</time></trkpt><trkpt lat="45.4679963" lon="9.293754"><ele>115.0</ele><time>2026-04-04T12:35:48.013Z</time></trkpt><trkpt lat="45.4681021" lon="9.2937347"><ele>115.0</ele><time>2026-04-04T12:35:50.013Z</time></trkpt><trkpt lat="45.4681839" lon="9.2936616"><ele>114.8</ele><time>2026-04-04T12:35:52.013Z</time></trkpt><trkpt lat="45.4682084" lon="9.2935347"><ele>114.6</ele><time>2026-04-04T12:35:54.014Z</time></trkpt><trkpt lat="45.4682139" lon="9.2934055"><ele>114.4</ele><time>2026-04-04T12:35:56.013Z</time></trkpt><trkpt lat="45.4682183" lon="9.2932841"><ele>114.2</ele><time>2026-04-04T12:35:58.013Z</time></trkpt><trkpt lat="45.4682271" lon="9.2931616"><ele>114.0</ele><time>2026-04-04T12:36:00.013Z</time></trkpt><trkpt lat="45.4682336" lon="9.2930226"><ele>113.6</ele><time>2026-04-04T12:36:02.013Z</time></trkpt><trkpt lat="45.4682476" lon="9.2928767"><ele>113.2</ele><time>2026-04-04T12:36:04.013Z</time></trkpt><trkpt lat="45.468261" lon="9.292728"><ele>112.79999999999998</ele><time>2026-04-04T12:36:06.013Z</time></trkpt><trkpt lat="45.4682754" lon="9.2925759"><ele>112.39999999999999</ele><time>2026-04-04T12:36:08.013Z</time></trkpt><trkpt lat="45.4682878" lon="9.292422"><ele>112.0</ele><time>2026-04-04T12:36:10.013Z</time></trkpt><trkpt lat="45.4683047" lon="9.2922647"><ele>111.39999999999999</ele><time>2026-04-04T12:36:12.013Z</time></trkpt><trkpt lat="45.4683186" lon="9.2921112"><ele>110.79999999999998</ele><time>2026-04-04T12:36:14.013Z</time></trkpt><trkpt lat="45.4683335" lon="9.2919645"><ele>110.2</ele><time>2026-04-04T12:36:16.013Z</time></trkpt><trkpt lat="45.4683514" lon="9.2918257"><ele>109.6</ele><time>2026-04-04T12:36:18.014Z</time></trkpt><trkpt lat="45.4683625" lon="9.2916975"><ele>109.0</ele><time>2026-04-04T12:36:20.013Z</time></trkpt><trkpt lat="45.4683978" lon="9.2915808"><ele>109.0</ele><time>2026-04-04T12:36:22.013Z</time></trkpt><trkpt lat="45.4684926" lon="9.291558"><ele>109.0</ele><time>2026-04-04T12:36:24.013Z</time></trkpt><trkpt lat="45.4685942" lon="9.2916007"><ele>109.0</ele><time>2026-04-04T12:36:26.013Z</time></trkpt><trkpt lat="45.4686954" lon="9.2916425"><ele>109.0</ele><time>2026-04-04T12:36:28.013Z</time></trkpt><trkpt lat="45.4687973" lon="9.2916861"><ele>109.0</ele><time>2026-04-04T12:36:30.013Z</time></trkpt><trkpt lat="45.4688948" lon="9.2917266"><ele>108.80000000000001</ele><time>2026-04-04T12:36:32.013Z</time></trkpt><trkpt lat="45.468991" lon="9.2917696"><ele>108.60000000000001</ele><time>2026-04-04T12:36:34.013Z</time></trkpt><trkpt lat="45.4690821" lon="9.2918011"><ele>108.4</ele><time>2026-04-04T12:36:36.013Z</time></trkpt><trkpt lat="45.469152" lon="9.2918314"><ele>108.2</ele><time>2026-04-04T12:36:38.013Z</time></trkpt><trkpt lat="45.4692405" lon="9.2918671"><ele>108.0</ele><time>2026-04-04T12:36:40.013Z</time></trkpt><trkpt lat="45.4693442" lon="9.2919104"><ele>108.0</ele><time>2026-04-04T12:36:42.013Z</time></trkpt><trkpt lat="45.4694521" lon="9.2919522"><ele>108.00000000000001</ele><time>2026-04-04T12:36:44.013Z</time></trkpt><trkpt lat="45.4695582" lon="9.2919899"><ele>108.00000000000001</ele><time>2026-04-04T12:36:46.013Z</time></trkpt><trkpt lat="45.4696436" lon="9.2920299"><ele>108.0</ele><time>2026-04-04T12:36:48.013Z</time></trkpt><trkpt lat="45.4697465" lon="9.2920453"><ele>108.0</ele><time>2026-04-04T12:36:50.013Z</time></trkpt><trkpt lat="45.4698529" lon="9.292053"><ele>108.0</ele><time>2026-04-04T12:36:52.013Z</time></trkpt><trkpt lat="45.4699709" lon="9.2921015"><ele>108.00000000000001</ele><time>2026-04-04T12:36:54.013Z</time></trkpt><trkpt lat="45.4700317" lon="9.2921354"><ele>108.00000000000001</ele><time>2026-04-04T12:36:55.013Z</time></trkpt><trkpt lat="45.4701434" lon="9.2922132"><ele>108.0</ele><time>2026-04-04T12:36:57.013Z</time></trkpt><trkpt lat="45.4702035" lon="9.2922551"><ele>108.0</ele><time>2026-04-04T12:36:58.013Z</time></trkpt><trkpt lat="45.4703002" lon="9.2923186"><ele>108.2</ele><time>2026-04-04T12:37:00.013Z</time></trkpt><trkpt lat="45.4703957" lon="9.2923596"><ele>108.4</ele><time>2026-04-04T12:37:02.013Z</time></trkpt><trkpt lat="45.4704966" lon="9.2924182"><ele>108.60000000000001</ele><time>2026-04-04T12:37:04.013Z</time></trkpt><trkpt lat="45.4706032" lon="9.2924697"><ele>108.80000000000001</ele><time>2026-04-04T12:37:06.013Z</time></trkpt><trkpt lat="45.4707126" lon="9.2925047"><ele>109.0</ele><time>2026-04-04T12:37:08.013Z</time></trkpt><trkpt lat="45.4708268" lon="9.2925354"><ele>109.0</ele><time>2026-04-04T12:37:10.013Z</time></trkpt><trkpt lat="45.4709467" lon="9.2925627"><ele>109.0</ele><time>2026-04-04T12:37:12.013Z</time></trkpt><trkpt lat="45.4710653" lon="9.2925825"><ele>109.0</ele><time>2026-04-04T12:37:14.013Z</time></trkpt><trkpt lat="45.4711862" lon="9.2925935"><ele>109.0</ele><time>2026-04-04T12:37:16.013Z</time></trkpt><trkpt lat="45.4712996" lon="9.2925998"><ele>109.0</ele><time>2026-04-04T12:37:18.013Z</time></trkpt><trkpt lat="45.4714101" lon="9.2926651"><ele>109.0</ele><time>2026-04-04T12:37:20.013Z</time></trkpt><trkpt lat="45.4715196" lon="9.2927415"><ele>109.0</ele><time>2026-04-04T12:37:22.013Z</time></trkpt><trkpt lat="45.4716314" lon="9.2928042"><ele>109.0</ele><time>2026-04-04T12:37:24.013Z</time></trkpt><trkpt lat="45.4717395" lon="9.2928334"><ele>109.0</ele><time>2026-04-04T12:37:26.013Z</time></trkpt><trkpt lat="45.4718436" lon="9.2928553"><ele>109.0</ele><time>2026-04-04T12:37:28.013Z</time></trkpt><trkpt lat="45.4719491" lon="9.2928766"><ele>109.0</ele><time>2026-04-04T12:37:30.013Z</time></trkpt><trkpt lat="45.4720459" lon="9.2929577"><ele>109.0</ele><time>2026-04-04T12:37:32.013Z</time></trkpt><trkpt lat="45.4721041" lon="9.2930779"><ele>109.0</ele><time>2026-04-04T12:37:34.013Z</time></trkpt><trkpt lat="45.4721207" lon="9.2932172"><ele>109.0</ele><time>2026-04-04T12:37:36.013Z</time></trkpt><trkpt lat="45.4721252" lon="9.2933563"><ele>109.0</ele><time>2026-04-04T12:37:38.013Z</time></trkpt><trkpt lat="45.4720726" lon="9.2934721"><ele>109.0</ele><time>2026-04-04T12:37:40.013Z</time></trkpt><trkpt lat="45.4720047" lon="9.2935685"><ele>109.0</ele><time>2026-04-04T12:37:42.013Z</time></trkpt><trkpt lat="45.4719703" lon="9.2936979"><ele>109.0</ele><time>2026-04-04T12:37:44.013Z</time></trkpt><trkpt lat="45.4720333" lon="9.2937906"><ele>109.2</ele><time>2026-04-04T12:37:46.013Z</time></trkpt><trkpt lat="45.4721295" lon="9.2938094"><ele>109.4</ele><time>2026-04-04T12:37:48.014Z</time></trkpt><trkpt lat="45.472232" lon="9.2938206"><ele>109.6</ele><time>2026-04-04T12:37:50.013Z</time></trkpt><trkpt lat="45.4723345" lon="9.293848"><ele>109.8</ele><time>2026-04-04T12:37:52.013Z</time></trkpt><trkpt lat="45.4724397" lon="9.2938734"><ele>110.0</ele><time>2026-04-04T12:37:54.013Z</time></trkpt><trkpt lat="45.4725454" lon="9.2938877"><ele>110.0</ele><time>2026-04-04T12:37:56.013Z</time></trkpt><trkpt lat="45.4726503" lon="9.293909"><ele>110.0</ele><time>2026-04-04T12:37:58.013Z</time></trkpt><trkpt lat="45.472762" lon="9.2939301"><ele>110.0</ele><time>2026-04-04T12:38:00.013Z</time></trkpt><trkpt lat="45.4728664" lon="9.2939541"><ele>110.0</ele><time>2026-04-04T12:38:02.013Z</time></trkpt><trkpt lat="45.47297" lon="9.2939677"><ele>110.0</ele><time>2026-04-04T12:38:04.013Z</time></trkpt><trkpt lat="45.4730697" lon="9.2939883"><ele>110.6</ele><time>2026-04-04T12:38:06.013Z</time></trkpt><trkpt lat="45.4731799" lon="9.2940113"><ele>111.2</ele><time>2026-04-04T12:38:08.013Z</time></trkpt><trkpt lat="45.4732794" lon="9.2940367"><ele>111.80000000000001</ele><time>2026-04-04T12:38:10.013Z</time></trkpt><trkpt lat="45.4733939" lon="9.2940471"><ele>112.4</ele><time>2026-04-04T12:38:12.013Z</time></trkpt><trkpt lat="45.4734977" lon="9.2940638"><ele>113.0</ele><time>2026-04-04T12:38:14.013Z</time></trkpt><trkpt lat="45.4736028" lon="9.2940817"><ele>113.0</ele><time>2026-04-04T12:38:16.013Z</time></trkpt><trkpt lat="45.4736962" lon="9.2941046"><ele>113.00000000000001</ele><time>2026-04-04T12:38:18.013Z</time></trkpt><trkpt lat="45.4737979" lon="9.2941198"><ele>113.00000000000001</ele><time>2026-04-04T12:38:20.014Z</time></trkpt><trkpt lat="45.4738883" lon="9.2941369"><ele>113.0</ele><time>2026-04-04T12:38:22.013Z</time></trkpt><trkpt lat="45.4739671" lon="9.2941504"><ele>113.0</ele><time>2026-04-04T12:38:24.013Z</time></trkpt><trkpt lat="45.4740525" lon="9.2941601"><ele>113.16666666666666</ele><time>2026-04-04T12:38:27.013Z</time></trkpt><trkpt lat="45.4741331" lon="9.2941812"><ele>113.33333333333333</ele><time>2026-04-04T12:38:30.013Z</time></trkpt><trkpt lat="45.4741943" lon="9.2942507"><ele>113.5</ele><time>2026-04-04T12:38:32.013Z</time></trkpt><trkpt lat="45.474229" lon="9.2943642"><ele>113.66666666666666</ele><time>2026-04-04T12:38:34.013Z</time></trkpt><trkpt lat="45.4742444" lon="9.2945039"><ele>113.83333333333333</ele><time>2026-04-04T12:38:36.013Z</time></trkpt><trkpt lat="45.4742323" lon="9.2946405"><ele>114.0</ele><time>2026-04-04T12:38:38.013Z</time></trkpt><trkpt lat="45.4742192" lon="9.294786"><ele>114.0</ele><time>2026-04-04T12:38:40.013Z</time></trkpt><trkpt lat="45.4741971" lon="9.294923"><ele>114.0</ele><time>2026-04-04T12:38:42.013Z</time></trkpt><trkpt lat="45.4741871" lon="9.2950444"><ele>114.0</ele><time>2026-04-04T12:38:44.013Z</time></trkpt><trkpt lat="45.4741979" lon="9.2951372"><ele>114.0</ele><time>2026-04-04T12:38:46.013Z</time></trkpt><trkpt lat="45.4742745" lon="9.2951433"><ele>114.0</ele><time>2026-04-04T12:38:48.013Z</time></trkpt><trkpt lat="45.4743448" lon="9.2951191"><ele>114.0</ele><time>2026-04-04T12:38:50.013Z</time></trkpt><trkpt lat="45.4744395" lon="9.2950725"><ele>114.0</ele><time>2026-04-04T12:38:52.013Z</time></trkpt><trkpt lat="45.4745435" lon="9.2950658"><ele>114.0</ele><time>2026-04-04T12:38:54.013Z</time></trkpt><trkpt lat="45.4746536" lon="9.2950868"><ele>114.0</ele><time>2026-04-04T12:38:56.013Z</time></trkpt><trkpt lat="45.4747615" lon="9.2951089"><ele>114.0</ele><time>2026-04-04T12:38:58.013Z</time></trkpt><trkpt lat="45.4748662" lon="9.2951294"><ele>114.0</ele><time>2026-04-04T12:39:00.013Z</time></trkpt><trkpt lat="45.4749742" lon="9.2951466"><ele>114.80000000000001</ele><time>2026-04-04T12:39:02.013Z</time></trkpt><trkpt lat="45.4750792" lon="9.2951629"><ele>115.60000000000001</ele><time>2026-04-04T12:39:04.013Z</time></trkpt><trkpt lat="45.4751888" lon="9.2951862"><ele>116.4</ele><time>2026-04-04T12:39:06.013Z</time></trkpt><trkpt lat="45.4752994" lon="9.2952115"><ele>117.2</ele><time>2026-04-04T12:39:08.013Z</time></trkpt><trkpt lat="45.4754102" lon="9.2952287"><ele>118.0</ele><time>2026-04-04T12:39:10.013Z</time></trkpt><trkpt lat="45.4755186" lon="9.2952497"><ele>118.2</ele><time>2026-04-04T12:39:12.013Z</time></trkpt><trkpt lat="45.4756289" lon="9.2952628"><ele>118.4</ele><time>2026-04-04T12:39:14.013Z</time></trkpt><trkpt lat="45.4757392" lon="9.2952798"><ele>118.60000000000001</ele><time>2026-04-04T12:39:16.013Z</time></trkpt><trkpt lat="45.4758502" lon="9.2952983"><ele>118.80000000000001</ele><time>2026-04-04T12:39:18.013Z</time></trkpt><trkpt lat="45.4759625" lon="9.29532"><ele>119.0</ele><time>2026-04-04T12:39:20.013Z</time></trkpt><trkpt lat="45.4760637" lon="9.2953055"><ele>118.99999999999999</ele><time>2026-04-04T12:39:22.013Z</time></trkpt><trkpt lat="45.47615" lon="9.2952436"><ele>119.0</ele><time>2026-04-04T12:39:24.013Z</time></trkpt><trkpt lat="45.4762366" lon="9.295171"><ele>119.0</ele><time>2026-04-04T12:39:26.013Z</time></trkpt><trkpt lat="45.4762998" lon="9.2951904"><ele>119.0</ele><time>2026-04-04T12:39:29.013Z</time></trkpt><trkpt lat="45.4762429" lon="9.2952852"><ele>118.99999999999999</ele><time>2026-04-04T12:39:32.013Z</time></trkpt><trkpt lat="45.4761759" lon="9.2953614"><ele>119.0</ele><time>2026-04-04T12:39:35.013Z</time></trkpt><trkpt lat="45.4761103" lon="9.295405"><ele>119.0</ele><time>2026-04-04T12:39:38.013Z</time></trkpt><trkpt lat="45.4760407" lon="9.2954514"><ele>119.0</ele><time>2026-04-04T12:39:41.013Z</time></trkpt><trkpt lat="45.4759699" lon="9.2954817"><ele>119.0</ele><time>2026-04-04T12:39:44.013Z</time></trkpt><trkpt lat="45.4759091" lon="9.2955127"><ele>119.0</ele><time>2026-04-04T12:39:47.013Z</time></trkpt><trkpt lat="45.475843" lon="9.2955328"><ele>119.0</ele><time>2026-04-04T12:39:50.013Z</time></trkpt><trkpt lat="45.4757746" lon="9.2955649"><ele>119.0</ele><time>2026-04-04T12:39:53.013Z</time></trkpt><trkpt lat="45.4757306" lon="9.2956351"><ele>119.0</ele><time>2026-04-04T12:39:57.013Z</time></trkpt><trkpt lat="45.4757554" lon="9.2957293"><ele>118.49999999999999</ele><time>2026-04-04T12:40:00.013Z</time></trkpt><trkpt lat="45.4757686" lon="9.2958421"><ele>118.0</ele><time>2026-04-04T12:40:03.013Z</time></trkpt><trkpt lat="45.475834" lon="9.2958607"><ele>117.5</ele><time>2026-04-04T12:40:06.013Z</time></trkpt><trkpt lat="45.4758979" lon="9.2958263"><ele>117.0</ele><time>2026-04-04T12:40:08.013Z</time></trkpt><trkpt lat="45.475988" lon="9.2957795"><ele>116.49999999999999</ele><time>2026-04-04T12:40:10.014Z</time></trkpt><trkpt lat="45.4761" lon="9.2957279"><ele>116.0</ele><time>2026-04-04T12:40:12.013Z</time></trkpt><trkpt lat="45.4762129" lon="9.2956761"><ele>116.16666666666666</ele><time>2026-04-04T12:40:14.013Z</time></trkpt><trkpt lat="45.4763375" lon="9.2956931"><ele>116.33333333333333</ele><time>2026-04-04T12:40:16.013Z</time></trkpt><trkpt lat="45.4764026" lon="9.2957217"><ele>116.5</ele><time>2026-04-04T12:40:17.013Z</time></trkpt><trkpt lat="45.4764599" lon="9.295778"><ele>116.66666666666666</ele><time>2026-04-04T12:40:18.013Z</time></trkpt><trkpt lat="45.476507" lon="9.2958449"><ele>116.83333333333333</ele><time>2026-04-04T12:40:19.013Z</time></trkpt><trkpt lat="45.4765469" lon="9.2959222"><ele>117.0</ele><time>2026-04-04T12:40:20.013Z</time></trkpt><trkpt lat="45.4765752" lon="9.2960034"><ele>117.0</ele><time>2026-04-04T12:40:21.013Z</time></trkpt><trkpt lat="45.4765933" lon="9.2960921"><ele>116.99999999999999</ele><time>2026-04-04T12:40:22.014Z</time></trkpt><trkpt lat="45.4766232" lon="9.2962614"><ele>116.99999999999999</ele><time>2026-04-04T12:40:24.013Z</time></trkpt><trkpt lat="45.4766398" lon="9.2964271"><ele>117.0</ele><time>2026-04-04T12:40:26.013Z</time></trkpt><trkpt lat="45.4766529" lon="9.2965875"><ele>117.0</ele><time>2026-04-04T12:40:28.013Z</time></trkpt><trkpt lat="45.4766639" lon="9.2967483"><ele>117.0</ele><time>2026-04-04T12:40:30.013Z</time></trkpt><trkpt lat="45.4766878" lon="9.2969118"><ele>117.0</ele><time>2026-04-04T12:40:32.013Z</time></trkpt><trkpt lat="45.4767136" lon="9.2970783"><ele>117.0</ele><time>2026-04-04T12:40:34.014Z</time></trkpt><trkpt lat="45.476728" lon="9.2972504"><ele>117.0</ele><time>2026-04-04T12:40:36.013Z</time></trkpt><trkpt lat="45.4767494" lon="9.2974234"><ele>116.5</ele><time>2026-04-04T12:40:38.013Z</time></trkpt><trkpt lat="45.4767674" lon="9.2976019"><ele>116.0</ele><time>2026-04-04T12:40:40.013Z</time></trkpt><trkpt lat="45.4767792" lon="9.2976919"><ele>115.5</ele><time>2026-04-04T12:40:41.013Z</time></trkpt><trkpt lat="45.4767906" lon="9.2977815"><ele>115.0</ele><time>2026-04-04T12:40:42.013Z</time></trkpt><trkpt lat="45.4768044" lon="9.2978708"><ele>114.5</ele><time>2026-04-04T12:40:43.013Z</time></trkpt><trkpt lat="45.4768345" lon="9.2980455"><ele>114.0</ele><time>2026-04-04T12:40:45.013Z</time></trkpt><trkpt lat="45.4768536" lon="9.2981314"><ele>113.75</ele><time>2026-04-04T12:40:46.013Z</time></trkpt><trkpt lat="45.4768812" lon="9.2983034"><ele>113.5</ele><time>2026-04-04T12:40:48.013Z</time></trkpt><trkpt lat="45.4768878" lon="9.2984778"><ele>113.25</ele><time>2026-04-04T12:40:50.013Z</time></trkpt><trkpt lat="45.4768518" lon="9.2986409"><ele>113.0</ele><time>2026-04-04T12:40:52.013Z</time></trkpt><trkpt lat="45.47684" lon="9.2988029"><ele>113.33333333333333</ele><time>2026-04-04T12:40:54.013Z</time></trkpt><trkpt lat="45.4768562" lon="9.2989564"><ele>113.66666666666666</ele><time>2026-04-04T12:40:56.013Z</time></trkpt><trkpt lat="45.4768723" lon="9.2990937"><ele>114.0</ele><time>2026-04-04T12:40:58.013Z</time></trkpt><trkpt lat="45.4768814" lon="9.2992089"><ele>114.33333333333334</ele><time>2026-04-04T12:41:00.013Z</time></trkpt><trkpt lat="45.476895" lon="9.2993249"><ele>114.66666666666667</ele><time>2026-04-04T12:41:02.013Z</time></trkpt><trkpt lat="45.4769054" lon="9.299423"><ele>115.0</ele><time>2026-04-04T12:41:04.013Z</time></trkpt><trkpt lat="45.4769155" lon="9.2995465"><ele>115.00000000000001</ele><time>2026-04-04T12:41:07.013Z</time></trkpt><trkpt lat="45.476929" lon="9.2996605"><ele>115.0</ele><time>2026-04-04T12:41:10.013Z</time></trkpt><trkpt lat="45.4769402" lon="9.2997688"><ele>115.0</ele><time>2026-04-04T12:41:13.013Z</time></trkpt><trkpt lat="45.4769544" lon="9.2998868"><ele>115.0</ele><time>2026-04-04T12:41:16.013Z</time></trkpt><trkpt lat="45.476964" lon="9.3000033"><ele>115.00000000000001</ele><time>2026-04-04T12:41:19.013Z</time></trkpt><trkpt lat="45.4769732" lon="9.3001144"><ele>115.0</ele><time>2026-04-04T12:41:21.013Z</time></trkpt><trkpt lat="45.4769946" lon="9.3002633"><ele>114.83333333333334</ele><time>2026-04-04T12:41:23.013Z</time></trkpt><trkpt lat="45.4770069" lon="9.3003529"><ele>114.66666666666667</ele><time>2026-04-04T12:41:24.014Z</time></trkpt><trkpt lat="45.4770171" lon="9.3004546"><ele>114.5</ele><time>2026-04-04T12:41:25.013Z</time></trkpt><trkpt lat="45.4770386" lon="9.3005601"><ele>114.33333333333334</ele><time>2026-04-04T12:41:26.013Z</time></trkpt><trkpt lat="45.4770616" lon="9.3006712"><ele>114.16666666666667</ele><time>2026-04-04T12:41:27.013Z</time></trkpt><trkpt lat="45.4770886" lon="9.3007893"><ele>114.0</ele><time>2026-04-04T12:41:28.013Z</time></trkpt><trkpt lat="45.4771161" lon="9.3009064"><ele>114.0</ele><time>2026-04-04T12:41:29.013Z</time></trkpt><trkpt lat="45.4771405" lon="9.3010236"><ele>114.0</ele><time>2026-04-04T12:41:30.013Z</time></trkpt><trkpt lat="45.4771608" lon="9.3011323"><ele>114.0</ele><time>2026-04-04T12:41:31.013Z</time></trkpt><trkpt lat="45.4771734" lon="9.3012356"><ele>114.0</ele><time>2026-04-04T12:41:32.013Z</time></trkpt><trkpt lat="45.4771772" lon="9.3013326"><ele>114.0</ele><time>2026-04-04T12:41:33.013Z</time></trkpt><trkpt lat="45.4771799" lon="9.3014267"><ele>114.0</ele><time>2026-04-04T12:41:34.013Z</time></trkpt><trkpt lat="45.4771844" lon="9.3015943"><ele>113.80000000000001</ele><time>2026-04-04T12:41:36.013Z</time></trkpt><trkpt lat="45.4771835" lon="9.301751"><ele>113.60000000000001</ele><time>2026-04-04T12:41:38.013Z</time></trkpt><trkpt lat="45.4771854" lon="9.3019078"><ele>113.4</ele><time>2026-04-04T12:41:40.014Z</time></trkpt><trkpt lat="45.4771872" lon="9.3020671"><ele>113.2</ele><time>2026-04-04T12:41:42.013Z</time></trkpt><trkpt lat="45.4771843" lon="9.3022296"><ele>113.0</ele><time>2026-04-04T12:41:44.013Z</time></trkpt><trkpt lat="45.4771814" lon="9.3023966"><ele>112.75</ele><time>2026-04-04T12:41:46.013Z</time></trkpt><trkpt lat="45.4771824" lon="9.3025717"><ele>112.5</ele><time>2026-04-04T12:41:48.014Z</time></trkpt><trkpt lat="45.4771938" lon="9.3027427"><ele>112.25</ele><time>2026-04-04T12:41:50.013Z</time></trkpt><trkpt lat="45.4771997" lon="9.3029101"><ele>112.0</ele><time>2026-04-04T12:41:52.013Z</time></trkpt><trkpt lat="45.4772122" lon="9.3030787"><ele>112.0</ele><time>2026-04-04T12:41:54.013Z</time></trkpt><trkpt lat="45.4772223" lon="9.3032403"><ele>111.99999999999999</ele><time>2026-04-04T12:41:56.013Z</time></trkpt><trkpt lat="45.4772189" lon="9.3034035"><ele>111.99999999999999</ele><time>2026-04-04T12:41:58.013Z</time></trkpt><trkpt lat="45.4771741" lon="9.3035309"><ele>112.0</ele><time>2026-04-04T12:42:00.013Z</time></trkpt><trkpt lat="45.4770775" lon="9.3035505"><ele>112.0</ele><time>2026-04-04T12:42:02.013Z</time></trkpt><trkpt lat="45.4769991" lon="9.3036489"><ele>112.0</ele><time>2026-04-04T12:42:04.013Z</time></trkpt><trkpt lat="45.4769253" lon="9.3037511"><ele>111.99999999999999</ele><time>2026-04-04T12:42:06.013Z</time></trkpt><trkpt lat="45.476819" lon="9.3037774"><ele>111.99999999999999</ele><time>2026-04-04T12:42:08.013Z</time></trkpt><trkpt lat="45.4767071" lon="9.3037821"><ele>112.0</ele><time>2026-04-04T12:42:10.013Z</time></trkpt><trkpt lat="45.4765896" lon="9.3037836"><ele>112.0</ele><time>2026-04-04T12:42:12.013Z</time></trkpt><trkpt lat="45.4764732" lon="9.3037856"><ele>112.0</ele><time>2026-04-04T12:42:14.013Z</time></trkpt><trkpt lat="45.4763538" lon="9.3037897"><ele>111.99999999999999</ele><time>2026-04-04T12:42:16.013Z</time></trkpt><trkpt lat="45.4762301" lon="9.3037936"><ele>111.99999999999999</ele><time>2026-04-04T12:42:18.013Z</time></trkpt><trkpt lat="45.4761069" lon="9.3037955"><ele>112.0</ele><time>2026-04-04T12:42:20.013Z</time></trkpt><trkpt lat="45.4760433" lon="9.3037986"><ele>112.0</ele><time>2026-04-04T12:42:21.013Z</time></trkpt><trkpt lat="45.47598" lon="9.3038003"><ele>111.83333333333334</ele><time>2026-04-04T12:42:22.013Z</time></trkpt><trkpt lat="45.4758512" lon="9.3038041"><ele>111.66666666666667</ele><time>2026-04-04T12:42:24.013Z</time></trkpt><trkpt lat="45.4757876" lon="9.3038066"><ele>111.5</ele><time>2026-04-04T12:42:25.013Z</time></trkpt><trkpt lat="45.475722" lon="9.3038078"><ele>111.33333333333334</ele><time>2026-04-04T12:42:26.013Z</time></trkpt><trkpt lat="45.475659" lon="9.3038103"><ele>111.16666666666667</ele><time>2026-04-04T12:42:27.013Z</time></trkpt><trkpt lat="45.4755951" lon="9.3038127"><ele>111.0</ele><time>2026-04-04T12:42:28.013Z</time></trkpt><trkpt lat="45.4754759" lon="9.3038104"><ele>111.5</ele><time>2026-04-04T12:42:30.013Z</time></trkpt><trkpt lat="45.4753553" lon="9.3037989"><ele>112.0</ele><time>2026-04-04T12:42:32.013Z</time></trkpt><trkpt lat="45.4752361" lon="9.3037691"><ele>112.5</ele><time>2026-04-04T12:42:34.013Z</time></trkpt><trkpt lat="45.4751111" lon="9.3037706"><ele>113.0</ele><time>2026-04-04T12:42:36.013Z</time></trkpt><trkpt lat="45.4749934" lon="9.303748"><ele>113.0</ele><time>2026-04-04T12:42:38.013Z</time></trkpt><trkpt lat="45.4748776" lon="9.3037314"><ele>113.00000000000001</ele><time>2026-04-04T12:42:40.013Z</time></trkpt><trkpt lat="45.4747734" lon="9.3037779"><ele>113.00000000000001</ele><time>2026-04-04T12:42:42.013Z</time></trkpt><trkpt lat="45.4746778" lon="9.3037202"><ele>113.0</ele><time>2026-04-04T12:42:44.013Z</time></trkpt><trkpt lat="45.4745783" lon="9.3036721"><ele>113.0</ele><time>2026-04-04T12:42:46.013Z</time></trkpt><trkpt lat="45.4744675" lon="9.3037003"><ele>113.25</ele><time>2026-04-04T12:42:48.013Z</time></trkpt><trkpt lat="45.474358" lon="9.3037538"><ele>113.5</ele><time>2026-04-04T12:42:50.013Z</time></trkpt><trkpt lat="45.4742492" lon="9.3038151"><ele>113.75</ele><time>2026-04-04T12:42:52.013Z</time></trkpt><trkpt lat="45.4741405" lon="9.3038576"><ele>114.0</ele><time>2026-04-04T12:42:54.013Z</time></trkpt><trkpt lat="45.4740246" lon="9.3038654"><ele>114.0</ele><time>2026-04-04T12:42:56.013Z</time></trkpt><trkpt lat="45.4739129" lon="9.3038459"><ele>114.0</ele><time>2026-04-04T12:42:58.013Z</time></trkpt><trkpt lat="45.4737967" lon="9.303835"><ele>114.0</ele><time>2026-04-04T12:43:00.013Z</time></trkpt><trkpt lat="45.4736771" lon="9.3038312"><ele>114.0</ele><time>2026-04-04T12:43:02.013Z</time></trkpt><trkpt lat="45.4735549" lon="9.3038273"><ele>114.0</ele><time>2026-04-04T12:43:04.013Z</time></trkpt><trkpt lat="45.4734325" lon="9.303833"><ele>114.0</ele><time>2026-04-04T12:43:06.013Z</time></trkpt><trkpt lat="45.4733071" lon="9.3038389"><ele>114.0</ele><time>2026-04-04T12:43:08.013Z</time></trkpt><trkpt lat="45.473183" lon="9.303842"><ele>114.0</ele><time>2026-04-04T12:43:10.013Z</time></trkpt><trkpt lat="45.4730611" lon="9.3038417"><ele>113.5</ele><time>2026-04-04T12:43:12.013Z</time></trkpt><trkpt lat="45.4729386" lon="9.3038466"><ele>113.0</ele><time>2026-04-04T12:43:14.013Z</time></trkpt><trkpt lat="45.4728172" lon="9.3038455"><ele>112.5</ele><time>2026-04-04T12:43:16.013Z</time></trkpt><trkpt lat="45.4726952" lon="9.3038467"><ele>112.0</ele><time>2026-04-04T12:43:18.013Z</time></trkpt><trkpt lat="45.4725727" lon="9.3038496"><ele>112.0</ele><time>2026-04-04T12:43:20.013Z</time></trkpt><trkpt lat="45.4724478" lon="9.3038552"><ele>111.99999999999999</ele><time>2026-04-04T12:43:22.013Z</time></trkpt><trkpt lat="45.4723246" lon="9.3038516"><ele>111.99999999999999</ele><time>2026-04-04T12:43:24.013Z</time></trkpt><trkpt lat="45.4721984" lon="9.3038561"><ele>112.0</ele><time>2026-04-04T12:43:26.013Z</time></trkpt><trkpt lat="45.4721344" lon="9.3038583"><ele>112.0</ele><time>2026-04-04T12:43:27.013Z</time></trkpt><trkpt lat="45.4720121" lon="9.3038576"><ele>112.19999999999999</ele><time>2026-04-04T12:43:29.013Z</time></trkpt><trkpt lat="45.4718883" lon="9.3038554"><ele>112.39999999999999</ele><time>2026-04-04T12:43:31.013Z</time></trkpt><trkpt lat="45.4718252" lon="9.3038577"><ele>112.60000000000001</ele><time>2026-04-04T12:43:32.013Z</time></trkpt><trkpt lat="45.4716988" lon="9.3038539"><ele>112.80000000000001</ele><time>2026-04-04T12:43:34.013Z</time></trkpt><trkpt lat="45.4715764" lon="9.3038578"><ele>113.0</ele><time>2026-04-04T12:43:36.013Z</time></trkpt><trkpt lat="45.4714532" lon="9.3038638"><ele>113.0</ele><time>2026-04-04T12:43:38.013Z</time></trkpt><trkpt lat="45.4713289" lon="9.3038661"><ele>113.00000000000001</ele><time>2026-04-04T12:43:40.013Z</time></trkpt><trkpt lat="45.4712062" lon="9.3038699"><ele>113.00000000000001</ele><time>2026-04-04T12:43:42.013Z</time></trkpt><trkpt lat="45.4710825" lon="9.3038696"><ele>113.0</ele><time>2026-04-04T12:43:44.013Z</time></trkpt><trkpt lat="45.4710189" lon="9.3038634"><ele>113.0</ele><time>2026-04-04T12:43:45.013Z</time></trkpt><trkpt lat="45.4708968" lon="9.3038469"><ele>112.25</ele><time>2026-04-04T12:43:47.013Z</time></trkpt><trkpt lat="45.4707765" lon="9.3038189"><ele>111.5</ele><time>2026-04-04T12:43:49.013Z</time></trkpt><trkpt lat="45.4706585" lon="9.3037761"><ele>110.75</ele><time>2026-04-04T12:43:51.013Z</time></trkpt><trkpt lat="45.4705418" lon="9.3037203"><ele>110.0</ele><time>2026-04-04T12:43:53.013Z</time></trkpt><trkpt lat="45.4704247" lon="9.3036632"><ele>109.75</ele><time>2026-04-04T12:43:55.013Z</time></trkpt><trkpt lat="45.4703077" lon="9.3036197"><ele>109.5</ele><time>2026-04-04T12:43:57.013Z</time></trkpt><trkpt lat="45.4701921" lon="9.3035872"><ele>109.25</ele><time>2026-04-04T12:43:59.013Z</time></trkpt><trkpt lat="45.4700767" lon="9.3035546"><ele>109.0</ele><time>2026-04-04T12:44:01.013Z</time></trkpt><trkpt lat="45.4699633" lon="9.3035212"><ele>109.0</ele><time>2026-04-04T12:44:03.013Z</time></trkpt><trkpt lat="45.469849" lon="9.3034822"><ele>109.0</ele><time>2026-04-04T12:44:05.013Z</time></trkpt><trkpt lat="45.469758" lon="9.3033742"><ele>109.0</ele><time>2026-04-04T12:44:07.013Z</time></trkpt><trkpt lat="45.4697044" lon="9.3032284"><ele>109.0</ele><time>2026-04-04T12:44:09.013Z</time></trkpt><trkpt lat="45.4696288" lon="9.3031011"><ele>108.6</ele><time>2026-04-04T12:44:11.013Z</time></trkpt><trkpt lat="45.4695507" lon="9.302988"><ele>108.2</ele><time>2026-04-04T12:44:13.013Z</time></trkpt><trkpt lat="45.4694437" lon="9.3029722"><ele>107.79999999999998</ele><time>2026-04-04T12:44:15.013Z</time></trkpt><trkpt lat="45.4693507" lon="9.3030086"><ele>107.39999999999999</ele><time>2026-04-04T12:44:17.013Z</time></trkpt><trkpt lat="45.4692764" lon="9.3031415"><ele>107.0</ele><time>2026-04-04T12:44:19.013Z</time></trkpt><trkpt lat="45.4692022" lon="9.3032733"><ele>107.0</ele><time>2026-04-04T12:44:21.013Z</time></trkpt><trkpt lat="45.4691125" lon="9.303373"><ele>107.0</ele><time>2026-04-04T12:44:23.013Z</time></trkpt><trkpt lat="45.468999" lon="9.3034047"><ele>107.0</ele><time>2026-04-04T12:44:25.013Z</time></trkpt><trkpt lat="45.46888" lon="9.3033942"><ele>107.0</ele><time>2026-04-04T12:44:27.013Z</time></trkpt><trkpt lat="45.4687598" lon="9.3033705"><ele>107.39999999999999</ele><time>2026-04-04T12:44:29.013Z</time></trkpt><trkpt lat="45.4686369" lon="9.3033344"><ele>107.79999999999998</ele><time>2026-04-04T12:44:31.014Z</time></trkpt><trkpt lat="45.4685748" lon="9.3033118"><ele>108.2</ele><time>2026-04-04T12:44:32.013Z</time></trkpt><trkpt lat="45.4684529" lon="9.3032808"><ele>108.6</ele><time>2026-04-04T12:44:34.013Z</time></trkpt><trkpt lat="45.468329" lon="9.3032511"><ele>109.0</ele><time>2026-04-04T12:44:36.013Z</time></trkpt><trkpt lat="45.4682676" lon="9.3032297"><ele>109.0</ele><time>2026-04-04T12:44:37.013Z</time></trkpt><trkpt lat="45.4682052" lon="9.3032156"><ele>109.0</ele><time>2026-04-04T12:44:38.013Z</time></trkpt><trkpt lat="45.468084" lon="9.3031797"><ele>109.0</ele><time>2026-04-04T12:44:40.013Z</time></trkpt><trkpt lat="45.4679648" lon="9.3031354"><ele>109.0</ele><time>2026-04-04T12:44:42.013Z</time></trkpt><trkpt lat="45.4678479" lon="9.3030851"><ele>109.0</ele><time>2026-04-04T12:44:44.013Z</time></trkpt><trkpt lat="45.4677327" lon="9.3030293"><ele>109.2</ele><time>2026-04-04T12:44:46.013Z</time></trkpt><trkpt lat="45.4676726" lon="9.3030015"><ele>109.4</ele><time>2026-04-04T12:44:47.013Z</time></trkpt><trkpt lat="45.4675552" lon="9.3029434"><ele>109.6</ele><time>2026-04-04T12:44:49.013Z</time></trkpt><trkpt lat="45.4674431" lon="9.3028856"><ele>109.8</ele><time>2026-04-04T12:44:51.013Z</time></trkpt><trkpt lat="45.4673333" lon="9.3028264"><ele>110.0</ele><time>2026-04-04T12:44:53.013Z</time></trkpt><trkpt lat="45.4672236" lon="9.3027727"><ele>110.0</ele><time>2026-04-04T12:44:55.013Z</time></trkpt><trkpt lat="45.4671153" lon="9.3027208"><ele>110.0</ele><time>2026-04-04T12:44:57.013Z</time></trkpt><trkpt lat="45.4670169" lon="9.3026401"><ele>110.0</ele><time>2026-04-04T12:44:59.013Z</time></trkpt><trkpt lat="45.4669423" lon="9.3025227"><ele>110.0</ele><time>2026-04-04T12:45:01.013Z</time></trkpt><trkpt lat="45.4668399" lon="9.3025066"><ele>110.0</ele><time>2026-04-04T12:45:03.013Z</time></trkpt><trkpt lat="45.4667289" lon="9.3025012"><ele>109.8</ele><time>2026-04-04T12:45:05.013Z</time></trkpt><trkpt lat="45.4666196" lon="9.3024639"><ele>109.6</ele><time>2026-04-04T12:45:07.013Z</time></trkpt><trkpt lat="45.4665125" lon="9.3024286"><ele>109.4</ele><time>2026-04-04T12:45:09.013Z</time></trkpt><trkpt lat="45.4664036" lon="9.3023916"><ele>109.2</ele><time>2026-04-04T12:45:11.013Z</time></trkpt><trkpt lat="45.4662997" lon="9.3023543"><ele>109.0</ele><time>2026-04-04T12:45:13.013Z</time></trkpt><trkpt lat="45.4662047" lon="9.3022929"><ele>109.33333333333334</ele><time>2026-04-04T12:45:15.013Z</time></trkpt><trkpt lat="45.4661364" lon="9.3022716"><ele>109.66666666666667</ele><time>2026-04-04T12:45:17.013Z</time></trkpt><trkpt lat="45.466106" lon="9.3023877"><ele>110.0</ele><time>2026-04-04T12:45:20.013Z</time></trkpt><trkpt lat="45.4660865" lon="9.3024833"><ele>110.33333333333334</ele><time>2026-04-04T12:45:22.013Z</time></trkpt><trkpt lat="45.4660731" lon="9.3025939"><ele>110.66666666666667</ele><time>2026-04-04T12:45:24.013Z</time></trkpt><trkpt lat="45.4660706" lon="9.3027184"><ele>111.0</ele><time>2026-04-04T12:45:26.013Z</time></trkpt><trkpt lat="45.4660687" lon="9.3028463"><ele>111.0</ele><time>2026-04-04T12:45:28.013Z</time></trkpt><trkpt lat="45.4660806" lon="9.3029691"><ele>111.0</ele><time>2026-04-04T12:45:30.013Z</time></trkpt><trkpt lat="45.466026" lon="9.3030432"><ele>111.0</ele><time>2026-04-04T12:45:32.013Z</time></trkpt><trkpt lat="45.465943" lon="9.303039"><ele>111.0</ele><time>2026-04-04T12:45:34.013Z</time></trkpt><trkpt lat="45.4658514" lon="9.3030214"><ele>111.0</ele><time>2026-04-04T12:45:36.013Z</time></trkpt><trkpt lat="45.4657592" lon="9.3030119"><ele>111.0</ele><time>2026-04-04T12:45:38.013Z</time></trkpt><trkpt lat="45.4656542" lon="9.3030172"><ele>111.0</ele><time>2026-04-04T12:45:40.014Z</time></trkpt><trkpt lat="45.4655519" lon="9.3030275"><ele>111.0</ele><time>2026-04-04T12:45:42.013Z</time></trkpt><trkpt lat="45.4654488" lon="9.3030329"><ele>111.0</ele><time>2026-04-04T12:45:44.013Z</time></trkpt><trkpt lat="45.4653489" lon="9.3030582"><ele>111.0</ele><time>2026-04-04T12:45:46.013Z</time></trkpt><trkpt lat="45.4652876" lon="9.3031658"><ele>111.0</ele><time>2026-04-04T12:45:48.013Z</time></trkpt><trkpt lat="45.4652675" lon="9.3033003"><ele>110.4</ele><time>2026-04-04T12:45:50.013Z</time></trkpt><trkpt lat="45.4651707" lon="9.3033433"><ele>109.8</ele><time>2026-04-04T12:45:52.013Z</time></trkpt><trkpt lat="45.465064" lon="9.3033437"><ele>109.20000000000002</ele><time>2026-04-04T12:45:54.013Z</time></trkpt><trkpt lat="45.4649556" lon="9.3033475"><ele>108.60000000000001</ele><time>2026-04-04T12:45:56.014Z</time></trkpt><trkpt lat="45.4648446" lon="9.3033505"><ele>108.0</ele><time>2026-04-04T12:45:58.014Z</time></trkpt><trkpt lat="45.4647356" lon="9.3033579"><ele>108.0</ele><time>2026-04-04T12:46:00.013Z</time></trkpt><trkpt lat="45.4646254" lon="9.3033694"><ele>108.00000000000001</ele><time>2026-04-04T12:46:02.013Z</time></trkpt><trkpt lat="45.464514" lon="9.3033731"><ele>108.00000000000001</ele><time>2026-04-04T12:46:04.013Z</time></trkpt><trkpt lat="45.4644053" lon="9.3033789"><ele>108.0</ele><time>2026-04-04T12:46:06.013Z</time></trkpt><trkpt lat="45.4642948" lon="9.3033784"><ele>108.0</ele><time>2026-04-04T12:46:08.013Z</time></trkpt><trkpt lat="45.4641839" lon="9.3033822"><ele>108.0</ele><time>2026-04-04T12:46:10.013Z</time></trkpt><trkpt lat="45.4640727" lon="9.3033903"><ele>108.00000000000001</ele><time>2026-04-04T12:46:12.013Z</time></trkpt><trkpt lat="45.463962" lon="9.3033947"><ele>108.00000000000001</ele><time>2026-04-04T12:46:14.013Z</time></trkpt><trkpt lat="45.4638543" lon="9.3034029"><ele>108.0</ele><time>2026-04-04T12:46:16.013Z</time></trkpt><trkpt lat="45.4637437" lon="9.3034079"><ele>108.0</ele><time>2026-04-04T12:46:18.013Z</time></trkpt><trkpt lat="45.4636339" lon="9.3034115"><ele>108.0</ele><time>2026-04-04T12:46:20.013Z</time></trkpt><trkpt lat="45.4635254" lon="9.3034169"><ele>108.00000000000001</ele><time>2026-04-04T12:46:22.013Z</time></trkpt><trkpt lat="45.4634099" lon="9.3034252"><ele>108.00000000000001</ele><time>2026-04-04T12:46:24.013Z</time></trkpt><trkpt lat="45.4633014" lon="9.3034252"><ele>108.0</ele><time>2026-04-04T12:46:26.013Z</time></trkpt><trkpt lat="45.4631932" lon="9.3034302"><ele>108.0</ele><time>2026-04-04T12:46:28.013Z</time></trkpt><trkpt lat="45.4630835" lon="9.3034324"><ele>108.0</ele><time>2026-04-04T12:46:30.013Z</time></trkpt><trkpt lat="45.4629867" lon="9.3034791"><ele>108.00000000000001</ele><time>2026-04-04T12:46:32.013Z</time></trkpt><trkpt lat="45.4629596" lon="9.3036007"><ele>108.00000000000001</ele><time>2026-04-04T12:46:34.013Z</time></trkpt><trkpt lat="45.4629814" lon="9.3037379"><ele>108.0</ele><time>2026-04-04T12:46:36.013Z</time></trkpt><trkpt lat="45.4629969" lon="9.3038792"><ele>108.0</ele><time>2026-04-04T12:46:38.013Z</time></trkpt><trkpt lat="45.463014" lon="9.3040253"><ele>108.0</ele><time>2026-04-04T12:46:40.013Z</time></trkpt><trkpt lat="45.4630333" lon="9.304176"><ele>108.00000000000001</ele><time>2026-04-04T12:46:42.013Z</time></trkpt><trkpt lat="45.4630525" lon="9.3043244"><ele>108.00000000000001</ele><time>2026-04-04T12:46:44.013Z</time></trkpt><trkpt lat="45.4630735" lon="9.304477"><ele>108.0</ele><time>2026-04-04T12:46:46.013Z</time></trkpt><trkpt lat="45.4630929" lon="9.3046286"><ele>108.0</ele><time>2026-04-04T12:46:48.013Z</time></trkpt><trkpt lat="45.4631109" lon="9.30478"><ele>107.60000000000001</ele><time>2026-04-04T12:46:50.013Z</time></trkpt><trkpt lat="45.4631306" lon="9.3049304"><ele>107.20000000000002</ele><time>2026-04-04T12:46:52.013Z</time></trkpt><trkpt lat="45.46315" lon="9.3050794"><ele>106.8</ele><time>2026-04-04T12:46:54.013Z</time></trkpt><trkpt lat="45.4631745" lon="9.3052214"><ele>106.4</ele><time>2026-04-04T12:46:56.013Z</time></trkpt><trkpt lat="45.4631548" lon="9.3053413"><ele>106.0</ele><time>2026-04-04T12:46:58.013Z</time></trkpt><trkpt lat="45.4630939" lon="9.305391"><ele>106.00000000000001</ele><time>2026-04-04T12:47:01.013Z</time></trkpt><trkpt lat="45.4630129" lon="9.3054014"><ele>106.0</ele><time>2026-04-04T12:47:06.013Z</time></trkpt><trkpt lat="45.4629837" lon="9.3054873"><ele>106.0</ele><time>2026-04-04T12:47:08.013Z</time></trkpt><trkpt lat="45.4629878" lon="9.3055971"><ele>106.0</ele><time>2026-04-04T12:47:10.013Z</time></trkpt><trkpt lat="45.4630083" lon="9.3057194"><ele>106.00000000000001</ele><time>2026-04-04T12:47:12.013Z</time></trkpt><trkpt lat="45.4630327" lon="9.3058529"><ele>106.0</ele><time>2026-04-04T12:47:14.013Z</time></trkpt><trkpt lat="45.4630524" lon="9.305989"><ele>106.0</ele><time>2026-04-04T12:47:16.013Z</time></trkpt><trkpt lat="45.4630776" lon="9.3061304"><ele>106.0</ele><time>2026-04-04T12:47:18.013Z</time></trkpt><trkpt lat="45.4630976" lon="9.3062714"><ele>106.0</ele><time>2026-04-04T12:47:20.013Z</time></trkpt><trkpt lat="45.4631254" lon="9.3064166"><ele>106.0</ele><time>2026-04-04T12:47:22.013Z</time></trkpt><trkpt lat="45.4631488" lon="9.3065649"><ele>106.0</ele><time>2026-04-04T12:47:24.013Z</time></trkpt><trkpt lat="45.4631689" lon="9.3067121"><ele>106.19999999999999</ele><time>2026-04-04T12:47:26.013Z</time></trkpt><trkpt lat="45.46319" lon="9.3068592"><ele>106.39999999999999</ele><time>2026-04-04T12:47:28.013Z</time></trkpt><trkpt lat="45.463213" lon="9.3070101"><ele>106.6</ele><time>2026-04-04T12:47:30.013Z</time></trkpt><trkpt lat="45.463233" lon="9.3071538"><ele>106.8</ele><time>2026-04-04T12:47:32.013Z</time></trkpt><trkpt lat="45.4632537" lon="9.3073107"><ele>107.0</ele><time>2026-04-04T12:47:34.013Z</time></trkpt><trkpt lat="45.4632752" lon="9.3074553"><ele>107.39999999999999</ele><time>2026-04-04T12:47:36.014Z</time></trkpt><trkpt lat="45.463294" lon="9.3076031"><ele>107.79999999999998</ele><time>2026-04-04T12:47:38.013Z</time></trkpt><trkpt lat="45.4633158" lon="9.3077523"><ele>108.2</ele><time>2026-04-04T12:47:40.013Z</time></trkpt><trkpt lat="45.463342" lon="9.307901"><ele>108.6</ele><time>2026-04-04T12:47:42.013Z</time></trkpt><trkpt lat="45.4633589" lon="9.3080564"><ele>109.0</ele><time>2026-04-04T12:47:44.013Z</time></trkpt><trkpt lat="45.4633766" lon="9.3082059"><ele>109.2</ele><time>2026-04-04T12:47:46.013Z</time></trkpt><trkpt lat="45.4633979" lon="9.3083551"><ele>109.4</ele><time>2026-04-04T12:47:48.013Z</time></trkpt><trkpt lat="45.4634183" lon="9.3084999"><ele>109.6</ele><time>2026-04-04T12:47:50.013Z</time></trkpt><trkpt lat="45.4634434" lon="9.3086377"><ele>109.8</ele><time>2026-04-04T12:47:52.013Z</time></trkpt><trkpt lat="45.4634726" lon="9.3087748"><ele>110.0</ele><time>2026-04-04T12:47:54.013Z</time></trkpt><trkpt lat="45.4635014" lon="9.3089148"><ele>110.0</ele><time>2026-04-04T12:47:56.013Z</time></trkpt><trkpt lat="45.4635234" lon="9.3090544"><ele>110.0</ele><time>2026-04-04T12:47:58.013Z</time></trkpt><trkpt lat="45.4635482" lon="9.3091947"><ele>110.0</ele><time>2026-04-04T12:48:00.013Z</time></trkpt><trkpt lat="45.4635596" lon="9.3093416"><ele>110.0</ele><time>2026-04-04T12:48:02.013Z</time></trkpt><trkpt lat="45.4635815" lon="9.3094858"><ele>110.0</ele><time>2026-04-04T12:48:04.013Z</time></trkpt><trkpt lat="45.4636034" lon="9.3096365"><ele>109.8</ele><time>2026-04-04T12:48:06.013Z</time></trkpt><trkpt lat="45.4636242" lon="9.3097884"><ele>109.6</ele><time>2026-04-04T12:48:08.013Z</time></trkpt><trkpt lat="45.4636505" lon="9.3099407"><ele>109.4</ele><time>2026-04-04T12:48:10.013Z</time></trkpt><trkpt lat="45.4636624" lon="9.3100953"><ele>109.2</ele><time>2026-04-04T12:48:12.013Z</time></trkpt><trkpt lat="45.4636744" lon="9.3102452"><ele>109.0</ele><time>2026-04-04T12:48:14.013Z</time></trkpt><trkpt lat="45.4636974" lon="9.3103904"><ele>109.0</ele><time>2026-04-04T12:48:16.013Z</time></trkpt><trkpt lat="45.4637277" lon="9.3105365"><ele>109.0</ele><time>2026-04-04T12:48:18.013Z</time></trkpt><trkpt lat="45.4637594" lon="9.3106801"><ele>109.0</ele><time>2026-04-04T12:48:20.013Z</time></trkpt><trkpt lat="45.4637794" lon="9.3108272"><ele>109.0</ele><time>2026-04-04T12:48:22.013Z</time></trkpt><trkpt lat="45.463801" lon="9.3109797"><ele>109.0</ele><time>2026-04-04T12:48:24.013Z</time></trkpt><trkpt lat="45.4638199" lon="9.3111254"><ele>109.2</ele><time>2026-04-04T12:48:26.013Z</time></trkpt><trkpt lat="45.4638388" lon="9.3112686"><ele>109.4</ele><time>2026-04-04T12:48:28.013Z</time></trkpt><trkpt lat="45.4638556" lon="9.3114127"><ele>109.6</ele><time>2026-04-04T12:48:30.013Z</time></trkpt><trkpt lat="45.4638633" lon="9.3115529"><ele>109.8</ele><time>2026-04-04T12:48:32.013Z</time></trkpt><trkpt lat="45.4638728" lon="9.3116965"><ele>110.0</ele><time>2026-04-04T12:48:34.013Z</time></trkpt><trkpt lat="45.4638806" lon="9.3118409"><ele>110.16666666666666</ele><time>2026-04-04T12:48:36.013Z</time></trkpt><trkpt lat="45.4638792" lon="9.3119823"><ele>110.33333333333333</ele><time>2026-04-04T12:48:38.013Z</time></trkpt><trkpt lat="45.4638683" lon="9.312121"><ele>110.5</ele><time>2026-04-04T12:48:40.013Z</time></trkpt><trkpt lat="45.4638458" lon="9.3122519"><ele>110.66666666666666</ele><time>2026-04-04T12:48:42.013Z</time></trkpt><trkpt lat="45.4638116" lon="9.3123578"><ele>110.83333333333333</ele><time>2026-04-04T12:48:44.013Z</time></trkpt><trkpt lat="45.4637788" lon="9.3124532"><ele>111.0</ele><time>2026-04-04T12:48:46.013Z</time></trkpt><trkpt lat="45.463756" lon="9.3125682"><ele>111.0</ele><time>2026-04-04T12:48:48.013Z</time></trkpt><trkpt lat="45.4637612" lon="9.312689"><ele>111.0</ele><time>2026-04-04T12:48:50.013Z</time></trkpt><trkpt lat="45.4638544" lon="9.3127145"><ele>111.0</ele><time>2026-04-04T12:48:52.013Z</time></trkpt><trkpt lat="45.463931" lon="9.3127322"><ele>111.0</ele><time>2026-04-04T12:48:54.013Z</time></trkpt><trkpt lat="45.4639415" lon="9.3128396"><ele>111.0</ele><time>2026-04-04T12:48:56.013Z</time></trkpt><trkpt lat="45.4639299" lon="9.312965"><ele>111.0</ele><time>2026-04-04T12:48:58.013Z</time></trkpt><trkpt lat="45.4639276" lon="9.3131081"><ele>110.6</ele><time>2026-04-04T12:49:00.013Z</time></trkpt><trkpt lat="45.4639196" lon="9.3132544"><ele>110.19999999999999</ele><time>2026-04-04T12:49:02.013Z</time></trkpt><trkpt lat="45.4639131" lon="9.313399"><ele>109.80000000000001</ele><time>2026-04-04T12:49:04.013Z</time></trkpt><trkpt lat="45.4639085" lon="9.3135468"><ele>109.4</ele><time>2026-04-04T12:49:06.013Z</time></trkpt><trkpt lat="45.4639066" lon="9.313696"><ele>109.0</ele><time>2026-04-04T12:49:08.013Z</time></trkpt><trkpt lat="45.4639054" lon="9.3138365"><ele>109.0</ele><time>2026-04-04T12:49:10.013Z</time></trkpt><trkpt lat="45.4639001" lon="9.3139955"><ele>109.0</ele><time>2026-04-04T12:49:12.013Z</time></trkpt><trkpt lat="45.4639014" lon="9.3141465"><ele>109.0</ele><time>2026-04-04T12:49:14.013Z</time></trkpt><trkpt lat="45.4639144" lon="9.3142899"><ele>109.0</ele><time>2026-04-04T12:49:16.013Z</time></trkpt><trkpt lat="45.4639227" lon="9.314439"><ele>109.0</ele><time>2026-04-04T12:49:18.013Z</time></trkpt><trkpt lat="45.4639428" lon="9.3145842"><ele>109.0</ele><time>2026-04-04T12:49:20.013Z</time></trkpt><trkpt lat="45.4639626" lon="9.3147313"><ele>109.0</ele><time>2026-04-04T12:49:22.013Z</time></trkpt><trkpt lat="45.4639739" lon="9.3148792"><ele>109.0</ele><time>2026-04-04T12:49:24.013Z</time></trkpt><trkpt lat="45.4639813" lon="9.3150251"><ele>109.0</ele><time>2026-04-04T12:49:26.013Z</time></trkpt><trkpt lat="45.4639743" lon="9.3151674"><ele>109.0</ele><time>2026-04-04T12:49:28.013Z</time></trkpt><trkpt lat="45.4639913" lon="9.3153131"><ele>108.6</ele><time>2026-04-04T12:49:30.013Z</time></trkpt><trkpt lat="45.4640082" lon="9.3154634"><ele>108.2</ele><time>2026-04-04T12:49:32.013Z</time></trkpt><trkpt lat="45.4640225" lon="9.3156174"><ele>107.79999999999998</ele><time>2026-04-04T12:49:34.013Z</time></trkpt><trkpt lat="45.4640582" lon="9.3157622"><ele>107.39999999999999</ele><time>2026-04-04T12:49:36.013Z</time></trkpt><trkpt lat="45.4640974" lon="9.3159054"><ele>107.0</ele><time>2026-04-04T12:49:38.013Z</time></trkpt><trkpt lat="45.4641195" lon="9.3160583"><ele>107.0</ele><time>2026-04-04T12:49:40.014Z</time></trkpt><trkpt lat="45.4641364" lon="9.3162116"><ele>106.99999999999999</ele><time>2026-04-04T12:49:42.013Z</time></trkpt><trkpt lat="45.4641501" lon="9.3163548"><ele>106.99999999999999</ele><time>2026-04-04T12:49:44.013Z</time></trkpt><trkpt lat="45.4641631" lon="9.316503"><ele>107.0</ele><time>2026-04-04T12:49:46.013Z</time></trkpt><trkpt lat="45.4641738" lon="9.3166432"><ele>107.0</ele><time>2026-04-04T12:49:48.013Z</time></trkpt><trkpt lat="45.4641816" lon="9.3167766"><ele>106.99999999999999</ele><time>2026-04-04T12:49:50.013Z</time></trkpt><trkpt lat="45.4642373" lon="9.3168569"><ele>107.0</ele><time>2026-04-04T12:49:52.013Z</time></trkpt><trkpt lat="45.4643186" lon="9.3168544"><ele>107.0</ele><time>2026-04-04T12:49:54.013Z</time></trkpt><trkpt lat="45.4644053" lon="9.3168371"><ele>107.0</ele><time>2026-04-04T12:49:56.013Z</time></trkpt><trkpt lat="45.464495" lon="9.3168183"><ele>106.99999999999999</ele><time>2026-04-04T12:49:58.013Z</time></trkpt><trkpt lat="45.464593" lon="9.3168002"><ele>107.0</ele><time>2026-04-04T12:50:00.013Z</time></trkpt><trkpt lat="45.4646802" lon="9.3168626"><ele>107.0</ele><time>2026-04-04T12:50:02.013Z</time></trkpt><trkpt lat="45.4647392" lon="9.3169664"><ele>106.99999999999999</ele><time>2026-04-04T12:50:04.013Z</time></trkpt><trkpt lat="45.464812" lon="9.3170627"><ele>106.99999999999999</ele><time>2026-04-04T12:50:06.013Z</time></trkpt><trkpt lat="45.4648692" lon="9.3171621"><ele>107.0</ele><time>2026-04-04T12:50:08.013Z</time></trkpt><trkpt lat="45.4649658" lon="9.3171928"><ele>107.0</ele><time>2026-04-04T12:50:10.013Z</time></trkpt><trkpt lat="45.4650579" lon="9.3171869"><ele>107.0</ele><time>2026-04-04T12:50:12.013Z</time></trkpt><trkpt lat="45.465162" lon="9.3171729"><ele>106.99999999999999</ele><time>2026-04-04T12:50:14.013Z</time></trkpt><trkpt lat="45.4652658" lon="9.3171567"><ele>106.99999999999999</ele><time>2026-04-04T12:50:16.013Z</time></trkpt><trkpt lat="45.4653699" lon="9.3171546"><ele>107.0</ele><time>2026-04-04T12:50:18.013Z</time></trkpt><trkpt lat="45.4654778" lon="9.3171398"><ele>107.0</ele><time>2026-04-04T12:50:20.013Z</time></trkpt><trkpt lat="45.4655721" lon="9.3171201"><ele>107.19999999999999</ele><time>2026-04-04T12:50:22.013Z</time></trkpt><trkpt lat="45.4656715" lon="9.3171041"><ele>107.39999999999999</ele><time>2026-04-04T12:50:24.013Z</time></trkpt><trkpt lat="45.4657731" lon="9.3170974"><ele>107.60000000000001</ele><time>2026-04-04T12:50:26.013Z</time></trkpt><trkpt lat="45.4658708" lon="9.3170887"><ele>107.80000000000001</ele><time>2026-04-04T12:50:28.013Z</time></trkpt><trkpt lat="45.4659597" lon="9.3170894"><ele>108.0</ele><time>2026-04-04T12:50:30.013Z</time></trkpt><trkpt lat="45.466016" lon="9.3171845"><ele>108.0</ele><time>2026-04-04T12:50:32.013Z</time></trkpt><trkpt lat="45.4660688" lon="9.3172759"><ele>108.00000000000001</ele><time>2026-04-04T12:50:34.013Z</time></trkpt><trkpt lat="45.4661635" lon="9.3172631"><ele>108.00000000000001</ele><time>2026-04-04T12:50:36.013Z</time></trkpt><trkpt lat="45.466257" lon="9.3172129"><ele>108.0</ele><time>2026-04-04T12:50:38.013Z</time></trkpt><trkpt lat="45.4663357" lon="9.3171498"><ele>108.0</ele><time>2026-04-04T12:50:40.013Z</time></trkpt><trkpt lat="45.4664175" lon="9.31707"><ele>108.0</ele><time>2026-04-04T12:50:42.013Z</time></trkpt><trkpt lat="45.4665041" lon="9.3170146"><ele>108.00000000000001</ele><time>2026-04-04T12:50:44.013Z</time></trkpt><trkpt lat="45.466586" lon="9.316955"><ele>108.00000000000001</ele><time>2026-04-04T12:50:46.013Z</time></trkpt><trkpt lat="45.4666805" lon="9.3168962"><ele>108.0</ele><time>2026-04-04T12:50:48.013Z</time></trkpt><trkpt lat="45.4667739" lon="9.3168341"><ele>108.0</ele><time>2026-04-04T12:50:50.013Z</time></trkpt><trkpt lat="45.4668681" lon="9.3167682"><ele>108.0</ele><time>2026-04-04T12:50:52.013Z</time></trkpt><trkpt lat="45.4669616" lon="9.3166978"><ele>108.00000000000001</ele><time>2026-04-04T12:50:54.013Z</time></trkpt><trkpt lat="45.4670541" lon="9.3166316"><ele>108.00000000000001</ele><time>2026-04-04T12:50:56.013Z</time></trkpt><trkpt lat="45.4671446" lon="9.3165564"><ele>108.0</ele><time>2026-04-04T12:50:58.013Z</time></trkpt><trkpt lat="45.4672352" lon="9.316487"><ele>108.0</ele><time>2026-04-04T12:51:00.013Z</time></trkpt><trkpt lat="45.4673241" lon="9.3164201"><ele>108.2</ele><time>2026-04-04T12:51:02.013Z</time></trkpt><trkpt lat="45.4674081" lon="9.3163544"><ele>108.4</ele><time>2026-04-04T12:51:04.013Z</time></trkpt><trkpt lat="45.4675016" lon="9.3162969"><ele>108.60000000000001</ele><time>2026-04-04T12:51:06.013Z</time></trkpt><trkpt lat="45.4675889" lon="9.3162437"><ele>108.80000000000001</ele><time>2026-04-04T12:51:08.013Z</time></trkpt><trkpt lat="45.4676727" lon="9.3161796"><ele>109.0</ele><time>2026-04-04T12:51:10.013Z</time></trkpt><trkpt lat="45.4677425" lon="9.3160869"><ele>109.0</ele><time>2026-04-04T12:51:12.013Z</time></trkpt><trkpt lat="45.4678037" lon="9.3159785"><ele>109.0</ele><time>2026-04-04T12:51:14.013Z</time></trkpt><trkpt lat="45.4678617" lon="9.31587"><ele>109.0</ele><time>2026-04-04T12:51:16.013Z</time></trkpt><trkpt lat="45.4679417" lon="9.315792"><ele>109.0</ele><time>2026-04-04T12:51:18.013Z</time></trkpt><trkpt lat="45.4680416" lon="9.3157844"><ele>109.0</ele><time>2026-04-04T12:51:20.013Z</time></trkpt><trkpt lat="45.4681389" lon="9.3157723"><ele>109.0</ele><time>2026-04-04T12:51:22.013Z</time></trkpt><trkpt lat="45.4682361" lon="9.3157665"><ele>109.0</ele><time>2026-04-04T12:51:24.013Z</time></trkpt><trkpt lat="45.4683343" lon="9.3157642"><ele>109.0</ele><time>2026-04-04T12:51:26.013Z</time></trkpt><trkpt lat="45.468425" lon="9.3157485"><ele>109.0</ele><time>2026-04-04T12:51:28.013Z</time></trkpt><trkpt lat="45.468516" lon="9.3157369"><ele>109.0</ele><time>2026-04-04T12:51:30.013Z</time></trkpt><trkpt lat="45.4686121" lon="9.3157331"><ele>109.0</ele><time>2026-04-04T12:51:32.013Z</time></trkpt><trkpt lat="45.4687029" lon="9.3157235"><ele>109.0</ele><time>2026-04-04T12:51:34.013Z</time></trkpt><trkpt lat="45.4687934" lon="9.3157183"><ele>109.0</ele><time>2026-04-04T12:51:36.013Z</time></trkpt><trkpt lat="45.4688845" lon="9.3157281"><ele>109.0</ele><time>2026-04-04T12:51:38.013Z</time></trkpt><trkpt lat="45.4689775" lon="9.3157214"><ele>109.0</ele><time>2026-04-04T12:51:40.013Z</time></trkpt><trkpt lat="45.4690651" lon="9.315704"><ele>109.33333333333334</ele><time>2026-04-04T12:51:42.013Z</time></trkpt><trkpt lat="45.4691514" lon="9.3156874"><ele>109.66666666666667</ele><time>2026-04-04T12:51:44.013Z</time></trkpt><trkpt lat="45.4692362" lon="9.3156857"><ele>110.0</ele><time>2026-04-04T12:51:46.013Z</time></trkpt><trkpt lat="45.4692964" lon="9.3157508"><ele>110.33333333333334</ele><time>2026-04-04T12:51:48.013Z</time></trkpt><trkpt lat="45.4693123" lon="9.3158573"><ele>110.66666666666667</ele><time>2026-04-04T12:51:50.013Z</time></trkpt><trkpt lat="45.4693015" lon="9.3159738"><ele>111.0</ele><time>2026-04-04T12:51:52.013Z</time></trkpt><trkpt lat="45.4692979" lon="9.3160968"><ele>111.0</ele><time>2026-04-04T12:51:54.013Z</time></trkpt><trkpt lat="45.4692956" lon="9.3162282"><ele>111.0</ele><time>2026-04-04T12:51:56.013Z</time></trkpt><trkpt lat="45.4692892" lon="9.3163583"><ele>111.0</ele><time>2026-04-04T12:51:58.013Z</time></trkpt><trkpt lat="45.4692832" lon="9.316487"><ele>111.0</ele><time>2026-04-04T12:52:00.013Z</time></trkpt><trkpt lat="45.4692824" lon="9.3166291"><ele>111.0</ele><time>2026-04-04T12:52:02.013Z</time></trkpt><trkpt lat="45.46927" lon="9.3167645"><ele>110.8</ele><time>2026-04-04T12:52:04.013Z</time></trkpt><trkpt lat="45.4692651" lon="9.3169007"><ele>110.6</ele><time>2026-04-04T12:52:06.013Z</time></trkpt><trkpt lat="45.4692558" lon="9.3170346"><ele>110.4</ele><time>2026-04-04T12:52:08.013Z</time></trkpt><trkpt lat="45.4692552" lon="9.317178"><ele>110.2</ele><time>2026-04-04T12:52:10.013Z</time></trkpt><trkpt lat="45.4693184" lon="9.3173004"><ele>110.0</ele><time>2026-04-04T12:52:12.013Z</time></trkpt><trkpt lat="45.4694064" lon="9.3173608"><ele>109.8</ele><time>2026-04-04T12:52:14.013Z</time></trkpt><trkpt lat="45.4695208" lon="9.3173537"><ele>109.6</ele><time>2026-04-04T12:52:16.013Z</time></trkpt><trkpt lat="45.469632" lon="9.3173538"><ele>109.4</ele><time>2026-04-04T12:52:18.013Z</time></trkpt><trkpt lat="45.4697325" lon="9.3173483"><ele>109.2</ele><time>2026-04-04T12:52:20.013Z</time></trkpt><trkpt lat="45.4698028" lon="9.3173471"><ele>109.0</ele><time>2026-04-04T12:52:22.013Z</time></trkpt><trkpt lat="45.4698894" lon="9.3173417"><ele>109.6</ele><time>2026-04-04T12:52:24.013Z</time></trkpt><trkpt lat="45.4699827" lon="9.3173321"><ele>110.2</ele><time>2026-04-04T12:52:26.013Z</time></trkpt><trkpt lat="45.47008" lon="9.3173222"><ele>110.79999999999998</ele><time>2026-04-04T12:52:28.013Z</time></trkpt><trkpt lat="45.4701805" lon="9.3173183"><ele>111.39999999999999</ele><time>2026-04-04T12:52:30.013Z</time></trkpt><trkpt lat="45.4702762" lon="9.3173144"><ele>112.0</ele><time>2026-04-04T12:52:32.013Z</time></trkpt><trkpt lat="45.4703785" lon="9.3173037"><ele>112.0</ele><time>2026-04-04T12:52:34.013Z</time></trkpt><trkpt lat="45.4704829" lon="9.3172967"><ele>111.99999999999999</ele><time>2026-04-04T12:52:36.013Z</time></trkpt><trkpt lat="45.47059" lon="9.3172884"><ele>111.99999999999999</ele><time>2026-04-04T12:52:38.013Z</time></trkpt><trkpt lat="45.4706938" lon="9.3172877"><ele>112.0</ele><time>2026-04-04T12:52:40.013Z</time></trkpt><trkpt lat="45.4707915" lon="9.317332"><ele>112.0</ele><time>2026-04-04T12:52:42.013Z</time></trkpt><trkpt lat="45.4708517" lon="9.3174477"><ele>112.0</ele><time>2026-04-04T12:52:44.013Z</time></trkpt><trkpt lat="45.4709215" lon="9.3175508"><ele>111.99999999999999</ele><time>2026-04-04T12:52:46.013Z</time></trkpt><trkpt lat="45.4710063" lon="9.3176324"><ele>111.99999999999999</ele><time>2026-04-04T12:52:48.013Z</time></trkpt><trkpt lat="45.4710906" lon="9.3177185"><ele>112.0</ele><time>2026-04-04T12:52:50.013Z</time></trkpt><trkpt lat="45.4711741" lon="9.3178048"><ele>112.0</ele><time>2026-04-04T12:52:52.013Z</time></trkpt><trkpt lat="45.4712597" lon="9.3178785"><ele>111.6</ele><time>2026-04-04T12:52:54.013Z</time></trkpt><trkpt lat="45.4713471" lon="9.3179628"><ele>111.19999999999999</ele><time>2026-04-04T12:52:56.013Z</time></trkpt><trkpt lat="45.4714364" lon="9.3180437"><ele>110.8</ele><time>2026-04-04T12:52:58.013Z</time></trkpt><trkpt lat="45.4715264" lon="9.3181116"><ele>110.4</ele><time>2026-04-04T12:53:00.013Z</time></trkpt><trkpt lat="45.4716151" lon="9.31819"><ele>110.0</ele><time>2026-04-04T12:53:02.013Z</time></trkpt><trkpt lat="45.4717041" lon="9.318261"><ele>109.8</ele><time>2026-04-04T12:53:04.013Z</time></trkpt><trkpt lat="45.4717971" lon="9.3183279"><ele>109.6</ele><time>2026-04-04T12:53:06.013Z</time></trkpt><trkpt lat="45.4718791" lon="9.3184186"><ele>109.4</ele><time>2026-04-04T12:53:08.013Z</time></trkpt><trkpt lat="45.4719645" lon="9.3184937"><ele>109.2</ele><time>2026-04-04T12:53:10.013Z</time></trkpt><trkpt lat="45.4720581" lon="9.3185474"><ele>109.0</ele><time>2026-04-04T12:53:12.013Z</time></trkpt><trkpt lat="45.4721512" lon="9.3185904"><ele>109.4</ele><time>2026-04-04T12:53:14.013Z</time></trkpt><trkpt lat="45.4722467" lon="9.3186225"><ele>109.80000000000001</ele><time>2026-04-04T12:53:16.013Z</time></trkpt><trkpt lat="45.4723499" lon="9.3186266"><ele>110.19999999999999</ele><time>2026-04-04T12:53:18.014Z</time></trkpt><trkpt lat="45.4724521" lon="9.3186206"><ele>110.6</ele><time>2026-04-04T12:53:20.013Z</time></trkpt><trkpt lat="45.4725543" lon="9.3186076"><ele>111.0</ele><time>2026-04-04T12:53:22.013Z</time></trkpt><trkpt lat="45.4726484" lon="9.3185687"><ele>111.0</ele><time>2026-04-04T12:53:24.013Z</time></trkpt><trkpt lat="45.4727462" lon="9.3185323"><ele>111.0</ele><time>2026-04-04T12:53:26.013Z</time></trkpt><trkpt lat="45.4728414" lon="9.3184821"><ele>111.0</ele><time>2026-04-04T12:53:28.013Z</time></trkpt><trkpt lat="45.4729389" lon="9.3184477"><ele>111.0</ele><time>2026-04-04T12:53:30.013Z</time></trkpt><trkpt lat="45.473032" lon="9.3184422"><ele>111.0</ele><time>2026-04-04T12:53:32.013Z</time></trkpt><trkpt lat="45.4731165" lon="9.3184894"><ele>111.0</ele><time>2026-04-04T12:53:34.013Z</time></trkpt><trkpt lat="45.4731945" lon="9.31855"><ele>111.0</ele><time>2026-04-04T12:53:36.013Z</time></trkpt><trkpt lat="45.4732678" lon="9.3186205"><ele>111.0</ele><time>2026-04-04T12:53:38.013Z</time></trkpt><trkpt lat="45.4733429" lon="9.3186933"><ele>111.0</ele><time>2026-04-04T12:53:40.013Z</time></trkpt><trkpt lat="45.4734121" lon="9.3187767"><ele>111.0</ele><time>2026-04-04T12:53:42.013Z</time></trkpt><trkpt lat="45.4734874" lon="9.3188465"><ele>111.0</ele><time>2026-04-04T12:53:44.013Z</time></trkpt><trkpt lat="45.4735724" lon="9.3188631"><ele>111.0</ele><time>2026-04-04T12:53:46.013Z</time></trkpt><trkpt lat="45.4736544" lon="9.3188551"><ele>111.0</ele><time>2026-04-04T12:53:48.013Z</time></trkpt><trkpt lat="45.473739" lon="9.3188538"><ele>111.0</ele><time>2026-04-04T12:53:50.013Z</time></trkpt><trkpt lat="45.4738229" lon="9.318857"><ele>111.0</ele><time>2026-04-04T12:53:52.013Z</time></trkpt><trkpt lat="45.4739074" lon="9.3188486"><ele>111.0</ele><time>2026-04-04T12:53:54.013Z</time></trkpt><trkpt lat="45.4739735" lon="9.3189127"><ele>111.0</ele><time>2026-04-04T12:53:56.013Z</time></trkpt><trkpt lat="45.4739738" lon="9.3190354"><ele>111.4</ele><time>2026-04-04T12:53:58.013Z</time></trkpt><trkpt lat="45.4739746" lon="9.3191678"><ele>111.8</ele><time>2026-04-04T12:54:00.013Z</time></trkpt><trkpt lat="45.4739865" lon="9.3192956"><ele>112.20000000000002</ele><time>2026-04-04T12:54:02.013Z</time></trkpt><trkpt lat="45.4739776" lon="9.3194227"><ele>112.60000000000001</ele><time>2026-04-04T12:54:04.013Z</time></trkpt><trkpt lat="45.4739141" lon="9.3195037"><ele>113.0</ele><time>2026-04-04T12:54:06.013Z</time></trkpt><trkpt lat="45.4738272" lon="9.3195504"><ele>112.60000000000001</ele><time>2026-04-04T12:54:08.013Z</time></trkpt><trkpt lat="45.4737302" lon="9.3195675"><ele>112.20000000000002</ele><time>2026-04-04T12:54:10.013Z</time></trkpt><trkpt lat="45.4736314" lon="9.3195753"><ele>111.8</ele><time>2026-04-04T12:54:12.013Z</time></trkpt><trkpt lat="45.4735326" lon="9.319586"><ele>111.4</ele><time>2026-04-04T12:54:14.013Z</time></trkpt><trkpt lat="45.4734358" lon="9.3196123"><ele>111.0</ele><time>2026-04-04T12:54:16.013Z</time></trkpt><trkpt lat="45.4733399" lon="9.3196525"><ele>111.0</ele><time>2026-04-04T12:54:18.013Z</time></trkpt><trkpt lat="45.4732421" lon="9.3196728"><ele>111.0</ele><time>2026-04-04T12:54:20.013Z</time></trkpt><trkpt lat="45.4731458" lon="9.3196964"><ele>111.0</ele><time>2026-04-04T12:54:22.013Z</time></trkpt><trkpt lat="45.4730475" lon="9.3197181"><ele>111.0</ele><time>2026-04-04T12:54:24.013Z</time></trkpt><trkpt lat="45.4729539" lon="9.3197277"><ele>111.0</ele><time>2026-04-04T12:54:26.013Z</time></trkpt><trkpt lat="45.4728521" lon="9.3197422"><ele>111.4</ele><time>2026-04-04T12:54:28.013Z</time></trkpt><trkpt lat="45.4727557" lon="9.319766"><ele>111.8</ele><time>2026-04-04T12:54:30.013Z</time></trkpt><trkpt lat="45.4726572" lon="9.3197875"><ele>112.20000000000002</ele><time>2026-04-04T12:54:32.013Z</time></trkpt><trkpt lat="45.4725655" lon="9.3198047"><ele>112.60000000000001</ele><time>2026-04-04T12:54:34.013Z</time></trkpt><trkpt lat="45.4724731" lon="9.3198336"><ele>113.0</ele><time>2026-04-04T12:54:36.013Z</time></trkpt><trkpt lat="45.4723815" lon="9.3198508"><ele>113.0</ele><time>2026-04-04T12:54:38.013Z</time></trkpt><trkpt lat="45.4722871" lon="9.319865"><ele>113.00000000000001</ele><time>2026-04-04T12:54:40.013Z</time></trkpt><trkpt lat="45.4721948" lon="9.3198792"><ele>113.00000000000001</ele><time>2026-04-04T12:54:42.013Z</time></trkpt><trkpt lat="45.4721034" lon="9.3198961"><ele>113.0</ele><time>2026-04-04T12:54:44.013Z</time></trkpt><trkpt lat="45.4720113" lon="9.3199164"><ele>113.0</ele><time>2026-04-04T12:54:46.013Z</time></trkpt><trkpt lat="45.4719195" lon="9.3199379"><ele>112.49999999999999</ele><time>2026-04-04T12:54:48.013Z</time></trkpt><trkpt lat="45.4718265" lon="9.3199547"><ele>112.0</ele><time>2026-04-04T12:54:50.013Z</time></trkpt><trkpt lat="45.4717442" lon="9.3199725"><ele>111.5</ele><time>2026-04-04T12:54:52.013Z</time></trkpt><trkpt lat="45.4716675" lon="9.3199849"><ele>111.0</ele><time>2026-04-04T12:54:54.013Z</time></trkpt><trkpt lat="45.471603" lon="9.319999"><ele>110.49999999999999</ele><time>2026-04-04T12:54:56.013Z</time></trkpt><trkpt lat="45.4715107" lon="9.3200221"><ele>110.0</ele><time>2026-04-04T12:54:59.013Z</time></trkpt><trkpt lat="45.4714492" lon="9.3200443"><ele>109.99999999999999</ele><time>2026-04-04T12:55:01.013Z</time></trkpt><trkpt lat="45.4713727" lon="9.3200499"><ele>110.0</ele><time>2026-04-04T12:55:03.013Z</time></trkpt><trkpt lat="45.471288" lon="9.3200652"><ele>110.0</ele><time>2026-04-04T12:55:05.013Z</time></trkpt><trkpt lat="45.471198" lon="9.3200814"><ele>110.0</ele><time>2026-04-04T12:55:07.013Z</time></trkpt><trkpt lat="45.4711081" lon="9.3200984"><ele>109.99999999999999</ele><time>2026-04-04T12:55:09.013Z</time></trkpt><trkpt lat="45.4710192" lon="9.3201158"><ele>110.0</ele><time>2026-04-04T12:55:11.013Z</time></trkpt><trkpt lat="45.4709304" lon="9.3201331"><ele>110.16666666666666</ele><time>2026-04-04T12:55:13.013Z</time></trkpt><trkpt lat="45.4708452" lon="9.3201589"><ele>110.33333333333333</ele><time>2026-04-04T12:55:15.013Z</time></trkpt><trkpt lat="45.4707637" lon="9.3201805"><ele>110.5</ele><time>2026-04-04T12:55:17.013Z</time></trkpt><trkpt lat="45.4706844" lon="9.3202026"><ele>110.66666666666666</ele><time>2026-04-04T12:55:19.013Z</time></trkpt><trkpt lat="45.4706083" lon="9.320222"><ele>110.83333333333333</ele><time>2026-04-04T12:55:21.013Z</time></trkpt><trkpt lat="45.4705332" lon="9.3202289"><ele>111.0</ele><time>2026-04-04T12:55:23.013Z</time></trkpt><trkpt lat="45.4704604" lon="9.3202445"><ele>111.0</ele><time>2026-04-04T12:55:25.013Z</time></trkpt><trkpt lat="45.4703786" lon="9.3202455"><ele>111.0</ele><time>2026-04-04T12:55:27.013Z</time></trkpt><trkpt lat="45.4702877" lon="9.3202653"><ele>111.0</ele><time>2026-04-04T12:55:29.013Z</time></trkpt><trkpt lat="45.4701904" lon="9.3202816"><ele>111.0</ele><time>2026-04-04T12:55:31.013Z</time></trkpt><trkpt lat="45.4700964" lon="9.3203019"><ele>111.0</ele><time>2026-04-04T12:55:33.013Z</time></trkpt><trkpt lat="45.4700061" lon="9.3203271"><ele>111.0</ele><time>2026-04-04T12:55:35.013Z</time></trkpt><trkpt lat="45.46992" lon="9.320344"><ele>111.0</ele><time>2026-04-04T12:55:37.013Z</time></trkpt><trkpt lat="45.4698283" lon="9.3203898"><ele>111.0</ele><time>2026-04-04T12:55:39.013Z</time></trkpt><trkpt lat="45.4697562" lon="9.3204684"><ele>111.0</ele><time>2026-04-04T12:55:41.013Z</time></trkpt><trkpt lat="45.4697063" lon="9.3205866"><ele>111.0</ele><time>2026-04-04T12:55:43.013Z</time></trkpt><trkpt lat="45.4697329" lon="9.3207162"><ele>111.0</ele><time>2026-04-04T12:55:45.013Z</time></trkpt><trkpt lat="45.4697857" lon="9.3208313"><ele>111.0</ele><time>2026-04-04T12:55:47.013Z</time></trkpt><trkpt lat="45.4698491" lon="9.3209041"><ele>111.0</ele><time>2026-04-04T12:55:49.013Z</time></trkpt><trkpt lat="45.4699433" lon="9.3209436"><ele>111.0</ele><time>2026-04-04T12:55:51.013Z</time></trkpt><trkpt lat="45.470018" lon="9.3209743"><ele>111.0</ele><time>2026-04-04T12:55:53.013Z</time></trkpt><trkpt lat="45.4700962" lon="9.320988"><ele>111.0</ele><time>2026-04-04T12:55:55.013Z</time></trkpt><trkpt lat="45.4701834" lon="9.3210202"><ele>111.0</ele><time>2026-04-04T12:55:57.013Z</time></trkpt><trkpt lat="45.4702696" lon="9.3210526"><ele>111.0</ele><time>2026-04-04T12:55:59.013Z</time></trkpt><trkpt lat="45.4703397" lon="9.3210978"><ele>111.0</ele><time>2026-04-04T12:56:01.013Z</time></trkpt><trkpt lat="45.4704008" lon="9.321167"><ele>111.0</ele><time>2026-04-04T12:56:03.014Z</time></trkpt><trkpt lat="45.4704533" lon="9.3212614"><ele>111.0</ele><time>2026-04-04T12:56:05.013Z</time></trkpt><trkpt lat="45.4705029" lon="9.3213564"><ele>111.0</ele><time>2026-04-04T12:56:07.013Z</time></trkpt><trkpt lat="45.4705716" lon="9.321419"><ele>110.83333333333333</ele><time>2026-04-04T12:56:09.013Z</time></trkpt><trkpt lat="45.4706531" lon="9.3214572"><ele>110.66666666666666</ele><time>2026-04-04T12:56:11.013Z</time></trkpt><trkpt lat="45.4707347" lon="9.3214936"><ele>110.5</ele><time>2026-04-04T12:56:13.013Z</time></trkpt><trkpt lat="45.4708165" lon="9.3215393"><ele>110.33333333333333</ele><time>2026-04-04T12:56:15.013Z</time></trkpt><trkpt lat="45.4708768" lon="9.3216225"><ele>110.16666666666666</ele><time>2026-04-04T12:56:17.013Z</time></trkpt><trkpt lat="45.4709164" lon="9.3217238"><ele>110.0</ele><time>2026-04-04T12:56:19.013Z</time></trkpt><trkpt lat="45.4709676" lon="9.3217981"><ele>109.99999999999999</ele><time>2026-04-04T12:56:58.013Z</time></trkpt><trkpt lat="45.4710139" lon="9.3218678"><ele>110.0</ele><time>2026-04-04T12:57:01.013Z</time></trkpt><trkpt lat="45.4710763" lon="9.3219482"><ele>110.0</ele><time>2026-04-04T12:57:04.013Z</time></trkpt><trkpt lat="45.4711362" lon="9.3219995"><ele>110.0</ele><time>2026-04-04T12:57:06.013Z</time></trkpt><trkpt lat="45.4712125" lon="9.3220136"><ele>109.99999999999999</ele><time>2026-04-04T12:57:08.013Z</time></trkpt><trkpt lat="45.4712882" lon="9.3219566"><ele>110.0</ele><time>2026-04-04T12:57:10.013Z</time></trkpt><trkpt lat="45.4713592" lon="9.3218858"><ele>110.33333333333333</ele><time>2026-04-04T12:57:12.013Z</time></trkpt><trkpt lat="45.4714299" lon="9.3218118"><ele>110.66666666666666</ele><time>2026-04-04T12:57:14.013Z</time></trkpt><trkpt lat="45.4715003" lon="9.3217399"><ele>111.0</ele><time>2026-04-04T12:57:16.013Z</time></trkpt><trkpt lat="45.4715832" lon="9.3217031"><ele>111.33333333333334</ele><time>2026-04-04T12:57:18.013Z</time></trkpt><trkpt lat="45.471674" lon="9.3216926"><ele>111.66666666666667</ele><time>2026-04-04T12:57:20.013Z</time></trkpt><trkpt lat="45.4717641" lon="9.3216984"><ele>112.0</ele><time>2026-04-04T12:57:22.014Z</time></trkpt><trkpt lat="45.4718623" lon="9.3217039"><ele>112.0</ele><time>2026-04-04T12:57:24.013Z</time></trkpt><trkpt lat="45.4719512" lon="9.3216921"><ele>111.99999999999999</ele><time>2026-04-04T12:57:26.013Z</time></trkpt><trkpt lat="45.4720401" lon="9.3216828"><ele>111.99999999999999</ele><time>2026-04-04T12:57:28.013Z</time></trkpt><trkpt lat="45.4721328" lon="9.3216798"><ele>112.0</ele><time>2026-04-04T12:57:30.013Z</time></trkpt><trkpt lat="45.4722248" lon="9.32165"><ele>112.0</ele><time>2026-04-04T12:57:32.013Z</time></trkpt><trkpt lat="45.4723014" lon="9.3215805"><ele>111.8</ele><time>2026-04-04T12:57:34.013Z</time></trkpt><trkpt lat="45.4723702" lon="9.3214989"><ele>111.6</ele><time>2026-04-04T12:57:36.013Z</time></trkpt><trkpt lat="45.4724356" lon="9.3214088"><ele>111.39999999999999</ele><time>2026-04-04T12:57:38.013Z</time></trkpt><trkpt lat="45.4725115" lon="9.3213336"><ele>111.19999999999999</ele><time>2026-04-04T12:57:40.013Z</time></trkpt><trkpt lat="45.472606" lon="9.3213072"><ele>111.0</ele><time>2026-04-04T12:57:42.013Z</time></trkpt><trkpt lat="45.4726967" lon="9.3213264"><ele>111.0</ele><time>2026-04-04T12:57:44.013Z</time></trkpt><trkpt lat="45.4727882" lon="9.3213591"><ele>111.0</ele><time>2026-04-04T12:57:46.013Z</time></trkpt><trkpt lat="45.4728571" lon="9.321436"><ele>111.0</ele><time>2026-04-04T12:57:48.013Z</time></trkpt><trkpt lat="45.4729308" lon="9.3215106"><ele>111.0</ele><time>2026-04-04T12:57:50.013Z</time></trkpt><trkpt lat="45.4730157" lon="9.3215697"><ele>111.0</ele><time>2026-04-04T12:57:52.013Z</time></trkpt><trkpt lat="45.4731051" lon="9.3216241"><ele>110.6</ele><time>2026-04-04T12:57:54.013Z</time></trkpt><trkpt lat="45.4731886" lon="9.3216932"><ele>110.19999999999999</ele><time>2026-04-04T12:57:56.013Z</time></trkpt><trkpt lat="45.47326" lon="9.3217963"><ele>109.80000000000001</ele><time>2026-04-04T12:57:58.013Z</time></trkpt><trkpt lat="45.4733064" lon="9.3219213"><ele>109.4</ele><time>2026-04-04T12:58:00.013Z</time></trkpt><trkpt lat="45.4733472" lon="9.3220484"><ele>109.0</ele><time>2026-04-04T12:58:02.013Z</time></trkpt><trkpt lat="45.4733928" lon="9.3221669"><ele>109.4</ele><time>2026-04-04T12:58:04.013Z</time></trkpt><trkpt lat="45.4734518" lon="9.3222766"><ele>109.80000000000001</ele><time>2026-04-04T12:58:06.013Z</time></trkpt><trkpt lat="45.4735251" lon="9.3223629"><ele>110.19999999999999</ele><time>2026-04-04T12:58:08.013Z</time></trkpt><trkpt lat="45.4736103" lon="9.3224242"><ele>110.6</ele><time>2026-04-04T12:58:10.013Z</time></trkpt><trkpt lat="45.4737026" lon="9.3224674"><ele>111.0</ele><time>2026-04-04T12:58:12.013Z</time></trkpt><trkpt lat="45.4737935" lon="9.3225071"><ele>111.0</ele><time>2026-04-04T12:58:14.013Z</time></trkpt><trkpt lat="45.4738814" lon="9.3225477"><ele>111.0</ele><time>2026-04-04T12:58:16.013Z</time></trkpt><trkpt lat="45.4739786" lon="9.3225709"><ele>111.0</ele><time>2026-04-04T12:58:18.013Z</time></trkpt><trkpt lat="45.4740635" lon="9.3225554"><ele>111.0</ele><time>2026-04-04T12:58:20.013Z</time></trkpt><trkpt lat="45.474127" lon="9.32248"><ele>111.0</ele><time>2026-04-04T12:58:22.013Z</time></trkpt><trkpt lat="45.4741582" lon="9.3223711"><ele>111.0</ele><time>2026-04-04T12:58:24.013Z</time></trkpt><trkpt lat="45.4742248" lon="9.3222799"><ele>110.8</ele><time>2026-04-04T12:58:26.013Z</time></trkpt><trkpt lat="45.4743124" lon="9.3222231"><ele>110.6</ele><time>2026-04-04T12:58:28.013Z</time></trkpt><trkpt lat="45.4744068" lon="9.3222216"><ele>110.4</ele><time>2026-04-04T12:58:30.013Z</time></trkpt><trkpt lat="45.4745031" lon="9.322216"><ele>110.2</ele><time>2026-04-04T12:58:32.013Z</time></trkpt><trkpt lat="45.4746033" lon="9.3221987"><ele>110.0</ele><time>2026-04-04T12:58:34.013Z</time></trkpt><trkpt lat="45.4746851" lon="9.3221208"><ele>110.4</ele><time>2026-04-04T12:58:36.013Z</time></trkpt><trkpt lat="45.4747424" lon="9.3220087"><ele>110.8</ele><time>2026-04-04T12:58:38.013Z</time></trkpt><trkpt lat="45.4747891" lon="9.32189"><ele>111.19999999999999</ele><time>2026-04-04T12:58:40.013Z</time></trkpt><trkpt lat="45.4748278" lon="9.3217624"><ele>111.6</ele><time>2026-04-04T12:58:42.013Z</time></trkpt><trkpt lat="45.4748647" lon="9.3216361"><ele>112.0</ele><time>2026-04-04T12:58:44.013Z</time></trkpt><trkpt lat="45.4749035" lon="9.3215073"><ele>111.8</ele><time>2026-04-04T12:58:46.013Z</time></trkpt><trkpt lat="45.4749387" lon="9.3213768"><ele>111.6</ele><time>2026-04-04T12:58:48.013Z</time></trkpt><trkpt lat="45.4749584" lon="9.3212426"><ele>111.39999999999999</ele><time>2026-04-04T12:58:50.013Z</time></trkpt><trkpt lat="45.4749698" lon="9.3211063"><ele>111.19999999999999</ele><time>2026-04-04T12:58:52.013Z</time></trkpt><trkpt lat="45.4749792" lon="9.3209782"><ele>111.0</ele><time>2026-04-04T12:58:54.013Z</time></trkpt><trkpt lat="45.475016" lon="9.3208692"><ele>111.0</ele><time>2026-04-04T12:58:56.013Z</time></trkpt><trkpt lat="45.4750997" lon="9.3208295"><ele>111.0</ele><time>2026-04-04T12:58:58.013Z</time></trkpt><trkpt lat="45.47516" lon="9.3207653"><ele>111.0</ele><time>2026-04-04T12:59:00.013Z</time></trkpt><trkpt lat="45.4752357" lon="9.3206984"><ele>111.0</ele><time>2026-04-04T12:59:02.013Z</time></trkpt><trkpt lat="45.4753097" lon="9.320624"><ele>111.0</ele><time>2026-04-04T12:59:04.013Z</time></trkpt><trkpt lat="45.4753793" lon="9.3205476"><ele>111.0</ele><time>2026-04-04T12:59:06.013Z</time></trkpt><trkpt lat="45.4754628" lon="9.3204796"><ele>110.0</ele><time>2026-04-04T12:59:08.013Z</time></trkpt><trkpt lat="45.4755475" lon="9.320403"><ele>109.0</ele><time>2026-04-04T12:59:10.013Z</time></trkpt><trkpt lat="45.4756378" lon="9.3203322"><ele>108.0</ele><time>2026-04-04T12:59:12.013Z</time></trkpt><trkpt lat="45.4757266" lon="9.3202777"><ele>107.0</ele><time>2026-04-04T12:59:14.013Z</time></trkpt><trkpt lat="45.4758234" lon="9.3202286"><ele>106.0</ele><time>2026-04-04T12:59:16.013Z</time></trkpt><trkpt lat="45.475922" lon="9.3201933"><ele>106.0</ele><time>2026-04-04T12:59:18.013Z</time></trkpt><trkpt lat="45.4760195" lon="9.3201614"><ele>106.0</ele><time>2026-04-04T12:59:20.013Z</time></trkpt><trkpt lat="45.476118" lon="9.3201227"><ele>106.0</ele><time>2026-04-04T12:59:22.013Z</time></trkpt><trkpt lat="45.4762148" lon="9.320081"><ele>106.0</ele><time>2026-04-04T12:59:24.013Z</time></trkpt><trkpt lat="45.4763118" lon="9.3200492"><ele>106.0</ele><time>2026-04-04T12:59:26.014Z</time></trkpt><trkpt lat="45.4764013" lon="9.3199883"><ele>107.19999999999999</ele><time>2026-04-04T12:59:28.013Z</time></trkpt><trkpt lat="45.4764981" lon="9.3199309"><ele>108.39999999999999</ele><time>2026-04-04T12:59:30.013Z</time></trkpt><trkpt lat="45.4765987" lon="9.3198937"><ele>109.6</ele><time>2026-04-04T12:59:32.013Z</time></trkpt><trkpt lat="45.4766934" lon="9.3198627"><ele>110.8</ele><time>2026-04-04T12:59:34.013Z</time></trkpt><trkpt lat="45.4767934" lon="9.3198343"><ele>112.0</ele><time>2026-04-04T12:59:36.013Z</time></trkpt><trkpt lat="45.4768994" lon="9.3198302"><ele>112.0</ele><time>2026-04-04T12:59:38.013Z</time></trkpt><trkpt lat="45.476991" lon="9.319859"><ele>111.99999999999999</ele><time>2026-04-04T12:59:40.013Z</time></trkpt><trkpt lat="45.477083" lon="9.3199008"><ele>111.99999999999999</ele><time>2026-04-04T12:59:42.013Z</time></trkpt><trkpt lat="45.4771713" lon="9.3199785"><ele>112.0</ele><time>2026-04-04T12:59:44.013Z</time></trkpt><trkpt lat="45.4772605" lon="9.3200483"><ele>112.0</ele><time>2026-04-04T12:59:46.013Z</time></trkpt><trkpt lat="45.4773424" lon="9.3201264"><ele>112.0</ele><time>2026-04-04T12:59:48.013Z</time></trkpt><trkpt lat="45.4774213" lon="9.3202011"><ele>111.99999999999999</ele><time>2026-04-04T12:59:50.013Z</time></trkpt><trkpt lat="45.4775064" lon="9.3202713"><ele>111.99999999999999</ele><time>2026-04-04T12:59:52.013Z</time></trkpt><trkpt lat="45.4775862" lon="9.3203435"><ele>112.0</ele><time>2026-04-04T12:59:54.013Z</time></trkpt><trkpt lat="45.4776474" lon="9.3204451"><ele>112.0</ele><time>2026-04-04T12:59:56.013Z</time></trkpt><trkpt lat="45.4776969" lon="9.3205657"><ele>112.39999999999999</ele><time>2026-04-04T12:59:58.013Z</time></trkpt><trkpt lat="45.4777425" lon="9.3206872"><ele>112.79999999999998</ele><time>2026-04-04T13:00:00.013Z</time></trkpt><trkpt lat="45.4777953" lon="9.3208066"><ele>113.2</ele><time>2026-04-04T13:00:02.013Z</time></trkpt><trkpt lat="45.4778577" lon="9.3209143"><ele>113.6</ele><time>2026-04-04T13:00:04.013Z</time></trkpt><trkpt lat="45.477927" lon="9.3210127"><ele>114.0</ele><time>2026-04-04T13:00:06.013Z</time></trkpt><trkpt lat="45.4779942" lon="9.3211123"><ele>114.2</ele><time>2026-04-04T13:00:08.013Z</time></trkpt><trkpt lat="45.4780537" lon="9.3212257"><ele>114.4</ele><time>2026-04-04T13:00:10.013Z</time></trkpt><trkpt lat="45.4781134" lon="9.3213309"><ele>114.6</ele><time>2026-04-04T13:00:12.013Z</time></trkpt><trkpt lat="45.4781862" lon="9.3214275"><ele>114.8</ele><time>2026-04-04T13:00:14.013Z</time></trkpt><trkpt lat="45.4782615" lon="9.3215028"><ele>115.0</ele><time>2026-04-04T13:00:16.013Z</time></trkpt><trkpt lat="45.4783588" lon="9.3215478"><ele>115.33333333333334</ele><time>2026-04-04T13:00:18.013Z</time></trkpt><trkpt lat="45.4784607" lon="9.3215765"><ele>115.66666666666667</ele><time>2026-04-04T13:00:20.013Z</time></trkpt><trkpt lat="45.4785557" lon="9.3216078"><ele>116.0</ele><time>2026-04-04T13:00:22.013Z</time></trkpt><trkpt lat="45.4786445" lon="9.321657"><ele>116.33333333333334</ele><time>2026-04-04T13:00:24.013Z</time></trkpt><trkpt lat="45.4787143" lon="9.3217253"><ele>116.66666666666667</ele><time>2026-04-04T13:00:26.013Z</time></trkpt><trkpt lat="45.4787813" lon="9.3217145"><ele>117.0</ele><time>2026-04-04T13:00:28.013Z</time></trkpt><trkpt lat="45.4787628" lon="9.3216017"><ele>117.0</ele><time>2026-04-04T13:00:31.013Z</time></trkpt><trkpt lat="45.4787489" lon="9.3215103"><ele>117.0</ele><time>2026-04-04T13:00:33.013Z</time></trkpt><trkpt lat="45.4787356" lon="9.3214075"><ele>117.0</ele><time>2026-04-04T13:00:35.013Z</time></trkpt><trkpt lat="45.4786966" lon="9.3213104"><ele>117.0</ele><time>2026-04-04T13:00:37.013Z</time></trkpt><trkpt lat="45.4786138" lon="9.321214"><ele>117.0</ele><time>2026-04-04T13:00:39.013Z</time></trkpt><trkpt lat="45.4785398" lon="9.3211244"><ele>117.0</ele><time>2026-04-04T13:00:41.013Z</time></trkpt><trkpt lat="45.4784535" lon="9.3210649"><ele>116.6</ele><time>2026-04-04T13:00:43.013Z</time></trkpt><trkpt lat="45.4783579" lon="9.3210236"><ele>116.19999999999999</ele><time>2026-04-04T13:00:45.013Z</time></trkpt><trkpt lat="45.4782688" lon="9.3209597"><ele>115.8</ele><time>2026-04-04T13:00:47.013Z</time></trkpt><trkpt lat="45.478218" lon="9.3208435"><ele>115.4</ele><time>2026-04-04T13:00:49.013Z</time></trkpt><trkpt lat="45.4781957" lon="9.3207067"><ele>115.0</ele><time>2026-04-04T13:00:51.013Z</time></trkpt><trkpt lat="45.4781853" lon="9.3205598"><ele>114.8</ele><time>2026-04-04T13:00:53.014Z</time></trkpt><trkpt lat="45.478166" lon="9.3204104"><ele>114.6</ele><time>2026-04-04T13:00:55.013Z</time></trkpt><trkpt lat="45.4781512" lon="9.3202687"><ele>114.4</ele><time>2026-04-04T13:00:57.013Z</time></trkpt><trkpt lat="45.4781372" lon="9.3201236"><ele>114.2</ele><time>2026-04-04T13:00:59.013Z</time></trkpt><trkpt lat="45.478132" lon="9.3199679"><ele>114.0</ele><time>2026-04-04T13:01:01.013Z</time></trkpt><trkpt lat="45.4781312" lon="9.3198285"><ele>114.0</ele><time>2026-04-04T13:01:03.013Z</time></trkpt><trkpt lat="45.4781457" lon="9.3196823"><ele>114.0</ele><time>2026-04-04T13:01:05.013Z</time></trkpt><trkpt lat="45.4781523" lon="9.3195382"><ele>114.0</ele><time>2026-04-04T13:01:07.013Z</time></trkpt><trkpt lat="45.4781363" lon="9.3193863"><ele>114.0</ele><time>2026-04-04T13:01:09.013Z</time></trkpt><trkpt lat="45.4781087" lon="9.3192507"><ele>114.0</ele><time>2026-04-04T13:01:11.013Z</time></trkpt><trkpt lat="45.4780458" lon="9.3191336"><ele>114.0</ele><time>2026-04-04T13:01:13.013Z</time></trkpt><trkpt lat="45.4779761" lon="9.3190224"><ele>114.0</ele><time>2026-04-04T13:01:15.013Z</time></trkpt><trkpt lat="45.477919" lon="9.3189018"><ele>114.0</ele><time>2026-04-04T13:01:17.013Z</time></trkpt><trkpt lat="45.4778937" lon="9.3187652"><ele>114.0</ele><time>2026-04-04T13:01:19.013Z</time></trkpt><trkpt lat="45.4779179" lon="9.3186226"><ele>114.0</ele><time>2026-04-04T13:01:21.013Z</time></trkpt><trkpt lat="45.4779439" lon="9.3184835"><ele>114.0</ele><time>2026-04-04T13:01:23.013Z</time></trkpt><trkpt lat="45.4779653" lon="9.3183415"><ele>114.0</ele><time>2026-04-04T13:01:25.013Z</time></trkpt><trkpt lat="45.4779867" lon="9.3181974"><ele>114.0</ele><time>2026-04-04T13:01:27.013Z</time></trkpt><trkpt lat="45.4780056" lon="9.3180602"><ele>114.0</ele><time>2026-04-04T13:01:29.013Z</time></trkpt><trkpt lat="45.4780262" lon="9.3179245"><ele>114.0</ele><time>2026-04-04T13:01:31.014Z</time></trkpt><trkpt lat="45.4780471" lon="9.3177904"><ele>113.66666666666667</ele><time>2026-04-04T13:01:33.013Z</time></trkpt><trkpt lat="45.4780666" lon="9.3176761"><ele>113.33333333333334</ele><time>2026-04-04T13:01:35.013Z</time></trkpt><trkpt lat="45.4780851" lon="9.3175756"><ele>113.0</ele><time>2026-04-04T13:01:37.013Z</time></trkpt><trkpt lat="45.4781581" lon="9.317554"><ele>112.66666666666667</ele><time>2026-04-04T13:01:40.013Z</time></trkpt><trkpt lat="45.4781805" lon="9.3176487"><ele>112.33333333333334</ele><time>2026-04-04T13:01:42.013Z</time></trkpt><trkpt lat="45.4781967" lon="9.3177554"><ele>112.0</ele><time>2026-04-04T13:01:44.013Z</time></trkpt><trkpt lat="45.4782115" lon="9.3178681"><ele>112.0</ele><time>2026-04-04T13:01:46.013Z</time></trkpt><trkpt lat="45.4782114" lon="9.3179729"><ele>112.0</ele><time>2026-04-04T13:01:48.013Z</time></trkpt><trkpt lat="45.4782151" lon="9.318073"><ele>112.0</ele><time>2026-04-04T13:01:50.013Z</time></trkpt><trkpt lat="45.4782219" lon="9.3181696"><ele>112.0</ele><time>2026-04-04T13:01:52.013Z</time></trkpt><trkpt lat="45.4782255" lon="9.3182635"><ele>112.0</ele><time>2026-04-04T13:01:54.013Z</time></trkpt><trkpt lat="45.478227" lon="9.31836"><ele>112.0</ele><time>2026-04-04T13:01:56.013Z</time></trkpt><trkpt lat="45.4782289" lon="9.3184591"><ele>112.0</ele><time>2026-04-04T13:01:58.013Z</time></trkpt><trkpt lat="45.4782266" lon="9.3185531"><ele>112.28571428571428</ele><time>2026-04-04T13:02:00.013Z</time></trkpt><trkpt lat="45.4782217" lon="9.318645"><ele>112.57142857142857</ele><time>2026-04-04T13:02:02.013Z</time></trkpt><trkpt lat="45.4782284" lon="9.3187383"><ele>112.85714285714286</ele><time>2026-04-04T13:02:04.013Z</time></trkpt><trkpt lat="45.4782393" lon="9.3188292"><ele>113.14285714285714</ele><time>2026-04-04T13:02:06.013Z</time></trkpt><trkpt lat="45.4782601" lon="9.3189232"><ele>113.42857142857142</ele><time>2026-04-04T13:02:08.013Z</time></trkpt><trkpt lat="45.4782863" lon="9.3190133"><ele>113.71428571428571</ele><time>2026-04-04T13:02:10.013Z</time></trkpt><trkpt lat="45.4783204" lon="9.3190981"><ele>114.0</ele><time>2026-04-04T13:02:12.013Z</time></trkpt><trkpt lat="45.4783476" lon="9.3191853"><ele>114.0</ele><time>2026-04-04T13:02:14.013Z</time></trkpt><trkpt lat="45.4784026" lon="9.3192461"><ele>113.99999999999999</ele><time>2026-04-04T13:02:16.013Z</time></trkpt><trkpt lat="45.4784688" lon="9.3192378"><ele>114.0</ele><time>2026-04-04T13:02:18.013Z</time></trkpt><trkpt lat="45.4785399" lon="9.3192152"><ele>114.0</ele><time>2026-04-04T13:02:20.013Z</time></trkpt><trkpt lat="45.4786135" lon="9.3191981"><ele>113.99999999999999</ele><time>2026-04-04T13:02:22.013Z</time></trkpt><trkpt lat="45.4786819" lon="9.3191814"><ele>114.0</ele><time>2026-04-04T13:02:24.013Z</time></trkpt><trkpt lat="45.4787476" lon="9.3191692"><ele>114.0</ele><time>2026-04-04T13:02:26.013Z</time></trkpt><trkpt lat="45.4788162" lon="9.3191585"><ele>114.33333333333333</ele><time>2026-04-04T13:02:28.013Z</time></trkpt><trkpt lat="45.4788829" lon="9.3191462"><ele>114.66666666666666</ele><time>2026-04-04T13:02:30.013Z</time></trkpt><trkpt lat="45.4789506" lon="9.3191347"><ele>115.0</ele><time>2026-04-04T13:02:32.013Z</time></trkpt><trkpt lat="45.4790295" lon="9.3191203"><ele>115.33333333333333</ele><time>2026-04-04T13:02:34.013Z</time></trkpt><trkpt lat="45.4791276" lon="9.3191092"><ele>115.66666666666666</ele><time>2026-04-04T13:02:36.013Z</time></trkpt><trkpt lat="45.4792465" lon="9.3191076"><ele>116.0</ele><time>2026-04-04T13:02:38.013Z</time></trkpt><trkpt lat="45.4793098" lon="9.3191075"><ele>115.99999999999999</ele><time>2026-04-04T13:02:39.013Z</time></trkpt><trkpt lat="45.4793767" lon="9.3191109"><ele>116.0</ele><time>2026-04-04T13:02:40.013Z</time></trkpt><trkpt lat="45.4794433" lon="9.3191133"><ele>116.0</ele><time>2026-04-04T13:02:41.013Z</time></trkpt><trkpt lat="45.4795078" lon="9.3191192"><ele>116.0</ele><time>2026-04-04T13:02:42.013Z</time></trkpt><trkpt lat="45.4796286" lon="9.3191327"><ele>115.99999999999999</ele><time>2026-04-04T13:02:44.013Z</time></trkpt><trkpt lat="45.4797335" lon="9.3191437"><ele>116.0</ele><time>2026-04-04T13:02:46.013Z</time></trkpt><trkpt lat="45.4798346" lon="9.3191516"><ele>115.66666666666666</ele><time>2026-04-04T13:02:48.013Z</time></trkpt><trkpt lat="45.4799187" lon="9.3191536"><ele>115.33333333333333</ele><time>2026-04-04T13:02:50.013Z</time></trkpt><trkpt lat="45.4799577" lon="9.3192297"><ele>115.0</ele><time>2026-04-04T13:02:52.013Z</time></trkpt><trkpt lat="45.4799595" lon="9.3193221"><ele>114.66666666666666</ele><time>2026-04-04T13:02:54.013Z</time></trkpt><trkpt lat="45.4799509" lon="9.3194346"><ele>114.33333333333333</ele><time>2026-04-04T13:02:56.013Z</time></trkpt><trkpt lat="45.4799495" lon="9.3195772"><ele>114.0</ele><time>2026-04-04T13:02:58.013Z</time></trkpt><trkpt lat="45.4799441" lon="9.3197171"><ele>114.0</ele><time>2026-04-04T13:03:00.013Z</time></trkpt><trkpt lat="45.4799376" lon="9.3198474"><ele>114.0</ele><time>2026-04-04T13:03:02.013Z</time></trkpt><trkpt lat="45.4799279" lon="9.3199836"><ele>114.0</ele><time>2026-04-04T13:03:04.013Z</time></trkpt><trkpt lat="45.479936" lon="9.3201189"><ele>114.0</ele><time>2026-04-04T13:03:06.013Z</time></trkpt><trkpt lat="45.4799246" lon="9.3202491"><ele>114.0</ele><time>2026-04-04T13:03:08.013Z</time></trkpt><trkpt lat="45.4799165" lon="9.3203918"><ele>114.0</ele><time>2026-04-04T13:03:10.013Z</time></trkpt><trkpt lat="45.4799163" lon="9.3205384"><ele>114.0</ele><time>2026-04-04T13:03:12.013Z</time></trkpt><trkpt lat="45.4799027" lon="9.3206694"><ele>114.0</ele><time>2026-04-04T13:03:14.013Z</time></trkpt><trkpt lat="45.4799152" lon="9.3207668"><ele>114.0</ele><time>2026-04-04T13:03:16.013Z</time></trkpt><trkpt lat="45.4799915" lon="9.3207946"><ele>114.0</ele><time>2026-04-04T13:03:18.013Z</time></trkpt><trkpt lat="45.4800814" lon="9.3208013"><ele>114.0</ele><time>2026-04-04T13:03:20.013Z</time></trkpt><trkpt lat="45.4801796" lon="9.3208063"><ele>114.0</ele><time>2026-04-04T13:03:22.013Z</time></trkpt><trkpt lat="45.4802844" lon="9.3208243"><ele>114.0</ele><time>2026-04-04T13:03:24.013Z</time></trkpt><trkpt lat="45.4803823" lon="9.3208418"><ele>114.0</ele><time>2026-04-04T13:03:26.013Z</time></trkpt><trkpt lat="45.4804774" lon="9.3208527"><ele>114.0</ele><time>2026-04-04T13:03:28.013Z</time></trkpt><trkpt lat="45.480567" lon="9.3208782"><ele>114.0</ele><time>2026-04-04T13:03:30.013Z</time></trkpt><trkpt lat="45.480677" lon="9.3208981"><ele>114.2</ele><time>2026-04-04T13:03:32.013Z</time></trkpt><trkpt lat="45.4807726" lon="9.3209479"><ele>114.4</ele><time>2026-04-04T13:03:34.013Z</time></trkpt><trkpt lat="45.4808549" lon="9.3209898"><ele>114.6</ele><time>2026-04-04T13:03:36.013Z</time></trkpt><trkpt lat="45.4809335" lon="9.3210449"><ele>114.8</ele><time>2026-04-04T13:03:38.013Z</time></trkpt><trkpt lat="45.4810071" lon="9.3211034"><ele>115.0</ele><time>2026-04-04T13:03:40.013Z</time></trkpt><trkpt lat="45.4810942" lon="9.3211582"><ele>115.0</ele><time>2026-04-04T13:03:42.013Z</time></trkpt><trkpt lat="45.4811815" lon="9.3212181"><ele>115.0</ele><time>2026-04-04T13:03:44.013Z</time></trkpt><trkpt lat="45.4812658" lon="9.3212749"><ele>115.0</ele><time>2026-04-04T13:03:46.013Z</time></trkpt><trkpt lat="45.481351" lon="9.3213275"><ele>115.0</ele><time>2026-04-04T13:03:48.013Z</time></trkpt><trkpt lat="45.481431" lon="9.3213847"><ele>115.0</ele><time>2026-04-04T13:03:50.013Z</time></trkpt><trkpt lat="45.4814834" lon="9.3214829"><ele>115.16666666666667</ele><time>2026-04-04T13:03:52.013Z</time></trkpt><trkpt lat="45.4814877" lon="9.3215983"><ele>115.33333333333334</ele><time>2026-04-04T13:03:54.013Z</time></trkpt><trkpt lat="45.4814897" lon="9.3217224"><ele>115.5</ele><time>2026-04-04T13:03:56.013Z</time></trkpt><trkpt lat="45.4814874" lon="9.3218508"><ele>115.66666666666666</ele><time>2026-04-04T13:03:58.013Z</time></trkpt><trkpt lat="45.4814905" lon="9.3219777"><ele>115.83333333333333</ele><time>2026-04-04T13:04:00.013Z</time></trkpt><trkpt lat="45.4814865" lon="9.3221063"><ele>116.0</ele><time>2026-04-04T13:04:02.013Z</time></trkpt><trkpt lat="45.4814842" lon="9.3222085"><ele>116.0</ele><time>2026-04-04T13:04:04.013Z</time></trkpt><trkpt lat="45.4814293" lon="9.3222678"><ele>116.0</ele><time>2026-04-04T13:04:06.013Z</time></trkpt><trkpt lat="45.4813452" lon="9.3222668"><ele>116.0</ele><time>2026-04-04T13:04:08.013Z</time></trkpt><trkpt lat="45.4812395" lon="9.3222671"><ele>116.0</ele><time>2026-04-04T13:04:10.013Z</time></trkpt><trkpt lat="45.4811257" lon="9.3222819"><ele>116.0</ele><time>2026-04-04T13:04:12.013Z</time></trkpt><trkpt lat="45.4810153" lon="9.3222951"><ele>115.6</ele><time>2026-04-04T13:04:14.013Z</time></trkpt><trkpt lat="45.4809061" lon="9.3223107"><ele>115.19999999999999</ele><time>2026-04-04T13:04:16.013Z</time></trkpt><trkpt lat="45.4807887" lon="9.3223201"><ele>114.80000000000001</ele><time>2026-04-04T13:04:18.013Z</time></trkpt><trkpt lat="45.4807246" lon="9.3223275"><ele>114.4</ele><time>2026-04-04T13:04:19.013Z</time></trkpt><trkpt lat="45.4806179" lon="9.3223502"><ele>114.0</ele><time>2026-04-04T13:04:21.013Z</time></trkpt><trkpt lat="45.4805108" lon="9.3223498"><ele>114.0</ele><time>2026-04-04T13:04:23.013Z</time></trkpt><trkpt lat="45.4804479" lon="9.3223949"><ele>114.0</ele><time>2026-04-04T13:04:26.013Z</time></trkpt></trkseg></trk></gpx>